Provisional Data: Grays Run near Gray, PA


Please select a monitoring station.
Please select start date.
Please select start date.

Toggle Unit: C/F Toggle Unit: C/F
Sample Time Temperature (C) Temperature (F) Specific Conductivity (mS/cm) pH   Turbidity (NTU+) DO (mg/L)
3/23/2021 12:00:00 AM 5.66 42.188 0.028 6.51 3216.93 12.19
3/23/2021 12:15:00 AM 5.6 42.08 0.028 6.51 3220.11 12.21
3/23/2021 12:30:00 AM 5.54 41.972 0.028 6.51 3218.04 12.24
3/23/2021 12:45:00 AM 5.47 41.846 0.028 6.51 3215.45 12.26
3/23/2021 1:00:00 AM 5.4 41.72 0.028 6.51 3213.84 12.28
3/23/2021 1:15:00 AM 5.35 41.63 0.028 6.51 3207.75 12.3
3/23/2021 1:30:00 AM 5.29 41.522 0.028 6.51 3204.69 12.32
3/23/2021 1:45:00 AM 5.22 41.396 0.028 6.51 3204.36 12.34
3/23/2021 2:00:00 AM 5.16 41.288 0.028 6.51 3199.32 12.36
3/23/2021 2:15:00 AM 5.1 41.18 0.028 6.51 3196.49 12.38
3/23/2021 2:30:00 AM 5.05 41.09 0.028 6.51 3191.94 12.4
3/23/2021 2:45:00 AM 5.01 41.018 0.028 6.51 3192.06 12.41
3/23/2021 3:00:00 AM 4.96 40.928 0.028 6.51 3190.08 12.43
3/23/2021 3:15:00 AM 4.91 40.838 0.028 6.51 3190.9 12.45
3/23/2021 3:30:00 AM 4.87 40.766 0.028 6.51 3188.24 12.46
3/23/2021 3:45:00 AM 4.83 40.694 0.028 6.5 3184.49 12.47
3/23/2021 4:00:00 AM 4.79 40.622 0.028 6.51 3180.11 12.49
3/23/2021 4:15:00 AM 4.74 40.532 0.028 6.5 3179.8 12.51
3/23/2021 4:30:00 AM 4.69 40.442 0.028 6.5 3191.26 12.52
3/23/2021 4:45:00 AM 4.65 40.37 0.028 6.51 3193.08 12.54
3/23/2021 5:00:00 AM 4.61 40.298 0.028 6.51 3192.03 12.55
3/23/2021 5:15:00 AM 4.57 40.226 0.028 6.51 3190.61 12.57
3/23/2021 5:30:00 AM 4.53 40.154 0.028 6.51 3186.94 12.58
3/23/2021 5:45:00 AM 4.48 40.064 0.028 6.5 3185.13 12.6
3/23/2021 6:00:00 AM 4.45 40.01 0.028 6.5 3185.56 12.61
3/23/2021 6:15:00 AM 4.43 39.974 0.028 6.51 3187.24 12.62
3/23/2021 6:30:00 AM 4.4 39.92 0.028 6.51 3188.16 12.63
3/23/2021 6:45:00 AM 4.36 39.848 0.028 6.5 3188.13 12.64
3/23/2021 7:00:00 AM 4.32 39.776 0.028 6.5 3187.58 12.66
3/23/2021 7:15:00 AM 4.28 39.704 0.028 6.51 3191.97 12.68
3/23/2021 7:30:00 AM 4.25 39.65 0.028 6.51 3188.46 12.7
3/23/2021 7:45:00 AM 4.23 39.614 0.028 6.52 3188.23 12.73
3/23/2021 8:00:00 AM 4.2 39.56 0.028 6.52 3189.52 12.76
3/23/2021 8:15:00 AM 4.18 39.524 0.028 6.53 3188.5 12.78
3/23/2021 8:30:00 AM 4.16 39.488 0.028 6.54 3190.08 12.8
3/23/2021 8:45:00 AM 4.15 39.47 0.028 6.54 3189.25 12.82
3/23/2021 9:00:00 AM 4.16 39.488 0.028 6.55 3187.88 12.84
3/23/2021 9:15:00 AM 4.19 39.542 0.028 6.56 3186.16 12.85
3/23/2021 9:30:00 AM 4.23 39.614 0.028 6.57 3184.35 12.85
3/23/2021 9:45:00 AM 4.28 39.704 0.028 6.58 3184.15 12.85
3/23/2021 10:00:00 AM 4.35 39.83 0.028 6.59 3187.21 12.84
3/23/2021 10:15:00 AM 4.45 40.01 0.028 6.6 3190.26 12.82
3/23/2021 10:30:00 AM 4.58 40.244 0.028 6.6 3192.12 12.79
3/23/2021 10:45:00 AM 4.73 40.514 0.028 6.61 3195.92 12.74
3/23/2021 11:00:00 AM 4.9 40.82 0.028 6.62 3199.81 12.7
3/23/2021 11:15:00 AM 5.09 41.162 0.028 6.63 3202.2 12.64
3/23/2021 11:30:00 AM 5.29 41.522 0.027 6.63 3205.29 12.57
3/23/2021 11:45:00 AM 5.48 41.864 0.027 6.64 3207.91 12.51
3/23/2021 12:00:00 PM 5.67 42.206 0.027 6.64 3206.32 12.46
3/23/2021 12:15:00 PM 5.86 42.548 0.027 6.64 3211.01 12.39
3/23/2021 12:30:00 PM 6.08 42.944 0.027 6.65 3216.56 12.33
3/23/2021 12:45:00 PM 6.27 43.286 0.027 6.64 3220.14 12.27
3/23/2021 1:00:00 PM 6.44 43.592 0.027 6.65 3223.74 12.21
3/23/2021 1:15:00 PM 6.59 43.862 0.027 6.65 3225.92 12.16
3/23/2021 1:30:00 PM 6.76 44.168 0.027 6.65 3224.68 12.11
3/23/2021 1:45:00 PM 6.9 44.42 0.027 6.65 3216.16 12.06
3/23/2021 2:00:00 PM 7.05 44.69 0.027 6.65 3235.91 12.01
3/23/2021 2:15:00 PM 7.14 44.852 0.027 6.65 3240.74 11.97
3/23/2021 2:30:00 PM 7.19 44.942 0.027 6.65 3197.98 11.93
3/23/2021 2:45:00 PM 7.22 44.996 0.027 6.65 3238.12 11.91
3/23/2021 3:00:00 PM 7.26 45.068 0.027 6.65 3172.97 11.9
3/23/2021 3:15:00 PM 7.32 45.176 0.027 6.65 3218.97 11.88
3/23/2021 3:30:00 PM 7.36 45.248 0.027 6.65 3213.04 11.86
3/23/2021 3:45:00 PM 7.37 45.266 0.027 6.65 3213.98 11.85
3/23/2021 4:00:00 PM 7.38 45.284 0.027 6.64 3197.73 11.83
3/23/2021 4:15:00 PM 7.39 45.302 0.027 6.64 3203.13 11.82
3/23/2021 4:30:00 PM 7.41 45.338 0.027 6.64 3195.22 11.8
3/23/2021 4:45:00 PM 7.43 45.374 0.027 6.64 3183.29 11.79
3/23/2021 5:00:00 PM 7.43 45.374 0.027 6.63 3181.47 11.77
3/23/2021 5:15:00 PM 7.42 45.356 0.027 6.63 3174.51 11.76
3/23/2021 5:30:00 PM 7.42 45.356 0.027 6.62 3175.05 11.75
3/23/2021 5:45:00 PM 7.42 45.356 0.027 6.62 3173.75 11.74
3/23/2021 6:00:00 PM 7.42 45.356 0.027 6.61 3174.15 11.74
3/23/2021 6:15:00 PM 7.4 45.32 0.027 6.61 3174.25 11.73
3/23/2021 6:30:00 PM 7.38 45.284 0.027 6.6 3174.03 11.72
3/23/2021 6:45:00 PM 7.37 45.266 0.027 6.59 3176.45 11.71
3/23/2021 7:00:00 PM 7.34 45.212 0.027 6.58 3169.41 11.69
3/23/2021 7:15:00 PM 7.31 45.158 0.027 6.57 3167.13 11.68
3/23/2021 7:30:00 PM 7.27 45.086 0.027 6.56 3164.47 11.66
3/23/2021 7:45:00 PM 7.24 45.032 0.027 6.55 3164.94 11.66
3/23/2021 8:00:00 PM 7.19 44.942 0.027 6.54 3168.05 11.67
3/23/2021 8:15:00 PM 7.14 44.852 0.027 6.54 3161.27 11.68
3/23/2021 8:30:00 PM 7.1 44.78 0.027 6.53 3158.94 11.7
3/23/2021 8:45:00 PM 7.04 44.672 0.027 6.53 3153.76 11.71
3/23/2021 9:00:00 PM 6.99 44.582 0.027 6.53 3147.25 11.73
3/23/2021 9:15:00 PM 6.94 44.492 0.027 6.53 3144.77 11.74
3/23/2021 9:30:00 PM 6.89 44.402 0.027 6.53 3139.62 11.76
3/23/2021 9:45:00 PM 6.84 44.312 0.027 6.53 3137.63 11.78
3/23/2021 10:00:00 PM 6.79 44.222 0.027 6.52 3133.93 11.79
3/23/2021 10:15:00 PM 6.73 44.114 0.027 6.52 3148.24 11.81
3/23/2021 10:30:00 PM 6.68 44.024 0.027 6.52 3147.51 11.82
3/23/2021 10:45:00 PM 6.63 43.934 0.027 6.52 3147.24 11.83
3/23/2021 11:00:00 PM 6.57 43.826 0.027 6.52 3148.05 11.86
3/23/2021 11:15:00 PM 6.52 43.736 0.027 6.52 3148.1 11.87
3/23/2021 11:30:00 PM 6.46 43.628 0.027 6.52 3146.9 11.89
3/23/2021 11:45:00 PM 6.4 43.52 0.027 6.52 3147.14 11.91
3/24/2021 12:00:00 AM 6.35 43.43 0.027 6.52 3145.16 11.93
3/24/2021 12:15:00 AM 6.3 43.34 0.027 6.52 3146.43 11.94
3/24/2021 12:30:00 AM 6.26 43.268 0.027 6.52 3144.89 11.96
3/24/2021 12:45:00 AM 6.22 43.196 0.027 6.52 3144.69 11.97
3/24/2021 1:00:00 AM 6.18 43.124 0.027 6.52 3143.41 11.99
3/24/2021 1:15:00 AM 6.15 43.07 0.027 6.52 3142.98 12
3/24/2021 1:30:00 AM 6.13 43.034 0.027 6.52 3145.35 12.01
3/24/2021 1:45:00 AM 6.12 43.016 0.027 6.53 3143.95 12.02
3/24/2021 2:00:00 AM 6.11 42.998 0.027 6.53 3145.18 12.02
3/24/2021 2:15:00 AM 6.1 42.98 0.027 6.53 3144.35 12.02
3/24/2021 2:30:00 AM 6.08 42.944 0.027 6.53 3144.91 12.02
3/24/2021 2:45:00 AM 6.07 42.926 0.027 6.53 3143.8 12.03
3/24/2021 3:00:00 AM 6.06 42.908 0.027 6.53 3142.58 12.02
3/24/2021 3:15:00 AM 6.06 42.908 0.027 6.53 3139.33 12.02
3/24/2021 3:30:00 AM 6.06 42.908 0.027 6.55 3116.33 12.02
3/24/2021 3:45:00 AM 6.05 42.89 0.027 6.56 3117.69 12.03
3/24/2021 4:00:00 AM 6.05 42.89 0.027 6.56 3110.88 12.03
3/24/2021 4:15:00 AM 6.05 42.89 0.027 6.55 3109.45 12.03
3/24/2021 4:30:00 AM 6.06 42.908 0.027 6.56 3108.42 12.02
3/24/2021 4:45:00 AM 6.06 42.908 0.027 6.56 3105.74 12.02
3/24/2021 5:00:00 AM 6.06 42.908 0.027 6.55 3102.56 12.02
3/24/2021 5:15:00 AM 6.06 42.908 0.027 6.55 3098.4 12.02
3/24/2021 5:30:00 AM 6.06 42.908 0.027 6.55 3133.22 12.01
3/24/2021 5:45:00 AM 6.07 42.926 0.027 6.54 3039.17 12.02
3/24/2021 6:00:00 AM 6.07 42.926 0.027 6.55 3093.83 12.01
3/24/2021 6:15:00 AM 6.07 42.926 0.027 6.54 3118.46 12.02
3/24/2021 6:30:00 AM 6.07 42.926 0.027 6.55 3051.14 12.01
3/24/2021 6:45:00 AM 6.08 42.944 0.027 6.55 3046.46 12.01
3/24/2021 7:00:00 AM 6.09 42.962 0.027 6.55 3099.7 12
3/24/2021 7:15:00 AM 6.09 42.962 0.027 6.54 3098.55 12
3/24/2021 7:30:00 AM 6.1 42.98 0.027 6.54 3099.23 12
3/24/2021 7:45:00 AM 6.1 42.98 0.027 6.55 3098.96 12.01
3/24/2021 8:00:00 AM 6.11 42.998 0.027 6.54 3087.93 12.01
3/24/2021 8:15:00 AM 6.11 42.998 0.026 6.54 3089.33 12.01
3/24/2021 8:30:00 AM 6.12 43.016 0.026 6.54 3089.87 12.02
3/24/2021 8:45:00 AM 6.13 43.034 0.026 6.55 3090.2 12.02
3/24/2021 9:00:00 AM 6.14 43.052 0.026 6.55 3089.8 12.02
3/24/2021 9:15:00 AM 6.15 43.07 0.026 6.55 3088.66 12.02
3/24/2021 9:30:00 AM 6.17 43.106 0.026 6.55 3087.77 12.02
3/24/2021 9:45:00 AM 6.18 43.124 0.026 6.56 3086.13 12.02
3/24/2021 10:00:00 AM 6.2 43.16 0.026 6.56 3088.63 12.02
3/24/2021 10:15:00 AM 6.22 43.196 0.026 6.62 3090.41 12.02
3/24/2021 10:30:00 AM 6.25 43.25 0.026 6.61 3090.06 12.03
3/24/2021 10:45:00 AM 6.27 43.286 0.026 6.61 3093.43 12.04
3/24/2021 11:00:00 AM 6.29 43.322 0.026 6.62 3094.04 12.03
3/24/2021 11:15:00 AM 6.31 43.358 0.026 6.63 3097.7 12.03
3/24/2021 11:30:00 AM 6.33 43.394 0.026 6.64 3093.81 12.02
3/24/2021 11:45:00 AM 6.36 43.448 0.026 6.64 3087.58 12.01
3/24/2021 12:00:00 PM 6.38 43.484 0.026 6.64 3086.64 12
3/24/2021 12:15:00 PM 6.42 43.556 0.026 6.64 3076.97 12
3/24/2021 12:30:00 PM 6.45 43.61 0.026 6.64 3075.57 11.99
3/24/2021 12:45:00 PM 6.49 43.682 0.026 6.65 3077.74 12
3/24/2021 1:00:00 PM 6.53 43.754 0.026 6.64 3070.52 11.97
3/24/2021 1:15:00 PM 6.57 43.826 0.026 6.64 3073.09 11.96
3/24/2021 1:30:00 PM 6.61 43.898 0.026 6.64 3066.14 11.95
3/24/2021 1:45:00 PM 6.64 43.952 0.025 6.63 3065.13 11.93
3/24/2021 2:00:00 PM 6.67 44.006 0.025 6.63 3065.72 11.93
3/24/2021 2:15:00 PM 6.69 44.042 0.025 6.63 3065.48 11.92
3/24/2021 2:30:00 PM 6.71 44.078 0.025 6.63 3066.7 11.9
3/24/2021 2:45:00 PM 6.71 44.078 0.025 6.62 3072.9 11.9
3/24/2021 3:00:00 PM 6.72 44.096 0.025 6.62 3070.7 11.89
3/24/2021 3:15:00 PM 6.72 44.096 0.025 6.61 3068.6 11.88
3/24/2021 3:30:00 PM 6.72 44.096 0.025 6.61 3068.03 11.87
3/24/2021 3:45:00 PM 6.73 44.114 0.025 6.61 3063.72 11.87
3/24/2021 4:00:00 PM 6.76 44.168 0.025 6.6 3059.77 11.86
3/24/2021 4:15:00 PM 6.78 44.204 0.025 6.61 3052.31 11.86
3/24/2021 4:30:00 PM 6.82 44.276 0.025 6.62 3055.13 11.86
3/24/2021 4:45:00 PM 6.86 44.348 0.025 6.62 3055.57 11.85
3/24/2021 5:00:00 PM 6.9 44.42 0.025 6.62 3050.15 11.83
3/24/2021 5:15:00 PM 6.92 44.456 0.025 6.61 3047.62 11.81
3/24/2021 5:30:00 PM 6.94 44.492 0.025 6.6 3041.82 11.79
3/24/2021 5:45:00 PM 6.94 44.492 0.025 6.6 3027.01 11.78
3/24/2021 6:00:00 PM 6.95 44.51 0.025 6.59 2991.31 11.77
3/24/2021 6:15:00 PM 6.94 44.492 0.025 6.58 2972.76 11.77
3/24/2021 6:30:00 PM 6.94 44.492 0.025 6.58 2954.55 11.76
3/24/2021 6:45:00 PM 6.95 44.51 0.025 6.57 2936.16 11.75
3/24/2021 7:00:00 PM 6.94 44.492 0.025 6.57 2954.83 11.74
3/24/2021 7:15:00 PM 6.94 44.492 0.025 6.57 2952.69 11.73
3/24/2021 7:30:00 PM 6.94 44.492 0.025 6.56 2946.24 11.72
3/24/2021 7:45:00 PM 6.93 44.474 0.025 6.55 2937.36 11.71
3/24/2021 8:00:00 PM 6.91 44.438 0.025 6.54 2937.69 11.71
3/24/2021 8:15:00 PM 6.91 44.438 0.025 6.54 2940.66 11.71
3/24/2021 8:30:00 PM 6.9 44.42 0.025 6.53 2940.32 11.71
3/24/2021 8:45:00 PM 6.89 44.402 0.025 6.53 2943.21 11.72
3/24/2021 9:00:00 PM 6.89 44.402 0.025 6.52 2942.26 11.72
3/24/2021 9:15:00 PM 6.87 44.366 0.025 6.51 2934.71 11.72
3/24/2021 9:30:00 PM 6.86 44.348 0.024 6.51 2857.2 11.73
3/24/2021 9:45:00 PM 6.86 44.348 0.024 6.51 2813.19 11.73
3/24/2021 10:00:00 PM 6.85 44.33 0.024 6.5 2804.89 11.73
3/24/2021 10:15:00 PM 6.84 44.312 0.024 6.5 2748.27 11.73
3/24/2021 10:30:00 PM 6.84 44.312 0.024 6.5 2702.23 11.74
3/24/2021 10:45:00 PM 6.83 44.294 0.024 6.5 2644.55 11.74
3/24/2021 11:00:00 PM 6.82 44.276 0.024 6.49 2639.96 11.74
3/24/2021 11:15:00 PM 6.81 44.258 0.024 6.49 2638.54 11.74
3/24/2021 11:30:00 PM 6.81 44.258 0.024 6.49 2626.7 11.75
3/24/2021 11:45:00 PM 6.8 44.24 0.024 6.49 2516.21 11.75
3/25/2021 12:00:00 AM 6.79 44.222 0.024 6.49 2475.76 11.75
3/25/2021 12:15:00 AM 6.78 44.204 0.024 6.48 2474.43 11.76
3/25/2021 12:30:00 AM 6.77 44.186 0.024 6.48 2471.8 11.76
3/25/2021 12:45:00 AM 6.77 44.186 0.024 6.48 2449.29 11.76
3/25/2021 1:00:00 AM 6.77 44.186 0.024 6.49 2437.88 11.76
3/25/2021 1:15:00 AM 6.77 44.186 0.024 6.48 2312.7 11.76
3/25/2021 1:30:00 AM 6.76 44.168 0.024 6.48 2258.91 11.77
3/25/2021 1:45:00 AM 6.76 44.168 0.024 6.48 2210.33 11.77
3/25/2021 2:00:00 AM 6.76 44.168 0.024 6.48 2187.35 11.76
3/25/2021 2:15:00 AM 6.76 44.168 0.024 6.47 2174.76 11.76
3/25/2021 2:30:00 AM 6.76 44.168 0.024 6.48 2152.1 11.76
3/25/2021 2:45:00 AM 6.77 44.186 0.024 6.48 1596.89 11.76
3/25/2021 3:00:00 AM 6.77 44.186 0.024 6.47 1595.36 11.75
3/25/2021 3:15:00 AM 6.78 44.204 0.024 6.48 1565.22 11.75
3/25/2021 3:30:00 AM 6.78 44.204 0.024 6.47 1559.68 11.76
3/25/2021 3:45:00 AM 6.78 44.204 0.024 6.47 1561.3 11.75
3/25/2021 4:00:00 AM 6.78 44.204 0.024 6.47 1556.77 11.75
3/25/2021 4:15:00 AM 6.78 44.204 0.024 6.47 1552.98 11.75
3/25/2021 4:30:00 AM 6.78 44.204 0.024 6.47 1548.8 11.76
3/25/2021 4:45:00 AM 6.78 44.204 0.024 6.47 1556.15 11.76
3/25/2021 5:00:00 AM 6.78 44.204 0.024 6.47 1546.54 11.76
3/25/2021 5:15:00 AM 6.77 44.186 0.024 6.47 1504.46 11.76
3/25/2021 5:30:00 AM 6.77 44.186 0.024 6.47 1439.27 11.76
3/25/2021 5:45:00 AM 6.77 44.186 0.024 6.47 1155.87 11.77
3/25/2021 6:00:00 AM 6.76 44.168 0.024 6.47 1111.61 11.77
3/25/2021 6:15:00 AM 6.75 44.15 0.024 6.46 1103.05 11.77
3/25/2021 6:30:00 AM 6.75 44.15 0.024 6.47 1057.73 11.78
3/25/2021 6:45:00 AM 6.75 44.15 0.024 6.46 1008.15 11.77
3/25/2021 7:00:00 AM 6.75 44.15 0.024 6.46 958.71 11.77
3/25/2021 7:15:00 AM 6.74 44.132 0.023 6.47 947.65 11.78
3/25/2021 7:30:00 AM 6.74 44.132 0.023 6.46 942.36 11.8
3/25/2021 7:45:00 AM 6.74 44.132 0.023 6.46 935.39 11.81
3/25/2021 8:00:00 AM 6.74 44.132 0.023 6.46 932.75 11.82
3/25/2021 8:15:00 AM 6.75 44.15 0.023 6.47 928.84 11.83
3/25/2021 8:30:00 AM 6.76 44.168 0.023 6.47 902.48 11.85
3/25/2021 8:45:00 AM 6.77 44.186 0.023 6.48 872.73 11.86
3/25/2021 9:00:00 AM 6.79 44.222 0.023 6.49 850.92 11.88
3/25/2021 9:15:00 AM 6.81 44.258 0.023 6.49 843.78 11.88
3/25/2021 9:30:00 AM 6.84 44.312 0.023 6.5 838.62 11.89
3/25/2021 9:45:00 AM 6.88 44.384 0.023 6.52 836.8 11.9
3/25/2021 10:00:00 AM 6.93 44.474 0.023 6.53 838.49 11.89
3/25/2021 10:15:00 AM 6.97 44.546 0.023 6.54 829.35 11.88
3/25/2021 10:30:00 AM 7.02 44.636 0.023 6.56 820.12 11.88
3/25/2021 10:45:00 AM 7.07 44.726 0.023 6.58 818.33 11.87
3/25/2021 11:00:00 AM 7.14 44.852 0.023 6.59 811.92 11.86
3/25/2021 11:15:00 AM 7.23 45.014 0.023 6.61 804.42 11.84
3/25/2021 11:30:00 AM 7.32 45.176 0.023 6.6 803.27 11.81
3/25/2021 11:45:00 AM 7.44 45.392 0.023 6.61 797.02 11.79
3/25/2021 12:00:00 PM 7.51 45.518 0.023 6.6 793.05 11.77
3/25/2021 12:15:00 PM 7.58 45.644 0.023 6.59 782.39 11.75
3/25/2021 12:30:00 PM 7.67 45.806 0.022 6.6 770.94 11.73
3/25/2021 12:45:00 PM 7.86 46.148 0.022 6.61 612.48 11.69
3/25/2021 1:00:00 PM 8.01 46.418 0.023 6.61 488.62 11.64
3/25/2021 1:15:00 PM 8.16 46.688 0.023 6.61 448.66 11.6
3/25/2021 1:30:00 PM 8.37 47.066 0.023 6.62 356.54 11.53
3/25/2021 1:45:00 PM 8.5 47.3 0.023 6.62 451.18 11.49
3/25/2021 2:00:00 PM 8.64 47.552 0.023 6.63 486.52 11.45
3/25/2021 2:15:00 PM 8.74 47.732 0.023 6.62 459.95 11.41
3/25/2021 2:30:00 PM 8.84 47.912 0.023 6.62 450.76 11.38
3/25/2021 2:45:00 PM 8.93 48.074 0.023 6.62 470.39 11.34
3/25/2021 3:00:00 PM 8.98 48.164 0.023 6.63 470.51 11.32
3/25/2021 3:15:00 PM 8.99 48.182 0.023 6.63 471.41 11.31
3/25/2021 3:30:00 PM 9.04 48.272 0.023 6.62 469.86 11.29
3/25/2021 3:45:00 PM 9.07 48.326 0.023 6.62 470.38 11.26
3/25/2021 4:00:00 PM 9.08 48.344 0.023 6.62 470.24 11.25
3/25/2021 4:15:00 PM 9.09 48.362 0.023 6.61 469.96 11.24
3/25/2021 4:30:00 PM 9.09 48.362 0.023 6.6 469.97 11.24
3/25/2021 4:45:00 PM 9.11 48.398 0.023 6.6 469.26 11.22
3/25/2021 5:00:00 PM 9.11 48.398 0.023 6.6 468.03 11.21
3/25/2021 5:15:00 PM 9.1 48.38 0.023 6.59 464.9 11.19
3/25/2021 5:30:00 PM 9.11 48.398 0.023 6.58 461.37 11.18
3/25/2021 5:45:00 PM 9.09 48.362 0.023 6.58 459.54 11.17
3/25/2021 6:00:00 PM 9.07 48.326 0.023 6.57 458.2 11.16
3/25/2021 6:15:00 PM 9.04 48.272 0.023 6.57 458.65 11.16
3/25/2021 6:30:00 PM 9.01 48.218 0.023 6.6 457.91 11.15
3/25/2021 6:45:00 PM 8.98 48.164 0.023 6.6 457.31 11.14
3/25/2021 7:00:00 PM 8.95 48.11 0.023 6.59 457.28 11.13
3/25/2021 7:15:00 PM 8.91 48.038 0.023 6.57 456.05 11.12
3/25/2021 7:30:00 PM 8.85 47.93 0.024 6.55 455.88 11.12
3/25/2021 7:45:00 PM 8.81 47.858 0.024 6.54 456.17 11.12
3/25/2021 8:00:00 PM 8.77 47.786 0.024 6.53 457.25 11.13
3/25/2021 8:15:00 PM 8.74 47.732 0.024 6.54 452.29 11.14
3/25/2021 8:30:00 PM 8.71 47.678 0.024 6.54 449.01 11.15
3/25/2021 8:45:00 PM 8.67 47.606 0.024 6.54 446.77 11.16
3/25/2021 9:00:00 PM 8.65 47.57 0.024 6.55 446.1 11.17
3/25/2021 9:15:00 PM 8.64 47.552 0.023 6.56 444.12 11.17
3/25/2021 9:30:00 PM 8.63 47.534 0.023 6.56 444.91 11.17
3/25/2021 9:45:00 PM 8.61 47.498 0.023 6.55 443.94 11.18
3/25/2021 10:00:00 PM 8.59 47.462 0.023 6.56 442.51 11.18
3/25/2021 10:15:00 PM 8.59 47.462 0.023 6.56 441.07 11.18
3/25/2021 10:30:00 PM 8.57 47.426 0.023 6.55 437.71 11.18
3/25/2021 10:45:00 PM 8.56 47.408 0.023 6.55 438.81 11.18
3/25/2021 11:00:00 PM 8.52 47.336 0.023 6.55 438.92 11.19
3/25/2021 11:15:00 PM 8.5 47.3 0.023 6.56 436.29 11.2
3/25/2021 11:30:00 PM 8.49 47.282 0.023 6.56 435.54 11.2
3/25/2021 11:45:00 PM 8.46 47.228 0.023 6.57 433.41 11.2
3/26/2021 12:00:00 AM 8.45 47.21 0.023 6.56 435.29 11.2
3/26/2021 12:15:00 AM 8.45 47.21 0.023 6.56 434.8 11.2
3/26/2021 12:30:00 AM 8.43 47.174 0.023 6.56 433.52 11.2
3/26/2021 12:45:00 AM 8.42 47.156 0.023 6.56 432.92 11.2
3/26/2021 1:00:00 AM 8.42 47.156 0.023 6.56 433.55 11.2
3/26/2021 1:15:00 AM 8.41 47.138 0.023 6.56 434.12 11.2
3/26/2021 1:30:00 AM 8.41 47.138 0.023 6.56 433.23 11.2
3/26/2021 1:45:00 AM 8.41 47.138 0.023 6.56 433.19 11.19
3/26/2021 2:00:00 AM 8.4 47.12 0.023 6.56 431.23 11.19
3/26/2021 2:15:00 AM 8.39 47.102 0.023 6.56 431.33 11.19
3/26/2021 2:30:00 AM 8.38 47.084 0.023 6.56 431.85 11.2
3/26/2021 2:45:00 AM 8.37 47.066 0.023 6.55 432.74 11.2
3/26/2021 3:00:00 AM 8.35 47.03 0.023 6.56 432.85 11.2
3/26/2021 3:15:00 AM 8.33 46.994 0.023 6.55 431.68 11.2
3/26/2021 3:30:00 AM 8.33 46.994 0.023 6.56 430.84 11.21
3/26/2021 3:45:00 AM 8.34 47.012 0.023 6.56 429.3 11.2
3/26/2021 4:00:00 AM 8.32 46.976 0.023 6.56 426.32 11.2
3/26/2021 4:15:00 AM 8.31 46.958 0.023 6.56 425.11 11.19
3/26/2021 4:30:00 AM 8.3 46.94 0.023 6.56 423.55 11.19
3/26/2021 4:45:00 AM 8.3 46.94 0.023 6.57 424.64 11.18
3/26/2021 5:00:00 AM 8.3 46.94 0.023 6.57 423.91 11.18
3/26/2021 5:15:00 AM 8.31 46.958 0.023 6.57 424.54 11.18
3/26/2021 5:30:00 AM 8.31 46.958 0.023 6.57 423.7 11.17
3/26/2021 5:45:00 AM 8.32 46.976 0.023 6.57 423.81 11.17
3/26/2021 6:00:00 AM 8.32 46.976 0.023 6.57 422.54 11.17
3/26/2021 6:15:00 AM 8.34 47.012 0.023 6.58 423.1 11.16
3/26/2021 6:30:00 AM 8.35 47.03 0.023 6.58 424.15 11.16
3/26/2021 6:45:00 AM 8.34 47.012 0.023 6.58 421.11 11.15
3/26/2021 7:00:00 AM 8.36 47.048 0.023 6.58 420.2 11.15
3/26/2021 7:15:00 AM 8.38 47.084 0.023 6.58 419.82 11.15
3/26/2021 7:30:00 AM 8.38 47.084 0.023 6.58 419.57 11.15
3/26/2021 7:45:00 AM 8.4 47.12 0.023 6.58 418.82 11.15
3/26/2021 8:00:00 AM 8.42 47.156 0.023 6.59 418.36 11.17
3/26/2021 8:15:00 AM 8.43 47.174 0.023 6.6 418.68 11.17
3/26/2021 8:30:00 AM 8.45 47.21 0.023 6.61 417.44 11.18
3/26/2021 8:45:00 AM 8.48 47.264 0.023 6.61 417.99 11.2
3/26/2021 9:00:00 AM 8.5 47.3 0.023 6.62 415.93 11.2
3/26/2021 9:15:00 AM 8.54 47.372 0.023 6.63 416.59 11.2
3/26/2021 9:30:00 AM 8.59 47.462 0.023 6.64 415.73 11.21
3/26/2021 9:45:00 AM 8.67 47.606 0.023 6.65 414.05 11.2
3/26/2021 10:00:00 AM 8.75 47.75 0.023 6.66 412.14 11.19
3/26/2021 10:15:00 AM 8.82 47.876 0.023 6.66 414.29 11.17
3/26/2021 10:30:00 AM 8.87 47.966 0.022 6.65 414.22 11.15
3/26/2021 10:45:00 AM 8.94 48.092 0.023 6.66 414.85 11.15
3/26/2021 11:00:00 AM 9.04 48.272 0.023 6.68 414.41 11.13
3/26/2021 11:15:00 AM 9.12 48.416 0.023 6.68 413.44 11.12
3/26/2021 11:30:00 AM 9.14 48.452 0.023 6.69 414.36 11.1
3/26/2021 11:45:00 AM 9.19 48.542 0.023 6.69 413.53 11.09
3/26/2021 12:00:00 PM 9.28 48.704 0.023 6.7 413.59 11.08
3/26/2021 12:15:00 PM 9.33 48.794 0.023 6.7 413.8 11.06
3/26/2021 12:30:00 PM 9.41 48.938 0.023 6.71 411.39 11.05
3/26/2021 12:45:00 PM 9.5 49.1 0.023 6.72 411.76 11.03
3/26/2021 1:00:00 PM 9.56 49.208 0.023 6.72 411.62 11
3/26/2021 1:15:00 PM 9.61 49.298 0.023 6.72 411.94 10.99
3/26/2021 1:30:00 PM 9.63 49.334 0.023 6.72 409.45 10.98
3/26/2021 1:45:00 PM 9.63 49.334 0.023 6.72 409 10.98
3/26/2021 2:00:00 PM 9.64 49.352 0.023 6.72 408.87 11
3/26/2021 2:15:00 PM 9.69 49.442 0.023 6.72 408.79 10.99
3/26/2021 2:30:00 PM 9.7 49.46 0.023 6.72 410.3 11
3/26/2021 2:45:00 PM 9.71 49.478 0.023 6.72 409.43 11
3/26/2021 3:00:00 PM 9.73 49.514 0.022 6.71 406.13 10.99
3/26/2021 3:15:00 PM 9.75 49.55 0.022 6.71 406.83 10.99
3/26/2021 3:30:00 PM 9.74 49.532 0.022 6.71 406.77 10.98
3/26/2021 3:45:00 PM 9.76 49.568 0.022 6.72 407.89 10.98
3/26/2021 4:00:00 PM 9.74 49.532 0.022 6.7 408.37 10.99
3/26/2021 4:15:00 PM 9.73 49.514 0.022 6.71 409.6 10.99
3/26/2021 4:30:00 PM 9.67 49.406 0.022 6.7 407.81 11
3/26/2021 4:45:00 PM 9.63 49.334 0.022 6.69 408.41 11.01
3/26/2021 5:00:00 PM 9.59 49.262 0.022 6.69 409.82 11.02
3/26/2021 5:15:00 PM 9.55 49.19 0.022 6.69 410.25 11.03
3/26/2021 5:30:00 PM 9.5 49.1 0.022 6.68 411.34 11.03
3/26/2021 5:45:00 PM 9.45 49.01 0.022 6.68 412.48 11.04
3/26/2021 6:00:00 PM 9.39 48.902 0.022 6.67 413.32 11.06
3/26/2021 6:15:00 PM 9.32 48.776 0.022 6.66 411.52 11.06
3/26/2021 6:30:00 PM 9.26 48.668 0.022 6.66 409.58 11.07
3/26/2021 6:45:00 PM 9.2 48.56 0.022 6.65 410.1 11.07
3/26/2021 7:00:00 PM 9.13 48.434 0.022 6.64 409.46 11.08
3/26/2021 7:15:00 PM 9.06 48.308 0.022 6.63 409.62 11.09
3/26/2021 7:30:00 PM 8.99 48.182 0.022 6.62 410.45 11.1
3/26/2021 7:45:00 PM 8.92 48.056 0.023 6.62 410.95 11.11
3/26/2021 8:00:00 PM 8.86 47.948 0.023 6.61 411.42 11.12
3/26/2021 8:15:00 PM 8.8 47.84 0.023 6.6 411.56 11.14
3/26/2021 8:30:00 PM 8.74 47.732 0.023 6.61 412.91 11.16
3/26/2021 8:45:00 PM 8.68 47.624 0.023 6.61 413.82 11.18
3/26/2021 9:00:00 PM 8.63 47.534 0.023 6.61 414.99 11.19
3/26/2021 9:15:00 PM 8.57 47.426 0.023 6.61 415.16 11.22
3/26/2021 9:30:00 PM 8.52 47.336 0.023 6.61 414.89 11.23
3/26/2021 9:45:00 PM 8.47 47.246 0.023 6.61 414.58 11.25
3/26/2021 10:00:00 PM 8.42 47.156 0.023 6.61 414.24 11.26
3/26/2021 10:15:00 PM 8.38 47.084 0.023 6.61 414.34 11.28
3/26/2021 10:30:00 PM 8.33 46.994 0.023 6.61 414.18 11.29
3/26/2021 10:45:00 PM 8.28 46.904 0.023 6.61 414.81 11.31
3/26/2021 11:00:00 PM 8.25 46.85 0.023 6.61 413.55 11.32
3/26/2021 11:15:00 PM 8.19 46.742 0.023 6.6 412.32 11.34
3/26/2021 11:30:00 PM 8.15 46.67 0.023 6.6 411.71 11.35
3/26/2021 11:45:00 PM 8.11 46.598 0.023 6.61 411.58 11.36
3/27/2021 12:00:00 AM 8.06 46.508 0.023 6.6 408.53 11.38
3/27/2021 12:15:00 AM 8.03 46.454 0.023 6.6 407.8 11.39
3/27/2021 12:30:00 AM 7.98 46.364 0.023 6.59 408.49 11.4
3/27/2021 12:45:00 AM 7.93 46.274 0.023 6.59 409.74 11.41
3/27/2021 1:00:00 AM 7.88 46.184 0.023 6.58 412.21 11.42
3/27/2021 1:15:00 AM 7.82 46.076 0.023 6.58 411.38 11.44
3/27/2021 1:30:00 AM 7.77 45.986 0.023 6.58 411.69 11.45
3/27/2021 1:45:00 AM 7.71 45.878 0.023 6.58 411.02 11.48
3/27/2021 2:00:00 AM 7.66 45.788 0.023 6.58 411.64 11.49
3/27/2021 2:15:00 AM 7.62 45.716 0.023 6.58 411.33 11.51
3/27/2021 2:30:00 AM 7.59 45.662 0.023 6.58 411.76 11.52
3/27/2021 2:45:00 AM 7.55 45.59 0.023 6.58 412.3 11.54
3/27/2021 3:00:00 AM 7.52 45.536 0.023 6.58 418.52 11.54
3/27/2021 3:15:00 AM 7.5 45.5 0.022 6.58 419.72 11.55
3/27/2021 3:30:00 AM 7.48 45.464 0.023 6.58 420.05 11.56
3/27/2021 3:45:00 AM 7.46 45.428 0.023 6.58 425.89 11.56
3/27/2021 4:00:00 AM 7.44 45.392 0.023 6.58 426.3 11.57
3/27/2021 4:15:00 AM 7.41 45.338 0.023 6.57 427.25 11.58
3/27/2021 4:30:00 AM 7.39 45.302 0.023 6.58 427.69 11.58
3/27/2021 4:45:00 AM 7.38 45.284 0.023 6.58 427.53 11.59
3/27/2021 5:00:00 AM 7.36 45.248 0.023 6.58 427.5 11.6
3/27/2021 5:15:00 AM 7.33 45.194 0.023 6.57 427.39 11.6
3/27/2021 5:30:00 AM 7.31 45.158 0.023 6.57 427.41 11.61
3/27/2021 5:45:00 AM 7.29 45.122 0.023 6.57 427.28 11.62
3/27/2021 6:00:00 AM 7.27 45.086 0.023 6.57 426.82 11.62
3/27/2021 6:15:00 AM 7.26 45.068 0.023 6.57 427.02 11.63
3/27/2021 6:30:00 AM 7.23 45.014 0.023 6.57 426.54 11.63
3/27/2021 6:45:00 AM 7.21 44.978 0.023 6.58 426.18 11.64
3/27/2021 7:00:00 AM 7.18 44.924 0.023 6.57 425.94 11.65
3/27/2021 7:15:00 AM 7.15 44.87 0.023 6.57 425.93 11.67
3/27/2021 7:30:00 AM 7.13 44.834 0.023 6.57 423.68 11.69
3/27/2021 7:45:00 AM 7.1 44.78 0.023 6.58 421.88 11.72
3/27/2021 8:00:00 AM 7.08 44.744 0.023 6.58 421.98 11.74
3/27/2021 8:15:00 AM 7.06 44.708 0.023 6.57 421.24 11.76
3/27/2021 8:30:00 AM 7.03 44.654 0.023 6.59 420.75 11.78
3/27/2021 8:45:00 AM 7.01 44.618 0.023 6.59 420.59 11.8
3/27/2021 9:00:00 AM 7.01 44.618 0.023 6.61 420.68 11.81
3/27/2021 9:15:00 AM 7.03 44.654 0.023 6.62 420.57 11.83
3/27/2021 9:30:00 AM 7.06 44.708 0.022 6.63 420.38 11.84
3/27/2021 9:45:00 AM 7.11 44.798 0.022 6.63 420.06 11.83
3/27/2021 10:00:00 AM 7.19 44.942 0.022 6.65 419.94 11.83
3/27/2021 10:15:00 AM 7.27 45.086 0.022 6.67 419.21 11.81
3/27/2021 10:30:00 AM 7.35 45.23 0.022 6.66 418.41 11.79
3/27/2021 10:45:00 AM 7.45 45.41 0.022 6.69 418.53 11.77
3/27/2021 11:00:00 AM 7.53 45.554 0.022 6.7 418.27 11.74
3/27/2021 11:15:00 AM 7.62 45.716 0.022 6.71 417.25 11.72
3/27/2021 11:30:00 AM 7.75 45.95 0.022 6.72 416.85 11.7
3/27/2021 11:45:00 AM 7.96 46.328 0.022 6.73 415.08 11.66
3/27/2021 12:00:00 PM 8.07 46.526 0.022 6.73 413.04 11.62
3/27/2021 12:15:00 PM 8.14 46.652 0.022 6.73 411.77 11.6
3/27/2021 12:30:00 PM 8.21 46.778 0.022 6.72 411.95 11.57
3/27/2021 12:45:00 PM 8.43 47.174 0.022 6.73 409.68 11.52
3/27/2021 1:00:00 PM 8.66 47.588 0.022 6.75 409.26 11.44
3/27/2021 1:15:00 PM 8.85 47.93 0.022 6.73 408.44 11.38
3/27/2021 1:30:00 PM 9.04 48.272 0.022 6.74 408.17 11.33
3/27/2021 1:45:00 PM 9.18 48.524 0.022 6.73 407.58 11.29
3/27/2021 2:00:00 PM 9.27 48.686 0.022 6.73 407.33 11.26
3/27/2021 2:15:00 PM 9.34 48.812 0.022 6.73 407.06 11.24
3/27/2021 2:30:00 PM 9.35 48.83 0.022 6.73 408.83 11.22
3/27/2021 2:45:00 PM 9.4 48.92 0.022 6.74 407.57 11.21
3/27/2021 3:00:00 PM 9.45 49.01 0.022 6.74 405.85 11.2
3/27/2021 3:15:00 PM 9.49 49.082 0.022 6.74 406.1 11.17
3/27/2021 3:30:00 PM 9.49 49.082 0.022 6.73 405.93 11.16
3/27/2021 3:45:00 PM 9.5 49.1 0.022 6.73 405.65 11.16
3/27/2021 4:00:00 PM 9.49 49.082 0.022 6.73 405.59 11.15
3/27/2021 4:15:00 PM 9.48 49.064 0.022 7.02 406.44 11.15
3/27/2021 4:30:00 PM 9.47 49.046 0.022 6.8 406.06 11.14
3/27/2021 4:45:00 PM 9.47 49.046 0.022 6.77 406.69 11.13
3/27/2021 5:00:00 PM 9.48 49.064 0.022 6.76 406.24 11.13
3/27/2021 5:15:00 PM 9.46 49.028 0.022 6.75 405.58 11.12
3/27/2021 5:30:00 PM 9.46 49.028 0.022 6.73 403.8 11.11
3/27/2021 5:45:00 PM 9.45 49.01 0.022 6.73 404.14 11.11
3/27/2021 6:00:00 PM 9.43 48.974 0.022 6.73 403.66 11.1
3/27/2021 6:15:00 PM 9.41 48.938 0.022 6.72 403.63 11.1
3/27/2021 6:30:00 PM 9.39 48.902 0.022 6.71 404.19 11.08
3/27/2021 6:45:00 PM 9.34 48.812 0.022 6.7 404.4 11.07
3/27/2021 7:00:00 PM 9.31 48.758 0.022 6.68 405.78 11.07
3/27/2021 7:15:00 PM 9.25 48.65 0.022 6.67 404.67 11.06
3/27/2021 7:30:00 PM 9.2 48.56 0.022 6.66 406.62 11.05
3/27/2021 7:45:00 PM 9.15 48.47 0.022 6.64 405.4 11.05
3/27/2021 8:00:00 PM 9.1 48.38 0.022 6.64 406.9 11.06
3/27/2021 8:15:00 PM 9.04 48.272 0.022 6.63 407.15 11.07
3/27/2021 8:30:00 PM 8.98 48.164 0.022 6.62 407.69 11.08
3/27/2021 8:45:00 PM 8.92 48.056 0.022 6.62 408.11 11.09
3/27/2021 9:00:00 PM 8.87 47.966 0.022 6.61 408.59 11.11
3/27/2021 9:15:00 PM 8.81 47.858 0.022 6.61 407.78 11.12
3/27/2021 9:30:00 PM 8.75 47.75 0.022 6.6 407.42 11.14
3/27/2021 9:45:00 PM 8.69 47.642 0.022 6.61 406.68 11.16
3/27/2021 10:00:00 PM 8.64 47.552 0.022 6.61 405.52 11.17
3/27/2021 10:15:00 PM 8.59 47.462 0.022 6.6 405.42 11.18
3/27/2021 10:30:00 PM 8.53 47.354 0.023 6.59 406.84 11.2
3/27/2021 10:45:00 PM 8.47 47.246 0.022 6.6 406.94 11.21
3/27/2021 11:00:00 PM 8.41 47.138 0.022 6.6 407.83 11.23
3/27/2021 11:15:00 PM 8.36 47.048 0.023 6.61 408.13 11.24
3/27/2021 11:30:00 PM 8.31 46.958 0.023 6.61 407.89 11.26
3/27/2021 11:45:00 PM 8.25 46.85 0.022 6.6 409.3 11.27
3/28/2021 12:00:00 AM 8.2 46.76 0.022 6.6 410.51 11.29
3/28/2021 12:15:00 AM 8.14 46.652 0.022 6.6 411.1 11.3
3/28/2021 12:30:00 AM 8.08 46.544 0.022 6.6 410.91 11.31
3/28/2021 12:45:00 AM 8.03 46.454 0.022 6.6 411.25 11.33
3/28/2021 1:00:00 AM 7.99 46.382 0.022 6.59 412.38 11.34
3/28/2021 1:15:00 AM 7.95 46.31 0.022 6.6 410.62 11.35
3/28/2021 1:30:00 AM 7.9 46.22 0.022 6.59 409.13 11.36
3/28/2021 1:45:00 AM 7.85 46.13 0.022 6.59 408.82 11.37
3/28/2021 2:00:00 AM 7.8 46.04 0.022 6.59 408.6 11.38
3/28/2021 2:15:00 AM 7.76 45.968 0.022 6.59 410.67 11.4
3/28/2021 2:30:00 AM 7.71 45.878 0.022 6.59 412.18 11.41
3/28/2021 2:45:00 AM 7.67 45.806 0.022 6.58 410.25 11.42
3/28/2021 3:00:00 AM 7.63 45.734 0.022 6.58 410.91 11.43
3/28/2021 3:15:00 AM 7.59 45.662 0.022 6.59 409.75 11.44
3/28/2021 3:30:00 AM 7.55 45.59 0.022 6.59 410.98 11.45
3/28/2021 3:45:00 AM 7.51 45.518 0.022 6.59 411.06 11.45
3/28/2021 4:00:00 AM 7.48 45.464 0.022 6.59 411.58 11.46
3/28/2021 4:15:00 AM 7.45 45.41 0.022 6.59 412.41 11.47
3/28/2021 4:30:00 AM 7.43 45.374 0.022 6.6 413.92 11.47
3/28/2021 4:45:00 AM 7.41 45.338 0.022 6.59 413.83 11.47
3/28/2021 5:00:00 AM 7.4 45.32 0.022 6.6 414.41 11.48
3/28/2021 5:15:00 AM 7.41 45.338 0.022 6.61 414.31 11.48
3/28/2021 5:30:00 AM 7.42 45.356 0.022 6.61 414.51 11.47
3/28/2021 5:45:00 AM 7.43 45.374 0.022 6.62 414.64 11.47
3/28/2021 6:00:00 AM 7.45 45.41 0.022 6.62 413.89 11.47
3/28/2021 6:15:00 AM 7.47 45.446 0.022 6.63 414.45 11.46
3/28/2021 6:30:00 AM 7.51 45.518 0.022 6.63 416.25 11.44
3/28/2021 6:45:00 AM 7.54 45.572 0.022 6.63 417.04 11.43
3/28/2021 7:00:00 AM 7.56 45.608 0.022 6.63 416.28 11.42
3/28/2021 7:15:00 AM 7.6 45.68 0.022 6.63 416.81 11.42
3/28/2021 7:30:00 AM 7.63 45.734 0.022 6.64 415.43 11.41
3/28/2021 7:45:00 AM 7.65 45.77 0.022 6.64 415.58 11.4
3/28/2021 8:00:00 AM 7.68 45.824 0.022 6.64 415.91 11.4
3/28/2021 8:15:00 AM 7.7 45.86 0.022 6.64 416.39 11.4
3/28/2021 8:30:00 AM 7.72 45.896 0.022 6.64 416.34 11.39
3/28/2021 8:45:00 AM 7.72 45.896 0.022 6.64 416.18 11.39
3/28/2021 9:00:00 AM 7.73 45.914 0.022 6.64 416.52 11.38
3/28/2021 9:15:00 AM 7.75 45.95 0.022 6.65 416.39 11.38
3/28/2021 9:30:00 AM 7.78 46.004 0.022 6.65 416.1 11.37
3/28/2021 9:45:00 AM 7.79 46.022 0.022 6.65 416.43 11.37
3/28/2021 10:00:00 AM 7.8 46.04 0.022 6.65 417 11.37
3/28/2021 10:15:00 AM 7.81 46.058 0.022 6.66 416.49 11.33
3/28/2021 10:30:00 AM 7.85 46.13 0.022 6.66 417.39 11.38
3/28/2021 10:45:00 AM 7.88 46.184 0.022 6.65 416.87 11.37
3/28/2021 11:00:00 AM 7.91 46.238 0.022 6.65 417.29 11.35
3/28/2021 11:15:00 AM 7.93 46.274 0.022 6.66 418.61 11.34
3/28/2021 11:30:00 AM 7.95 46.31 0.022 6.66 416.83 11.32
3/28/2021 11:45:00 AM 7.96 46.328 0.022 6.67 415.32 11.33
3/28/2021 12:00:00 PM 7.98 46.364 0.022 6.67 414.69 11.32
3/28/2021 12:15:00 PM 8 46.4 0.022 6.67 414.09 11.31
3/28/2021 12:30:00 PM 8.02 46.436 0.022 6.68 413.95 11.31
3/28/2021 12:45:00 PM 8.04 46.472 0.022 6.68 414.02 11.3
3/28/2021 1:00:00 PM 8.07 46.526 0.022 6.68 413.57 11.29
3/28/2021 1:15:00 PM 8.09 46.562 0.022 6.67 413.88 11.28
3/28/2021 1:30:00 PM 8.11 46.598 0.022 6.66 413.46 11.26
3/28/2021 1:45:00 PM 8.13 46.634 0.022 6.66 414.3 11.25
3/28/2021 2:00:00 PM 8.14 46.652 0.022 6.66 415.13 11.24
3/28/2021 2:15:00 PM 8.18 46.724 0.022 6.67 415.1 11.23
3/28/2021 2:30:00 PM 8.19 46.742 0.022 6.67 415.87 11.21
3/28/2021 2:45:00 PM 8.22 46.796 0.022 6.66 411.56 11.19
3/28/2021 3:00:00 PM 8.24 46.832 0.022 6.66 409.38 11.2
3/28/2021 3:15:00 PM 8.27 46.886 0.022 6.67 408.44 11.2
3/28/2021 3:30:00 PM 8.29 46.922 0.022 6.67 408.42 11.2
3/28/2021 3:45:00 PM 8.32 46.976 0.022 6.67 407.97 11.17
3/28/2021 4:00:00 PM 8.35 47.03 0.022 6.67 407.84 11.18
3/28/2021 4:15:00 PM 8.37 47.066 0.022 6.66 408.31 11.16
3/28/2021 4:30:00 PM 8.37 47.066 0.022 6.67 407.38 11.18
3/28/2021 4:45:00 PM 8.37 47.066 0.022 6.66 407.84 11.16
3/28/2021 5:00:00 PM 8.36 47.048 0.021 6.66 407.57 11.15
3/28/2021 5:15:00 PM 8.36 47.048 0.022 6.66 408.01 11.16
3/28/2021 5:30:00 PM 8.34 47.012 0.022 6.66 407.8 11.16
3/28/2021 5:45:00 PM 8.33 46.994 0.022 6.68 407.64 11.18
3/28/2021 6:00:00 PM 8.32 46.976 0.022 6.68 407.18 11.2
3/28/2021 6:15:00 PM 8.3 46.94 0.022 6.68 406.66 11.2
3/28/2021 6:30:00 PM 8.27 46.886 0.022 6.68 406.75 11.21
3/28/2021 6:45:00 PM 8.24 46.832 0.022 6.67 406.55 11.2
3/28/2021 7:00:00 PM 8.22 46.796 0.022 6.67 407.39 11.2
3/28/2021 7:15:00 PM 8.19 46.742 0.022 6.66 408.09 11.19
3/28/2021 7:30:00 PM 8.16 46.688 0.022 6.66 407.8 11.18
3/28/2021 7:45:00 PM 8.12 46.616 0.022 6.64 408.35 11.19
3/28/2021 8:00:00 PM 8.08 46.544 0.022 6.65 409.46 11.19
3/28/2021 8:15:00 PM 8.04 46.472 0.022 6.63 408.95 11.2
3/28/2021 8:30:00 PM 8 46.4 0.022 6.63 409.34 11.21
3/28/2021 8:45:00 PM 7.95 46.31 0.022 6.63 410.31 11.23
3/28/2021 9:00:00 PM 7.91 46.238 0.022 6.63 410.23 11.24
3/28/2021 9:15:00 PM 7.85 46.13 0.022 6.63 410.21 11.26
3/28/2021 9:30:00 PM 7.8 46.04 0.022 6.63 409.93 11.28
3/28/2021 9:45:00 PM 7.75 45.95 0.022 6.64 410.46 11.29
3/28/2021 10:00:00 PM 7.72 45.896 0.022 6.64 410.74 11.31
3/28/2021 10:15:00 PM 7.68 45.824 0.022 6.63 410.83 11.33
3/28/2021 10:30:00 PM 7.61 45.698 0.022 6.62 412.15 11.34
3/28/2021 10:45:00 PM 7.56 45.608 0.022 6.61 411.62 11.36
3/28/2021 11:00:00 PM 7.52 45.536 0.022 6.61 411.68 11.38
3/28/2021 11:15:00 PM 7.46 45.428 0.022 6.61 411.94 11.39
3/28/2021 11:30:00 PM 7.39 45.302 0.022 6.63 411.47 11.42
3/28/2021 11:45:00 PM 7.35 45.23 0.022 6.62 409.41 11.44
3/29/2021 12:00:00 AM 7.3 45.14 0.022 6.63 410.12 11.45
3/29/2021 12:15:00 AM 7.25 45.05 0.022 6.63 409.27 11.47
3/29/2021 12:30:00 AM 7.2 44.96 0.022 6.64 410.5 11.49
3/29/2021 12:45:00 AM 7.16 44.888 0.021 6.64 410.64 11.5
3/29/2021 1:00:00 AM 7.12 44.816 0.021 6.64 411.11 11.51
3/29/2021 1:15:00 AM 7.08 44.744 0.021 6.64 408.85 11.53
3/29/2021 1:30:00 AM 7.02 44.636 0.021 6.64 407.89 11.55
3/29/2021 1:45:00 AM 6.97 44.546 0.021 6.64 406.42 11.57
3/29/2021 2:00:00 AM 6.92 44.456 0.021 6.64 406.05 11.58
3/29/2021 2:15:00 AM 6.86 44.348 0.021 6.64 405.68 11.6
3/29/2021 2:30:00 AM 6.8 44.24 0.021 6.64 406.15 11.62
3/29/2021 2:45:00 AM 6.74 44.132 0.021 6.64 406.93 11.65
3/29/2021 3:00:00 AM 6.69 44.042 0.021 6.64 408.34 11.67
3/29/2021 3:15:00 AM 6.62 43.916 0.021 6.64 406.36 11.69
3/29/2021 3:30:00 AM 6.56 43.808 0.021 6.64 404.33 11.7
3/29/2021 3:45:00 AM 6.54 43.772 0.021 6.64 402.58 11.72
3/29/2021 4:00:00 AM 6.51 43.718 0.021 6.64 402.43 11.73
3/29/2021 4:15:00 AM 6.45 43.61 0.021 6.64 402.87 11.75
3/29/2021 4:30:00 AM 6.4 43.52 0.021 6.64 402.22 11.77
3/29/2021 4:45:00 AM 6.37 43.466 0.021 6.64 402 11.78
3/29/2021 5:00:00 AM 6.31 43.358 0.021 6.63 401.43 11.81
3/29/2021 5:15:00 AM 6.29 43.322 0.021 6.64 401.87 11.82
3/29/2021 5:30:00 AM 6.26 43.268 0.021 6.64 400.87 11.83
3/29/2021 5:45:00 AM 6.23 43.214 0.021 6.64 400.21 11.85
3/29/2021 6:00:00 AM 6.21 43.178 0.021 6.64 397.82 11.86
3/29/2021 6:15:00 AM 6.2 43.16 0.021 6.64 398.23 11.87
3/29/2021 6:30:00 AM 6.16 43.088 0.021 6.64 399.7 11.89
3/29/2021 6:45:00 AM 6.12 43.016 0.021 6.64 400.54 11.91
3/29/2021 7:00:00 AM 6.09 42.962 0.021 6.64 399.25 11.92
3/29/2021 7:15:00 AM 6.07 42.926 0.021 6.64 398.05 11.93
3/29/2021 7:30:00 AM 6.03 42.854 0.021 6.64 397.69 11.95
3/29/2021 7:45:00 AM 6.01 42.818 0.021 6.64 398.07 11.98
3/29/2021 8:00:00 AM 5.99 42.782 0.021 6.64 398.28 12.01
3/29/2021 8:15:00 AM 5.98 42.764 0.021 6.64 398.39 12.03
3/29/2021 8:30:00 AM 5.9 42.62 0.026 6.25 2.81 12.22
3/29/2021 8:45:00 AM 5.88 42.584 0.026 6.39 2.4 12.25
3/29/2021 9:00:00 AM 5.87 42.566 0.026 6.5 2.35 12.28
3/29/2021 9:15:00 AM 5.84 42.512 0.026 6.57 2.29 12.3
3/29/2021 9:30:00 AM 5.83 42.494 0.025 6.63 2.31 12.32
3/29/2021 9:45:00 AM 5.83 42.494 0.025 6.65 2.24 12.33
3/29/2021 10:00:00 AM 5.84 42.512 0.025 6.67 2.27 12.35
3/29/2021 10:15:00 AM 5.85 42.53 0.025 6.67 2.29 12.37
3/29/2021 10:30:00 AM 5.88 42.584 0.026 6.73 2.25 12.36
3/29/2021 10:45:00 AM 5.9 42.62 0.025 6.69 2.25 12.38
3/29/2021 11:00:00 AM 5.94 42.692 0.025 6.71 2.5 12.39
3/29/2021 11:15:00 AM 5.98 42.764 0.025 6.74 2.24 12.38
3/29/2021 11:30:00 AM 6.04 42.872 0.025 6.73 2.2 12.38
3/29/2021 11:45:00 AM 6.11 42.998 0.025 6.74 2.27 12.36
3/29/2021 12:00:00 PM 6.21 43.178 0.025 6.75 2.24 12.35
3/29/2021 12:15:00 PM 6.37 43.466 0.025 6.76 2.27 12.31
3/29/2021 12:30:00 PM 6.46 43.628 0.025 6.76 2.24 12.29
3/29/2021 12:45:00 PM 6.67 44.006 0.025 6.76 2.3 12.24
3/29/2021 1:00:00 PM 6.84 44.312 0.025 6.75 2.27 12.19
3/29/2021 1:15:00 PM 6.98 44.564 0.025 6.76 2.27 12.14
3/29/2021 1:30:00 PM 7.14 44.852 0.025 6.75 2.21 12.09
3/29/2021 1:45:00 PM 7.27 45.086 0.025 6.74 2.28 12.05
3/29/2021 2:00:00 PM 7.42 45.356 0.025 6.73 2.28 12.01
3/29/2021 2:15:00 PM 7.55 45.59 0.025 6.74 2.22 11.96
3/29/2021 2:30:00 PM 7.66 45.788 0.025 6.71 2.2 11.92
3/29/2021 2:45:00 PM 7.73 45.914 0.025 6.74 2.3 11.89
3/29/2021 3:00:00 PM 7.78 46.004 0.025 6.72 2.17 11.87
3/29/2021 3:15:00 PM 7.79 46.022 0.025 6.71 2.12 11.85
3/29/2021 3:30:00 PM 7.79 46.022 0.025 6.72 2.18 11.84
3/29/2021 3:45:00 PM 7.78 46.004 0.025 6.71 2.08 11.83
3/29/2021 4:00:00 PM 7.76 45.968 0.025 6.71 2.21 11.83
3/29/2021 4:15:00 PM 7.74 45.932 0.025 6.71 2.26 11.83
3/29/2021 4:30:00 PM 7.72 45.896 0.025 6.71 2.32 11.83
3/29/2021 4:45:00 PM 7.69 45.842 0.025 6.68 2.31 11.83
3/29/2021 5:00:00 PM 7.66 45.788 0.025 6.68 2.31 11.83
3/29/2021 5:15:00 PM 7.64 45.752 0.025 6.68 2.24 11.82
3/29/2021 5:30:00 PM 7.59 45.662 0.025 6.69 2.32 11.83
3/29/2021 5:45:00 PM 7.55 45.59 0.025 6.66 2.29 11.83
3/29/2021 6:00:00 PM 7.51 45.518 0.025 6.69 2.18 11.84
3/29/2021 6:15:00 PM 7.48 45.464 0.025 6.68 2.32 11.84
3/29/2021 6:30:00 PM 7.45 45.41 0.025 6.65 2.15 11.83
3/29/2021 6:45:00 PM 7.4 45.32 0.026 6.64 2.19 11.83
3/29/2021 7:00:00 PM 7.35 45.23 0.026 6.63 2.22 11.84
3/29/2021 7:15:00 PM 7.31 45.158 0.026 6.62 2.25 11.84
3/29/2021 7:30:00 PM 7.26 45.068 0.026 6.61 2.24 11.85
3/29/2021 7:45:00 PM 7.2 44.96 0.026 6.6 2.26 11.85
3/29/2021 8:00:00 PM 7.15 44.87 0.026 6.58 2.25 11.86
3/29/2021 8:15:00 PM 7.08 44.744 0.026 6.6 2.35 11.87
3/29/2021 8:30:00 PM 7.01 44.618 0.026 6.59 2.24 11.89
3/29/2021 8:45:00 PM 6.95 44.51 0.026 6.59 2.33 11.91
3/29/2021 9:00:00 PM 6.88 44.384 0.026 6.6 2.17 11.93
3/29/2021 9:15:00 PM 6.81 44.258 0.026 6.6 2.29 11.95
3/29/2021 9:30:00 PM 6.75 44.15 0.026 6.6 2.24 11.97
3/29/2021 9:45:00 PM 6.69 44.042 0.026 6.59 2.35 11.99
3/29/2021 10:00:00 PM 6.63 43.934 0.026 6.6 2.26 12.01
3/29/2021 10:15:00 PM 6.56 43.808 0.026 6.6 2.09 12.04
3/29/2021 10:30:00 PM 6.49 43.682 0.026 6.6 2.12 12.06
3/29/2021 10:45:00 PM 6.43 43.574 0.026 6.61 2.28 12.08
3/29/2021 11:00:00 PM 6.36 43.448 0.026 6.61 2.19 12.1
3/29/2021 11:15:00 PM 6.3 43.34 0.026 6.6 2.18 12.12
3/29/2021 11:30:00 PM 6.25 43.25 0.026 6.59 2.18 12.13
3/29/2021 11:45:00 PM 6.2 43.16 0.026 6.61 2.15 12.15
3/30/2021 12:00:00 AM 6.14 43.052 0.026 6.6 2.24 12.17
3/30/2021 12:15:00 AM 6.08 42.944 0.026 6.6 2.11 12.19
3/30/2021 12:30:00 AM 6.02 42.836 0.026 6.6 2.19 12.21
3/30/2021 12:45:00 AM 5.96 42.728 0.026 6.58 2.15 12.23
3/30/2021 1:00:00 AM 5.9 42.62 0.026 6.61 2.23 12.25
3/30/2021 1:15:00 AM 5.85 42.53 0.026 6.6 2.22 12.26
3/30/2021 1:30:00 AM 5.79 42.422 0.026 6.6 2.22 12.28
3/30/2021 1:45:00 AM 5.74 42.332 0.026 6.59 2.23 12.29
3/30/2021 2:00:00 AM 5.7 42.26 0.026 6.6 2.12 12.3
3/30/2021 2:15:00 AM 5.66 42.188 0.026 6.61 2.25 12.32
3/30/2021 2:30:00 AM 5.61 42.098 0.026 6.6 2.16 12.34
3/30/2021 2:45:00 AM 5.56 42.008 0.026 6.6 2.17 12.36
3/30/2021 3:00:00 AM 5.51 41.918 0.026 6.58 2.19 12.37
3/30/2021 3:15:00 AM 5.46 41.828 0.026 6.6 2.19 12.39
3/30/2021 3:30:00 AM 5.42 41.756 0.026 6.59 2.14 12.4
3/30/2021 3:45:00 AM 5.38 41.684 0.026 6.6 2.17 12.41
3/30/2021 4:00:00 AM 5.34 41.612 0.026 6.62 2.17 12.42
3/30/2021 4:15:00 AM 5.3 41.54 0.026 6.63 2.19 12.44
3/30/2021 4:30:00 AM 5.26 41.468 0.026 6.61 2.15 12.46
3/30/2021 4:45:00 AM 5.22 41.396 0.026 6.61 2.45 12.47
3/30/2021 5:00:00 AM 5.18 41.324 0.026 6.61 2.12 12.49
3/30/2021 5:15:00 AM 5.16 41.288 0.026 6.6 2.12 12.49
3/30/2021 5:30:00 AM 5.12 41.216 0.026 6.6 2.13 12.5
3/30/2021 5:45:00 AM 5.08 41.144 0.026 6.61 2.26 12.52
3/30/2021 6:00:00 AM 5.04 41.072 0.026 6.59 2.23 12.53
3/30/2021 6:15:00 AM 5 41 0.026 6.6 2.15 12.55
3/30/2021 6:30:00 AM 4.97 40.946 0.026 6.61 2.18 12.56
3/30/2021 6:45:00 AM 4.95 40.91 0.026 6.61 2.13 12.56
3/30/2021 7:00:00 AM 4.92 40.856 0.026 6.6 2.19 12.58
3/30/2021 7:15:00 AM 4.89 40.802 0.026 6.61 2.09 12.6
3/30/2021 7:30:00 AM 4.85 40.73 0.026 6.61 2.11 12.63
3/30/2021 7:45:00 AM 4.82 40.676 0.026 6.63 2.17 12.65
3/30/2021 8:00:00 AM 4.8 40.64 0.026 6.64 2.14 12.67
3/30/2021 8:15:00 AM 4.79 40.622 0.026 6.64 2.12 12.69
3/30/2021 8:30:00 AM 4.77 40.586 0.026 6.64 2.15 12.71
3/30/2021 8:45:00 AM 4.78 40.604 0.026 6.65 2.16 12.72
3/30/2021 9:00:00 AM 4.8 40.64 0.026 6.65 2.19 12.73
3/30/2021 9:15:00 AM 4.84 40.712 0.026 6.66 2.13 12.74
3/30/2021 9:30:00 AM 4.89 40.802 0.026 6.68 2.12 12.74
3/30/2021 9:45:00 AM 4.97 40.946 0.026 6.69 2.15 12.73
3/30/2021 10:00:00 AM 5.07 41.126 0.026 6.7 2.06 12.72
3/30/2021 10:15:00 AM 5.2 41.36 0.026 6.71 2.09 12.69
3/30/2021 10:30:00 AM 5.35 41.63 0.026 6.7 2.09 12.65
3/30/2021 10:45:00 AM 5.51 41.918 0.026 6.7 2.15 12.61
3/30/2021 11:00:00 AM 5.7 42.26 0.026 6.7 2.16 12.56
3/30/2021 11:15:00 AM 5.9 42.62 0.026 6.71 2.12 12.5
3/30/2021 11:30:00 AM 6.11 42.998 0.026 6.71 2.12 12.44
3/30/2021 11:45:00 AM 6.33 43.394 0.026 6.71 2.33 12.37
3/30/2021 12:00:00 PM 6.55 43.79 0.026 6.72 2.04 12.31
3/30/2021 12:15:00 PM 6.77 44.186 0.026 6.71 2.14 12.25
3/30/2021 12:30:00 PM 7 44.6 0.026 6.72 2.17 12.18
3/30/2021 12:45:00 PM 7.23 45.014 0.026 6.71 2.1 12.12
3/30/2021 1:00:00 PM 7.47 45.446 0.026 6.72 2.03 12.05
3/30/2021 1:15:00 PM 7.7 45.86 0.026 6.72 2.07 11.98
3/30/2021 1:30:00 PM 7.92 46.256 0.026 6.7 2.07 11.92
3/30/2021 1:45:00 PM 8.12 46.616 0.026 6.7 2.17 11.86
3/30/2021 2:00:00 PM 8.3 46.94 0.026 6.71 2.15 11.8
3/30/2021 2:15:00 PM 8.45 47.21 0.026 6.7 2.16 11.75
3/30/2021 2:30:00 PM 8.56 47.408 0.026 6.68 2.07 11.7
3/30/2021 2:45:00 PM 8.65 47.57 0.026 6.69 2.23 11.67
3/30/2021 3:00:00 PM 8.7 47.66 0.026 6.69 2.16 11.64
3/30/2021 3:15:00 PM 8.73 47.714 0.026 6.69 2.11 11.62
3/30/2021 3:30:00 PM 8.74 47.732 0.026 6.68 2.16 11.61
3/30/2021 3:45:00 PM 8.74 47.732 0.026 6.68 2.14 11.6
3/30/2021 4:00:00 PM 8.74 47.732 0.026 6.68 2.15 11.59
3/30/2021 4:15:00 PM 8.74 47.732 0.026 6.67 2.14 11.57
3/30/2021 4:30:00 PM 8.71 47.678 0.026 6.66 2.11 11.57
3/30/2021 4:45:00 PM 8.69 47.642 0.026 6.66 2.2 11.57
3/30/2021 5:00:00 PM 8.65 47.57 0.026 6.67 2.06 11.57
3/30/2021 5:15:00 PM 8.63 47.534 0.026 6.69 2.12 11.58
3/30/2021 5:30:00 PM 8.6 47.48 0.026 6.68 2.1 11.57
3/30/2021 5:45:00 PM 8.58 47.444 0.026 6.68 2.21 11.56
3/30/2021 6:00:00 PM 8.57 47.426 0.026 6.68 2.15 11.54
3/30/2021 6:15:00 PM 8.56 47.408 0.026 6.68 2.17 11.54
3/30/2021 6:30:00 PM 8.55 47.39 0.026 6.65 2.1 11.53
3/30/2021 6:45:00 PM 8.52 47.336 0.026 6.65 2.19 11.51
3/30/2021 7:00:00 PM 8.51 47.318 0.026 6.64 2.16 11.5
3/30/2021 7:15:00 PM 8.49 47.282 0.026 6.64 2.18 11.49
3/30/2021 7:30:00 PM 8.46 47.228 0.026 6.65 2.18 11.48
3/30/2021 7:45:00 PM 8.44 47.192 0.026 6.62 2.2 11.46
3/30/2021 8:00:00 PM 8.41 47.138 0.026 6.63 2.17 11.46
3/30/2021 8:15:00 PM 8.39 47.102 0.026 6.62 2.19 11.46
3/30/2021 8:30:00 PM 8.37 47.066 0.026 6.61 2.27 11.47
3/30/2021 8:45:00 PM 8.35 47.03 0.026 6.6 2.22 11.47
3/30/2021 9:00:00 PM 8.32 46.976 0.026 6.62 2.32 11.49
3/30/2021 9:15:00 PM 8.3 46.94 0.026 6.63 2.25 11.49
3/30/2021 9:30:00 PM 8.27 46.886 0.026 6.61 2.28 11.5
3/30/2021 9:45:00 PM 8.24 46.832 0.026 6.61 2.16 11.52
3/30/2021 10:00:00 PM 8.21 46.778 0.026 6.6 2.23 11.52
3/30/2021 10:15:00 PM 8.17 46.706 0.026 6.6 2.27 11.53
3/30/2021 10:30:00 PM 8.14 46.652 0.026 6.58 2.2 11.54
3/30/2021 10:45:00 PM 8.12 46.616 0.026 6.6 2.24 11.55
3/30/2021 11:00:00 PM 8.09 46.562 0.026 6.59 2.24 11.56
3/30/2021 11:15:00 PM 8.06 46.508 0.026 6.59 2.19 11.57
3/30/2021 11:30:00 PM 8.03 46.454 0.026 6.61 2.21 11.57
3/30/2021 11:45:00 PM 8 46.4 0.026 6.61 2.17 11.58
3/31/2021 12:00:00 AM 7.96 46.328 0.026 6.61 2.1 11.59
3/31/2021 12:15:00 AM 7.93 46.274 0.026 6.6 2.25 11.6
3/31/2021 12:30:00 AM 7.89 46.202 0.026 6.61 2.29 11.61
3/31/2021 12:45:00 AM 7.85 46.13 0.026 6.61 2.14 11.62
3/31/2021 1:00:00 AM 7.82 46.076 0.026 6.62 2.22 11.63
3/31/2021 1:15:00 AM 7.78 46.004 0.026 6.61 2.17 11.64
3/31/2021 1:30:00 AM 7.75 45.95 0.026 6.61 2.21 11.65
3/31/2021 1:45:00 AM 7.71 45.878 0.026 6.61 2.26 11.66
3/31/2021 2:00:00 AM 7.67 45.806 0.026 6.59 2.21 11.67
3/31/2021 2:15:00 AM 7.64 45.752 0.026 6.6 2.24 11.68
3/31/2021 2:30:00 AM 7.6 45.68 0.026 6.61 2.2 11.69
3/31/2021 2:45:00 AM 7.58 45.644 0.026 6.61 2.22 11.69
3/31/2021 3:00:00 AM 7.55 45.59 0.026 6.63 2.15 11.7
3/31/2021 3:15:00 AM 7.52 45.536 0.026 6.63 2.26 11.71
3/31/2021 3:30:00 AM 7.49 45.482 0.026 6.63 2.19 11.71
3/31/2021 3:45:00 AM 7.47 45.446 0.026 6.63 2.25 11.72
3/31/2021 4:00:00 AM 7.44 45.392 0.026 6.62 2.38 11.72
3/31/2021 4:15:00 AM 7.42 45.356 0.026 6.63 2.21 11.73
3/31/2021 4:30:00 AM 7.4 45.32 0.026 6.6 2.21 11.73
3/31/2021 4:45:00 AM 7.37 45.266 0.026 6.62 2.2 11.73
3/31/2021 5:00:00 AM 7.35 45.23 0.026 6.61 2.26 11.74
3/31/2021 5:15:00 AM 7.33 45.194 0.026 6.63 2.24 11.74
3/31/2021 5:30:00 AM 7.31 45.158 0.026 6.6 2.21 11.75
3/31/2021 5:45:00 AM 7.29 45.122 0.026 6.61 2.27 11.75
3/31/2021 6:00:00 AM 7.27 45.086 0.026 6.6 2.2 11.76
3/31/2021 6:15:00 AM 7.26 45.068 0.026 6.61 2.3 11.76
3/31/2021 6:30:00 AM 7.24 45.032 0.026 6.58 2.18 11.77
3/31/2021 6:45:00 AM 7.23 45.014 0.026 6.61 2.19 11.77
3/31/2021 7:00:00 AM 7.22 44.996 0.026 6.58 2.2 11.78
3/31/2021 7:15:00 AM 7.21 44.978 0.026 6.6 2.22 11.79
3/31/2021 7:30:00 AM 7.2 44.96 0.026 6.62 2.2 11.81
3/31/2021 7:45:00 AM 7.2 44.96 0.026 6.6 2.34 11.83
3/31/2021 8:00:00 AM 7.21 44.978 0.026 6.63 2.37 11.85
3/31/2021 8:15:00 AM 7.23 45.014 0.026 6.64 2.17 11.87
3/31/2021 8:30:00 AM 7.25 45.05 0.026 6.66 2.2 11.89
3/31/2021 8:45:00 AM 7.28 45.104 0.026 6.66 2.17 11.9
3/31/2021 9:00:00 AM 7.3 45.14 0.026 6.65 2.21 11.89
3/31/2021 9:15:00 AM 7.33 45.194 0.026 6.66 2.18 11.89
3/31/2021 9:30:00 AM 7.37 45.266 0.026 6.69 2.1 11.89
3/31/2021 9:45:00 AM 7.41 45.338 0.026 6.69 2.2 11.88
3/31/2021 10:00:00 AM 7.43 45.374 0.026 6.69 2.17 11.87
3/31/2021 10:15:00 AM 7.46 45.428 0.026 6.7 2.21 11.86
3/31/2021 10:30:00 AM 7.48 45.464 0.026 6.69 2.14 11.85
3/31/2021 10:45:00 AM 7.49 45.482 0.026 6.68 2.21 11.82
3/31/2021 11:00:00 AM 7.51 45.518 0.026 6.67 2.13 11.8
3/31/2021 11:15:00 AM 7.53 45.554 0.026 6.66 2.25 11.79
3/31/2021 11:30:00 AM 7.54 45.572 0.026 6.68 2.34 11.79
3/31/2021 11:45:00 AM 7.56 45.608 0.026 6.67 2.2 11.8
3/31/2021 12:00:00 PM 7.58 45.644 0.026 6.68 2.38 11.8
3/31/2021 12:15:00 PM 7.61 45.698 0.026 6.68 2.19 11.81
3/31/2021 12:30:00 PM 7.63 45.734 0.026 6.69 2.15 11.81
3/31/2021 12:45:00 PM 7.65 45.77 0.026 6.69 2.15 11.8
3/31/2021 1:00:00 PM 7.66 45.788 0.026 6.68 2.24 11.79
3/31/2021 1:15:00 PM 7.68 45.824 0.026 6.69 2.09 11.79
3/31/2021 1:30:00 PM 7.7 45.86 0.026 6.71 2.25 11.78
3/31/2021 1:45:00 PM 7.71 45.878 0.026 6.7 2.18 11.77
3/31/2021 2:00:00 PM 7.71 45.878 0.026 6.68 2.19 11.75
3/31/2021 2:15:00 PM 7.71 45.878 0.026 6.69 2.17 11.74
3/31/2021 2:30:00 PM 7.72 45.896 0.026 6.68 2.22 11.74
3/31/2021 2:45:00 PM 7.73 45.914 0.026 6.68 2.17 11.75
3/31/2021 3:00:00 PM 7.75 45.95 0.026 6.7 2.15 11.75
3/31/2021 3:15:00 PM 7.77 45.986 0.026 6.69 2.16 11.76
3/31/2021 3:30:00 PM 7.79 46.022 0.026 6.7 2.2 11.74
3/31/2021 3:45:00 PM 7.78 46.004 0.026 6.67 2.15 11.71
3/31/2021 4:00:00 PM 7.78 46.004 0.026 6.69 2.2 11.69
3/31/2021 4:15:00 PM 7.79 46.022 0.026 6.68 2.16 11.68
3/31/2021 4:30:00 PM 7.8 46.04 0.026 6.66 2.25 11.68
3/31/2021 4:45:00 PM 7.79 46.022 0.026 6.66 2.16 11.67
3/31/2021 5:00:00 PM 7.79 46.022 0.026 6.66 2.15 11.66
3/31/2021 5:15:00 PM 7.79 46.022 0.026 6.66 2.19 11.66
3/31/2021 5:30:00 PM 7.79 46.022 0.026 6.66 2.28 11.63
3/31/2021 5:45:00 PM 7.79 46.022 0.026 6.62 2.23 11.62
3/31/2021 6:00:00 PM 7.79 46.022 0.026 6.65 2.23 11.62
3/31/2021 6:15:00 PM 7.8 46.04 0.026 6.63 2.16 11.63
3/31/2021 6:30:00 PM 7.8 46.04 0.026 6.64 2.14 11.61
3/31/2021 6:45:00 PM 7.79 46.022 0.026 6.61 2.21 11.61
3/31/2021 7:00:00 PM 7.78 46.004 0.026 6.61 2.18 11.59
3/31/2021 7:15:00 PM 7.78 46.004 0.026 6.61 2.17 11.58
3/31/2021 7:30:00 PM 7.79 46.022 0.026 6.59 2.2 11.58
3/31/2021 7:45:00 PM 7.78 46.004 0.026 6.62 2.16 11.58
3/31/2021 8:00:00 PM 7.77 45.986 0.026 6.63 2.15 11.58
3/31/2021 8:15:00 PM 7.76 45.968 0.026 6.64 2.15 11.59
3/31/2021 8:30:00 PM 7.75 45.95 0.026 6.65 2.3 11.59
3/31/2021 8:45:00 PM 7.73 45.914 0.026 6.65 2.18 11.6
3/31/2021 9:00:00 PM 7.71 45.878 0.026 6.63 2.24 11.6
3/31/2021 9:15:00 PM 7.68 45.824 0.026 6.63 2.2 11.61
3/31/2021 9:30:00 PM 7.65 45.77 0.026 6.65 2.2 11.62
3/31/2021 9:45:00 PM 7.61 45.698 0.026 6.64 2.16 11.63
3/31/2021 10:00:00 PM 7.58 45.644 0.026 6.64 2.29 11.64
3/31/2021 10:15:00 PM 7.55 45.59 0.026 6.63 2.2 11.66
3/31/2021 10:30:00 PM 7.52 45.536 0.026 6.62 2.17 11.66
3/31/2021 10:45:00 PM 7.48 45.464 0.026 6.63 2.27 11.68
3/31/2021 11:00:00 PM 7.45 45.41 0.026 6.63 2.2 11.68
3/31/2021 11:15:00 PM 7.42 45.356 0.026 6.63 2.3 11.68
3/31/2021 11:30:00 PM 7.38 45.284 0.026 6.64 2.26 11.69
3/31/2021 11:45:00 PM 7.36 45.248 0.026 6.63 2.12 11.71
4/1/2021 12:00:00 AM 7.33 45.194 0.026 6.63 2.19 11.72
4/1/2021 12:15:00 AM 7.31 45.158 0.026 6.63 2.16 11.72
4/1/2021 12:30:00 AM 7.29 45.122 0.026 6.64 2.22 11.72
4/1/2021 12:45:00 AM 7.26 45.068 0.026 6.63 2.3 11.73
4/1/2021 1:00:00 AM 7.23 45.014 0.026 6.63 2.17 11.73
4/1/2021 1:15:00 AM 7.21 44.978 0.026 6.63 2.11 11.74
4/1/2021 1:30:00 AM 7.18 44.924 0.026 6.64 2.18 11.75
4/1/2021 1:45:00 AM 7.15 44.87 0.026 6.63 2.18 11.76
4/1/2021 2:00:00 AM 7.11 44.798 0.026 6.63 2.21 11.77
4/1/2021 2:15:00 AM 7.08 44.744 0.026 6.63 2.21 11.78
4/1/2021 2:30:00 AM 7.05 44.69 0.026 6.62 2.24 11.79
4/1/2021 2:45:00 AM 7 44.6 0.026 6.62 2.21 11.8
4/1/2021 3:00:00 AM 6.96 44.528 0.026 6.6 2.22 11.81
4/1/2021 3:15:00 AM 6.92 44.456 0.026 6.61 2.23 11.81
4/1/2021 3:30:00 AM 6.86 44.348 0.026 6.63 2.17 11.83
4/1/2021 3:45:00 AM 6.81 44.258 0.026 6.62 2.18 11.84
4/1/2021 4:00:00 AM 6.75 44.15 0.026 6.61 2.23 11.86
4/1/2021 4:15:00 AM 6.7 44.06 0.026 6.63 2.26 11.88
4/1/2021 4:30:00 AM 6.64 43.952 0.026 6.63 2.4 11.89
4/1/2021 4:45:00 AM 6.58 43.844 0.026 6.61 2.34 11.91
4/1/2021 5:00:00 AM 6.48 43.664 0.026 6.61 2.21 11.92
4/1/2021 5:15:00 AM 6.37 43.466 0.026 6.59 2.46 11.95
4/1/2021 5:30:00 AM 6.32 43.376 0.026 6.64 2.34 11.98
4/1/2021 5:45:00 AM 6.27 43.286 0.026 6.62 2.4 12
4/1/2021 6:00:00 AM 6.23 43.214 0.026 6.63 2.4 12.01
4/1/2021 6:15:00 AM 6.19 43.142 0.026 6.63 2.38 12.03
4/1/2021 6:30:00 AM 6.16 43.088 0.026 6.63 2.25 12.04
4/1/2021 6:45:00 AM 6.13 43.034 0.026 6.64 2.26 12.05
4/1/2021 7:00:00 AM 6.1 42.98 0.026 6.64 2.26 12.06
4/1/2021 7:15:00 AM 6.07 42.926 0.026 6.64 2.32 12.08
4/1/2021 7:30:00 AM 6.04 42.872 0.026 6.65 2.31 12.1
4/1/2021 7:45:00 AM 6.02 42.836 0.026 6.66 2.23 12.12
4/1/2021 8:00:00 AM 6 42.8 0.026 6.66 2.19 12.15
4/1/2021 8:15:00 AM 5.98 42.764 0.026 6.66 2.36 12.17
4/1/2021 8:30:00 AM 5.97 42.746 0.026 6.66 2.19 12.2
4/1/2021 8:45:00 AM 5.95 42.71 0.026 6.68 2.27 12.23
4/1/2021 9:00:00 AM 5.94 42.692 0.026 6.68 2.18 12.25
4/1/2021 9:15:00 AM 5.93 42.674 0.026 6.7 2.21 12.28
4/1/2021 9:30:00 AM 5.94 42.692 0.026 6.71 2.19 12.28
4/1/2021 9:45:00 AM 5.93 42.674 0.026 6.71 2.24 12.3
4/1/2021 10:00:00 AM 5.95 42.71 0.026 6.7 2.22 12.3
4/1/2021 10:15:00 AM 5.97 42.746 0.026 6.72 2.13 12.3
4/1/2021 10:30:00 AM 6.03 42.854 0.026 6.71 2.15 12.3
4/1/2021 10:45:00 AM 6.09 42.962 0.026 6.71 2.1 12.29
4/1/2021 11:00:00 AM 6.16 43.088 0.026 6.72 2.13 12.27
4/1/2021 11:15:00 AM 6.23 43.214 0.026 6.71 2.07 12.25
4/1/2021 11:30:00 AM 6.3 43.34 0.026 6.74 2.13 12.23
4/1/2021 11:45:00 AM 6.44 43.592 0.026 6.74 2.13 12.21
4/1/2021 12:00:00 PM 6.53 43.754 0.026 6.72 2.13 12.17
4/1/2021 12:15:00 PM 6.54 43.772 0.026 6.71 2.08 12.16
4/1/2021 12:30:00 PM 6.64 43.952 0.026 6.73 2.16 12.14
4/1/2021 12:45:00 PM 6.7 44.06 0.026 6.73 2.17 12.1
4/1/2021 1:00:00 PM 6.77 44.186 0.026 6.73 2.12 12.09
4/1/2021 1:15:00 PM 6.79 44.222 0.026 6.72 2.22 12.07
4/1/2021 1:30:00 PM 6.8 44.24 0.026 6.73 2.09 12.07
4/1/2021 1:45:00 PM 6.81 44.258 0.026 6.74 2.11 12.07
4/1/2021 2:00:00 PM 6.83 44.294 0.026 6.74 2.03 12.07
4/1/2021 2:15:00 PM 6.83 44.294 0.026 6.73 2.16 12.07
4/1/2021 2:30:00 PM 6.81 44.258 0.026 6.72 2.16 12.07
4/1/2021 2:45:00 PM 6.77 44.186 0.026 6.73 2.15 12.08
4/1/2021 3:00:00 PM 6.78 44.204 0.026 6.73 2.11 12.09
4/1/2021 3:15:00 PM 6.8 44.24 0.026 6.73 2.13 12.09
4/1/2021 3:30:00 PM 6.77 44.186 0.026 6.72 2.11 12.09
4/1/2021 3:45:00 PM 6.73 44.114 0.026 6.72 2.2 12.09
4/1/2021 4:00:00 PM 6.69 44.042 0.026 6.71 2.07 12.09
4/1/2021 4:15:00 PM 6.64 43.952 0.026 6.72 2.22 12.09
4/1/2021 4:30:00 PM 6.59 43.862 0.026 6.7 2.12 12.09
4/1/2021 4:45:00 PM 6.56 43.808 0.026 6.71 2.12 12.11
4/1/2021 5:00:00 PM 6.53 43.754 0.026 6.71 2.17 12.11
4/1/2021 5:15:00 PM 6.47 43.646 0.026 6.68 2.12 12.12
4/1/2021 5:30:00 PM 6.43 43.574 0.026 6.7 2.13 12.15
4/1/2021 5:45:00 PM 6.39 43.502 0.026 6.7 2.12 12.15
4/1/2021 6:00:00 PM 6.31 43.358 0.026 6.69 2.08 12.15
4/1/2021 6:15:00 PM 6.24 43.232 0.026 6.68 2.17 12.16
4/1/2021 6:30:00 PM 6.19 43.142 0.026 6.67 2.14 12.16
4/1/2021 6:45:00 PM 6.13 43.034 0.026 6.67 2.18 12.17
4/1/2021 7:00:00 PM 6.09 42.962 0.026 6.67 2.16 12.17
4/1/2021 7:15:00 PM 6.02 42.836 0.026 6.66 2.16 12.17
4/1/2021 7:30:00 PM 5.96 42.728 0.026 6.66 2.19 12.18
4/1/2021 7:45:00 PM 5.89 42.602 0.026 6.64 2.15 12.18
4/1/2021 8:00:00 PM 5.83 42.494 0.026 6.64 2.24 12.19
4/1/2021 8:15:00 PM 5.79 42.422 0.026 6.65 2.18 12.2
4/1/2021 8:30:00 PM 5.74 42.332 0.026 6.64 2.21 12.22
4/1/2021 8:45:00 PM 5.69 42.242 0.026 6.65 2.18 12.23
4/1/2021 9:00:00 PM 5.59 42.062 0.026 6.64 2.24 12.26
4/1/2021 9:15:00 PM 5.52 41.936 0.026 6.63 2.15 12.28
4/1/2021 9:30:00 PM 5.48 41.864 0.026 6.66 2.22 12.3
4/1/2021 9:45:00 PM 5.45 41.81 0.026 6.64 2.16 12.31
4/1/2021 10:00:00 PM 5.41 41.738 0.026 6.65 2.18 12.33
4/1/2021 10:15:00 PM 5.36 41.648 0.026 6.65 2.16 12.35
4/1/2021 10:30:00 PM 5.33 41.594 0.026 6.64 2.2 12.36
4/1/2021 10:45:00 PM 5.28 41.504 0.026 6.64 2.3 12.37
4/1/2021 11:00:00 PM 5.25 41.45 0.026 6.66 2.24 12.39
4/1/2021 11:15:00 PM 5.2 41.36 0.027 6.66 2.22 12.4
4/1/2021 11:30:00 PM 5.15 41.27 0.027 6.66 2.15 12.42
4/1/2021 11:45:00 PM 5.11 41.198 0.027 6.66 2.17 12.43
4/2/2021 12:00:00 AM 5.06 41.108 0.027 6.65 2.15 12.45
4/2/2021 12:15:00 AM 5 41 0.027 6.65 2.14 12.47
4/2/2021 12:30:00 AM 4.94 40.892 0.027 6.66 2.22 12.49
4/2/2021 12:45:00 AM 4.88 40.784 0.027 6.66 2.13 12.51
4/2/2021 1:00:00 AM 4.83 40.694 0.027 6.65 2.07 12.53
4/2/2021 1:15:00 AM 4.78 40.604 0.027 6.63 2.15 12.54
4/2/2021 1:30:00 AM 4.73 40.514 0.027 6.64 2.13 12.56
4/2/2021 1:45:00 AM 4.66 40.388 0.027 6.64 2.12 12.58
4/2/2021 2:00:00 AM 4.6 40.28 0.027 6.64 2.17 12.61
4/2/2021 2:15:00 AM 4.55 40.19 0.027 6.64 2.21 12.63
4/2/2021 2:30:00 AM 4.48 40.064 0.027 6.63 2.15 12.65
4/2/2021 2:45:00 AM 4.42 39.956 0.027 6.63 2.17 12.67
4/2/2021 3:00:00 AM 4.37 39.866 0.027 6.63 2.14 12.68
4/2/2021 3:15:00 AM 4.33 39.794 0.027 6.64 2.12 12.71
4/2/2021 3:30:00 AM 4.27 39.686 0.027 6.63 2.14 12.72
4/2/2021 3:45:00 AM 4.22 39.596 0.027 6.62 2.13 12.74
4/2/2021 4:00:00 AM 4.18 39.524 0.027 6.62 2.13 12.76
4/2/2021 4:15:00 AM 4.13 39.434 0.027 6.64 2.07 12.77
4/2/2021 4:30:00 AM 4.09 39.362 0.027 6.63 2.2 12.79
4/2/2021 4:45:00 AM 4.05 39.29 0.027 6.64 2.18 12.81
4/2/2021 5:00:00 AM 4.02 39.236 0.027 6.63 2.34 12.82
4/2/2021 5:15:00 AM 3.98 39.164 0.027 6.64 2.23 12.83
4/2/2021 5:30:00 AM 3.95 39.11 0.027 6.63 2.15 12.84
4/2/2021 5:45:00 AM 3.91 39.038 0.027 6.64 2.17 12.86
4/2/2021 6:00:00 AM 3.86 38.948 0.027 6.63 2.18 12.87
4/2/2021 6:15:00 AM 3.82 38.876 0.027 6.63 2.18 12.89
4/2/2021 6:30:00 AM 3.78 38.804 0.027 6.64 2.17 12.91
4/2/2021 6:45:00 AM 3.73 38.714 0.027 6.63 2.15 12.92
4/2/2021 7:00:00 AM 3.69 38.642 0.027 6.62 2.12 12.95
4/2/2021 7:15:00 AM 3.66 38.588 0.027 6.63 2.12 12.96
4/2/2021 7:30:00 AM 3.62 38.516 0.027 6.63 2.11 12.99
4/2/2021 7:45:00 AM 3.58 38.444 0.027 6.64 2.11 13.03
4/2/2021 8:00:00 AM 3.56 38.408 0.027 6.62 2.13 13.06
4/2/2021 8:15:00 AM 3.52 38.336 0.027 6.65 2.14 13.07
4/2/2021 8:30:00 AM 3.51 38.318 0.027 6.68 2.05 13.09
4/2/2021 8:45:00 AM 3.5 38.3 0.027 6.68 2.26 13.11
4/2/2021 9:00:00 AM 3.51 38.318 0.027 6.68 2.06 13.13
4/2/2021 9:15:00 AM 3.52 38.336 0.027 6.69 2.04 13.14
4/2/2021 9:30:00 AM 3.53 38.354 0.027 6.69 2.13 13.15
4/2/2021 9:45:00 AM 3.56 38.408 0.026 6.7 2.12 13.16
4/2/2021 10:00:00 AM 3.6 38.48 0.026 6.72 2.14 13.16
4/2/2021 10:15:00 AM 3.65 38.57 0.027 6.72 2.07 13.15
4/2/2021 10:30:00 AM 3.74 38.732 0.026 6.72 2 13.14
4/2/2021 10:45:00 AM 3.83 38.894 0.026 6.71 2.1 13.12
4/2/2021 11:00:00 AM 3.95 39.11 0.026 6.72 2.13 13.1
4/2/2021 11:15:00 AM 4.08 39.344 0.026 6.73 2.1 13.06
4/2/2021 11:30:00 AM 4.24 39.632 0.026 6.71 2.08 13.01
4/2/2021 11:45:00 AM 4.4 39.92 0.026 6.74 2.16 12.96
4/2/2021 12:00:00 PM 4.57 40.226 0.026 6.75 2.12 12.91
4/2/2021 12:15:00 PM 4.76 40.568 0.026 6.74 2.13 12.85
4/2/2021 12:30:00 PM 4.95 40.91 0.026 6.73 2.06 12.8
4/2/2021 12:45:00 PM 5.16 41.288 0.026 6.73 2.16 12.73
4/2/2021 1:00:00 PM 5.35 41.63 0.026 6.71 2.08 12.68
4/2/2021 1:15:00 PM 5.55 41.99 0.026 6.73 2.14 12.61
4/2/2021 1:30:00 PM 5.74 42.332 0.026 6.73 2.03 12.56
4/2/2021 1:45:00 PM 5.93 42.674 0.026 6.73 2.11 12.5
4/2/2021 2:00:00 PM 6.07 42.926 0.026 6.74 2.15 12.44
4/2/2021 2:15:00 PM 6.18 43.124 0.026 6.71 2.11 12.41
4/2/2021 2:30:00 PM 6.25 43.25 0.026 6.72 2.18 12.37
4/2/2021 2:45:00 PM 6.28 43.304 0.026 6.7 2.16 12.35
4/2/2021 3:00:00 PM 6.3 43.34 0.026 6.7 2.12 12.34
4/2/2021 3:15:00 PM 6.28 43.304 0.026 6.69 2.19 12.32
4/2/2021 3:30:00 PM 6.27 43.286 0.026 6.68 2.16 12.32
4/2/2021 3:45:00 PM 6.23 43.214 0.026 6.69 2.13 12.31
4/2/2021 4:00:00 PM 6.19 43.142 0.026 6.68 2.16 12.32
4/2/2021 4:15:00 PM 6.13 43.034 0.026 6.68 2.1 12.33
4/2/2021 4:30:00 PM 6.07 42.926 0.026 6.69 2.12 12.33
4/2/2021 4:45:00 PM 6 42.8 0.026 6.68 2.17 12.34
4/2/2021 5:00:00 PM 5.94 42.692 0.026 6.67 2.11 12.35
4/2/2021 5:15:00 PM 5.87 42.566 0.026 6.68 2.07 12.36
4/2/2021 5:30:00 PM 5.79 42.422 0.026 6.66 2.05 12.38
4/2/2021 5:45:00 PM 5.73 42.314 0.026 6.68 2.13 12.39
4/2/2021 6:00:00 PM 5.65 42.17 0.026 6.66 2.18 12.41
4/2/2021 6:15:00 PM 5.59 42.062 0.026 6.66 2.18 12.42
4/2/2021 6:30:00 PM 5.53 41.954 0.026 6.65 2.14 12.43
4/2/2021 6:45:00 PM 5.49 41.882 0.026 6.65 2.16 12.43
4/2/2021 7:00:00 PM 5.41 41.738 0.026 6.64 2.17 12.44
4/2/2021 7:15:00 PM 5.36 41.648 0.026 6.66 2.12 12.45
4/2/2021 7:30:00 PM 5.31 41.558 0.027 6.65 2.12 12.46
4/2/2021 7:45:00 PM 5.26 41.468 0.027 6.64 2.08 12.46
4/2/2021 8:00:00 PM 5.2 41.36 0.027 6.63 2.12 12.48
4/2/2021 8:15:00 PM 5.15 41.27 0.027 6.63 2.09 12.48
4/2/2021 8:30:00 PM 5.09 41.162 0.027 6.63 2.2 12.5
4/2/2021 8:45:00 PM 5.03 41.054 0.027 6.62 2.05 12.52
4/2/2021 9:00:00 PM 4.97 40.946 0.027 6.6 2.12 12.54
4/2/2021 9:15:00 PM 4.91 40.838 0.027 6.64 2.13 12.56
4/2/2021 9:30:00 PM 4.84 40.712 0.027 6.64 2.13 12.58
4/2/2021 9:45:00 PM 4.78 40.604 0.027 6.64 2.03 12.6
4/2/2021 10:00:00 PM 4.73 40.514 0.027 6.59 2.17 12.62
4/2/2021 10:15:00 PM 4.68 40.424 0.027 6.63 2.16 12.64
4/2/2021 10:30:00 PM 4.63 40.334 0.027 6.59 2.12 12.66
4/2/2021 10:45:00 PM 4.58 40.244 0.027 6.63 2.08 12.68
4/2/2021 11:00:00 PM 4.53 40.154 0.027 6.61 2.19 12.69
4/2/2021 11:15:00 PM 4.48 40.064 0.027 6.61 2.11 12.71
4/2/2021 11:30:00 PM 4.43 39.974 0.027 6.61 2.08 12.72
4/2/2021 11:45:00 PM 4.39 39.902 0.027 6.62 2.07 12.75
4/3/2021 12:00:00 AM 4.34 39.812 0.027 6.61 2.17 12.76
4/3/2021 12:15:00 AM 4.3 39.74 0.027 6.61 2.21 12.77
4/3/2021 12:30:00 AM 4.25 39.65 0.027 6.61 2.14 12.79
4/3/2021 12:45:00 AM 4.21 39.578 0.027 6.62 2.1 12.8
4/3/2021 1:00:00 AM 4.16 39.488 0.027 6.62 2.14 12.82
4/3/2021 1:15:00 AM 4.11 39.398 0.027 6.62 2.06 12.84
4/3/2021 1:30:00 AM 4.07 39.326 0.027 6.61 2.02 12.85
4/3/2021 1:45:00 AM 4.02 39.236 0.027 6.63 2.12 12.87
4/3/2021 2:00:00 AM 3.98 39.164 0.027 6.61 2.1 12.89
4/3/2021 2:15:00 AM 3.94 39.092 0.027 6.62 2.02 12.89
4/3/2021 2:30:00 AM 3.9 39.02 0.027 6.62 2.07 12.91
4/3/2021 2:45:00 AM 3.86 38.948 0.027 6.61 2.09 12.92
4/3/2021 3:00:00 AM 3.82 38.876 0.027 6.62 2.08 12.94
4/3/2021 3:15:00 AM 3.77 38.786 0.027 6.62 2.14 12.96
4/3/2021 3:30:00 AM 3.73 38.714 0.027 6.62 2.07 12.97
4/3/2021 3:45:00 AM 3.69 38.642 0.027 6.61 2.2 12.98
4/3/2021 4:00:00 AM 3.65 38.57 0.027 6.62 2.07 13
4/3/2021 4:15:00 AM 3.61 38.498 0.027 6.61 2.15 13.02
4/3/2021 4:30:00 AM 3.57 38.426 0.027 6.61 2.1 13.03
4/3/2021 4:45:00 AM 3.53 38.354 0.027 6.62 2.1 13.05
4/3/2021 5:00:00 AM 3.5 38.3 0.027 6.62 2.06 13.06
4/3/2021 5:15:00 AM 3.46 38.228 0.027 6.63 2.13 13.07
4/3/2021 5:30:00 AM 3.43 38.174 0.027 6.62 2.07 13.08
4/3/2021 5:45:00 AM 3.39 38.102 0.027 6.62 2.14 13.1
4/3/2021 6:00:00 AM 3.35 38.03 0.027 6.62 2.17 13.11
4/3/2021 6:15:00 AM 3.32 37.976 0.027 6.61 2.16 13.13
4/3/2021 6:30:00 AM 3.28 37.904 0.027 6.61 2.08 13.15
4/3/2021 6:45:00 AM 3.24 37.832 0.027 6.61 2.13 13.16
4/3/2021 7:00:00 AM 3.21 37.778 0.027 6.62 2.16 13.18
4/3/2021 7:15:00 AM 3.18 37.724 0.027 6.6 2.05 13.21
4/3/2021 7:30:00 AM 3.16 37.688 0.027 6.63 2.06 13.23
4/3/2021 7:45:00 AM 3.13 37.634 0.027 6.63 2.06 13.26
4/3/2021 8:00:00 AM 3.11 37.598 0.027 6.65 2.11 13.28
4/3/2021 8:15:00 AM 3.1 37.58 0.027 6.64 2.05 13.3
4/3/2021 8:30:00 AM 3.09 37.562 0.027 6.63 2.03 13.32
4/3/2021 8:45:00 AM 3.1 37.58 0.027 6.66 2.06 13.34
4/3/2021 9:00:00 AM 3.13 37.634 0.027 6.67 2.04 13.36
4/3/2021 9:15:00 AM 3.18 37.724 0.027 6.67 2.11 13.35
4/3/2021 9:30:00 AM 3.25 37.85 0.027 6.67 2.11 13.34
4/3/2021 9:45:00 AM 3.32 37.976 0.027 6.68 2.07 13.33
4/3/2021 10:00:00 AM 3.41 38.138 0.027 6.68 2.01 13.31
4/3/2021 10:15:00 AM 3.52 38.336 0.027 6.69 1.99 13.29
4/3/2021 10:30:00 AM 3.65 38.57 0.027 6.71 2.02 13.25
4/3/2021 10:45:00 AM 3.8 38.84 0.027 6.71 2.03 13.21
4/3/2021 11:00:00 AM 3.97 39.146 0.027 6.69 2.12 13.17
4/3/2021 11:15:00 AM 4.15 39.47 0.027 6.73 2.09 13.11
4/3/2021 11:30:00 AM 4.36 39.848 0.026 6.73 2.12 13.05
4/3/2021 11:45:00 AM 4.58 40.244 0.026 6.73 1.99 12.98
4/3/2021 12:00:00 PM 4.81 40.658 0.026 6.72 2.05 12.91
4/3/2021 12:15:00 PM 5.05 41.09 0.026 6.72 2.01 12.85
4/3/2021 12:30:00 PM 5.28 41.504 0.026 6.72 1.94 12.76
4/3/2021 12:45:00 PM 5.53 41.954 0.026 6.71 2.11 12.69
4/3/2021 1:00:00 PM 5.77 42.386 0.026 6.71 2.02 12.62
4/3/2021 1:15:00 PM 5.96 42.728 0.026 6.73 2.01 12.54
4/3/2021 1:30:00 PM 6.13 43.034 0.026 6.72 2.03 12.49
4/3/2021 1:45:00 PM 6.28 43.304 0.026 6.73 2.04 12.43
4/3/2021 2:00:00 PM 6.42 43.556 0.026 6.71 2 12.39
4/3/2021 2:15:00 PM 6.47 43.646 0.026 6.7 1.96 12.34
4/3/2021 2:30:00 PM 6.53 43.754 0.026 6.69 2.01 12.33
4/3/2021 2:45:00 PM 6.58 43.844 0.026 6.69 2.09 12.31
4/3/2021 3:00:00 PM 6.66 43.988 0.026 6.7 1.99 12.29
4/3/2021 3:15:00 PM 6.7 44.06 0.026 6.67 2.05 12.28
4/3/2021 3:30:00 PM 6.73 44.114 0.026 6.68 2.03 12.26
4/3/2021 3:45:00 PM 6.77 44.186 0.026 6.66 2.01 12.24
4/3/2021 4:00:00 PM 6.77 44.186 0.026 6.66 2.05 12.22
4/3/2021 4:15:00 PM 6.77 44.186 0.026 6.67 2.01 12.2
4/3/2021 4:30:00 PM 6.77 44.186 0.026 6.68 2.05 12.18
4/3/2021 4:45:00 PM 6.73 44.114 0.026 6.67 2.08 12.17
4/3/2021 5:00:00 PM 6.71 44.078 0.026 6.66 2.08 12.17
4/3/2021 5:15:00 PM 6.7 44.06 0.026 6.67 2.03 12.17
4/3/2021 5:30:00 PM 6.68 44.024 0.026 6.67 2.02 12.17
4/3/2021 5:45:00 PM 6.66 43.988 0.026 6.66 2.15 12.15
4/3/2021 6:00:00 PM 6.64 43.952 0.026 6.64 2.04 12.14
4/3/2021 6:15:00 PM 6.59 43.862 0.026 6.63 2.08 12.13
4/3/2021 6:30:00 PM 6.57 43.826 0.027 6.66 2.1 12.13
4/3/2021 6:45:00 PM 6.56 43.808 0.027 6.63 2.05 12.11
4/3/2021 7:00:00 PM 6.53 43.754 0.027 6.63 2.07 12.1
4/3/2021 7:15:00 PM 6.51 43.718 0.027 6.62 2.03 12.09
4/3/2021 7:30:00 PM 6.48 43.664 0.027 6.6 2.1 12.08
4/3/2021 7:45:00 PM 6.46 43.628 0.027 6.6 2.03 12.07
4/3/2021 8:00:00 PM 6.44 43.592 0.027 6.59 2.01 12.07
4/3/2021 8:15:00 PM 6.42 43.556 0.027 6.59 2.06 12.06
4/3/2021 8:30:00 PM 6.41 43.538 0.027 6.61 2.17 12.06
4/3/2021 8:45:00 PM 6.4 43.52 0.027 6.6 2.11 12.06
4/3/2021 9:00:00 PM 6.39 43.502 0.027 6.6 2.06 12.08
4/3/2021 9:15:00 PM 6.36 43.448 0.027 6.61 2.07 12.08
4/3/2021 9:30:00 PM 6.34 43.412 0.027 6.61 2.04 12.09
4/3/2021 9:45:00 PM 6.31 43.358 0.027 6.6 2.09 12.11
4/3/2021 10:00:00 PM 6.29 43.322 0.027 6.6 2.11 12.12
4/3/2021 10:15:00 PM 6.27 43.286 0.027 6.6 2.13 12.12
4/3/2021 10:30:00 PM 6.25 43.25 0.027 6.61 2.08 12.12
4/3/2021 10:45:00 PM 6.24 43.232 0.027 6.59 2.1 12.13
4/3/2021 11:00:00 PM 6.22 43.196 0.027 6.59 2.01 12.13
4/3/2021 11:15:00 PM 6.2 43.16 0.027 6.6 2.08 12.14
4/3/2021 11:30:00 PM 6.19 43.142 0.027 6.6 2.08 12.14
4/3/2021 11:45:00 PM 6.17 43.106 0.027 6.59 2.08 12.14
4/4/2021 12:00:00 AM 6.15 43.07 0.027 6.59 2.01 12.15
4/4/2021 12:15:00 AM 6.13 43.034 0.027 6.59 2.11 12.15
4/4/2021 12:30:00 AM 6.11 42.998 0.027 6.6 1.99 12.16
4/4/2021 12:45:00 AM 6.09 42.962 0.027 6.61 2.16 12.16
4/4/2021 1:00:00 AM 6.07 42.926 0.027 6.6 2.02 12.17
4/4/2021 1:15:00 AM 6.04 42.872 0.027 6.6 2.09 12.16
4/4/2021 1:30:00 AM 6.02 42.836 0.027 6.58 2.05 12.17
4/4/2021 1:45:00 AM 6 42.8 0.027 6.58 2.09 12.18
4/4/2021 2:00:00 AM 5.97 42.746 0.027 6.6 2.04 12.18
4/4/2021 2:15:00 AM 5.95 42.71 0.027 6.61 2.07 12.19
4/4/2021 2:30:00 AM 5.93 42.674 0.027 6.6 2.04 12.18
4/4/2021 2:45:00 AM 5.91 42.638 0.027 6.59 2.09 12.2
4/4/2021 3:00:00 AM 5.89 42.602 0.027 6.61 2.13 12.2
4/4/2021 3:15:00 AM 5.87 42.566 0.027 6.6 2.13 12.2
4/4/2021 3:30:00 AM 5.85 42.53 0.027 6.6 2.1 12.21
4/4/2021 3:45:00 AM 5.82 42.476 0.027 6.6 2.08 12.22
4/4/2021 4:00:00 AM 5.8 42.44 0.027 6.61 2.18 12.23
4/4/2021 4:15:00 AM 5.78 42.404 0.027 6.59 2.07 12.23
4/4/2021 4:30:00 AM 5.76 42.368 0.027 6.61 2.04 12.23
4/4/2021 4:45:00 AM 5.74 42.332 0.027 6.61 2.05 12.24
4/4/2021 5:00:00 AM 5.73 42.314 0.027 6.61 2.12 12.23
4/4/2021 5:15:00 AM 5.71 42.278 0.027 6.6 2.08 12.24
4/4/2021 5:30:00 AM 5.69 42.242 0.027 6.6 1.97 12.26
4/4/2021 5:45:00 AM 5.68 42.224 0.027 6.59 2.11 12.25
4/4/2021 6:00:00 AM 5.66 42.188 0.027 6.62 2.11 12.25
4/4/2021 6:15:00 AM 5.64 42.152 0.027 6.6 2.09 12.26
4/4/2021 6:30:00 AM 5.63 42.134 0.027 6.62 2.05 12.27
4/4/2021 6:45:00 AM 5.61 42.098 0.027 6.59 2.1 12.27
4/4/2021 7:00:00 AM 5.6 42.08 0.027 6.6 2.07 12.28
4/4/2021 7:15:00 AM 5.58 42.044 0.027 6.62 2.07 12.31
4/4/2021 7:30:00 AM 5.55 41.99 0.027 6.6 2.01 12.33
4/4/2021 7:45:00 AM 5.53 41.954 0.027 6.62 2.1 12.35
4/4/2021 8:00:00 AM 5.51 41.918 0.027 6.63 2.06 12.38
4/4/2021 8:15:00 AM 5.49 41.882 0.027 6.63 2.08 12.41
4/4/2021 8:30:00 AM 5.47 41.846 0.027 6.64 2.01 12.43
4/4/2021 8:45:00 AM 5.47 41.846 0.027 6.64 2.08 12.44
4/4/2021 9:00:00 AM 5.49 41.882 0.027 6.67 3.57 12.45
4/4/2021 9:15:00 AM 5.53 41.954 0.027 6.68 2.01 12.45
4/4/2021 9:30:00 AM 5.57 42.026 0.027 6.68 2.02 12.46
4/4/2021 9:45:00 AM 5.63 42.134 0.027 6.69 2.03 12.46
4/4/2021 10:00:00 AM 5.71 42.278 0.027 6.69 2.03 12.46
4/4/2021 10:15:00 AM 5.8 42.44 0.027 6.7 2.04 12.43
4/4/2021 10:30:00 AM 5.93 42.674 0.027 6.71 2.02 12.4
4/4/2021 10:45:00 AM 6.07 42.926 0.027 6.72 1.94 12.37
4/4/2021 11:00:00 AM 6.24 43.232 0.027 6.72 1.96 12.34
4/4/2021 11:15:00 AM 6.43 43.574 0.027 6.72 2 12.29
4/4/2021 11:30:00 AM 6.63 43.934 0.027 6.74 2.12 12.23
4/4/2021 11:45:00 AM 6.85 44.33 0.027 6.74 2 12.18
4/4/2021 12:00:00 PM 7.08 44.744 0.027 6.74 1.96 12.11
4/4/2021 12:15:00 PM 7.33 45.194 0.027 6.74 1.98 12.04
4/4/2021 12:30:00 PM 7.56 45.608 0.027 6.72 2.08 11.96
4/4/2021 12:45:00 PM 7.82 46.076 0.027 6.73 1.99 11.9
4/4/2021 1:00:00 PM 7.99 46.382 0.027 6.72 2.09 11.84
4/4/2021 1:15:00 PM 8.16 46.688 0.027 6.72 2.01 11.78
4/4/2021 1:30:00 PM 8.29 46.922 0.027 6.71 1.97 11.74
4/4/2021 1:45:00 PM 8.41 47.138 0.027 6.7 1.98 11.69
4/4/2021 2:00:00 PM 8.63 47.534 0.027 6.71 2.02 11.64
4/4/2021 2:15:00 PM 8.75 47.75 0.027 6.71 2.05 11.6
4/4/2021 2:30:00 PM 8.79 47.822 0.027 6.69 2.02 11.57
4/4/2021 2:45:00 PM 8.92 48.056 0.027 6.69 1.96 11.55
4/4/2021 3:00:00 PM 8.94 48.092 0.027 6.68 1.98 11.52
4/4/2021 3:15:00 PM 8.94 48.092 0.027 6.66 2.09 11.51
4/4/2021 3:30:00 PM 8.95 48.11 0.027 6.69 1.99 11.5
4/4/2021 3:45:00 PM 8.96 48.128 0.027 6.66 2.09 11.49
4/4/2021 4:00:00 PM 8.96 48.128 0.027 6.68 1.99 11.48
4/4/2021 4:15:00 PM 8.96 48.128 0.027 6.68 1.94 11.48
4/4/2021 4:30:00 PM 8.94 48.092 0.027 6.69 2 11.48
4/4/2021 4:45:00 PM 8.9 48.02 0.027 6.67 2.08 11.48
4/4/2021 5:00:00 PM 8.85 47.93 0.027 6.66 2.28 11.48
4/4/2021 5:15:00 PM 8.8 47.84 0.027 6.66 2.02 11.48
4/4/2021 5:30:00 PM 8.74 47.732 0.027 6.67 2.04 11.49
4/4/2021 5:45:00 PM 8.67 47.606 0.027 6.65 2 11.49
4/4/2021 6:00:00 PM 8.61 47.498 0.027 6.65 2.07 11.49
4/4/2021 6:15:00 PM 8.55 47.39 0.027 6.65 2.06 11.5
4/4/2021 6:30:00 PM 8.48 47.264 0.027 6.64 2.07 11.5
4/4/2021 6:45:00 PM 8.42 47.156 0.027 6.65 2.12 11.51
4/4/2021 7:00:00 PM 8.35 47.03 0.027 6.63 2.02 11.51
4/4/2021 7:15:00 PM 8.28 46.904 0.027 6.6 2.07 11.52
4/4/2021 7:30:00 PM 8.23 46.814 0.027 6.6 2.14 11.51
4/4/2021 7:45:00 PM 8.17 46.706 0.027 6.59 2.06 11.52
4/4/2021 8:00:00 PM 8.11 46.598 0.027 6.6 2.12 11.52
4/4/2021 8:15:00 PM 8.06 46.508 0.027 6.57 2.08 11.52
4/4/2021 8:30:00 PM 8.01 46.418 0.027 6.57 2.26 11.53
4/4/2021 8:45:00 PM 7.96 46.328 0.027 6.57 2.1 11.55
4/4/2021 9:00:00 PM 7.91 46.238 0.027 6.56 2.11 11.56
4/4/2021 9:15:00 PM 7.86 46.148 0.027 6.58 2.15 11.58
4/4/2021 9:30:00 PM 7.8 46.04 0.027 6.57 2.08 11.6
4/4/2021 9:45:00 PM 7.73 45.914 0.027 6.57 2.3 11.62
4/4/2021 10:00:00 PM 7.67 45.806 0.027 6.57 2.16 11.64
4/4/2021 10:15:00 PM 7.61 45.698 0.027 6.57 2.09 11.66
4/4/2021 10:30:00 PM 7.54 45.572 0.027 6.57 2.06 11.67
4/4/2021 10:45:00 PM 7.48 45.464 0.027 6.57 2.14 11.69
4/4/2021 11:00:00 PM 7.42 45.356 0.027 6.62 2.06 11.7
4/4/2021 11:15:00 PM 7.36 45.248 0.027 6.6 2.07 11.72
4/4/2021 11:30:00 PM 7.29 45.122 0.027 6.59 2.14 11.74
4/4/2021 11:45:00 PM 7.23 45.014 0.027 6.6 2.06 11.75
4/5/2021 12:00:00 AM 7.17 44.906 0.027 6.6 2.05 11.77
4/5/2021 12:15:00 AM 7.1 44.78 0.027 6.59 2.11 11.79
4/5/2021 12:30:00 AM 7.04 44.672 0.027 6.6 2.13 11.81
4/5/2021 12:45:00 AM 6.97 44.546 0.027 6.62 3.75 11.84
4/5/2021 1:00:00 AM 6.91 44.438 0.027 6.64 2.39 11.86
4/5/2021 1:15:00 AM 6.84 44.312 0.027 6.6 2.12 11.87
4/5/2021 1:30:00 AM 6.78 44.204 0.027 6.62 2.09 11.89
4/5/2021 1:45:00 AM 6.72 44.096 0.027 6.59 2.12 11.91
4/5/2021 2:00:00 AM 6.66 43.988 0.027 6.61 2.1 11.92
4/5/2021 2:15:00 AM 6.6 43.88 0.027 6.63 2.07 11.93
4/5/2021 2:30:00 AM 6.54 43.772 0.027 6.6 2.09 11.97
4/5/2021 2:45:00 AM 6.49 43.682 0.027 6.62 2.18 11.98
4/5/2021 3:00:00 AM 6.43 43.574 0.027 6.58 2.11 11.98
4/5/2021 3:15:00 AM 6.37 43.466 0.027 6.59 2.12 12
4/5/2021 3:30:00 AM 6.32 43.376 0.027 6.6 2.06 12.02
4/5/2021 3:45:00 AM 6.26 43.268 0.027 6.59 2.12 12.04
4/5/2021 4:00:00 AM 6.21 43.178 0.027 6.6 2.08 12.05
4/5/2021 4:15:00 AM 6.15 43.07 0.027 6.59 2.07 12.07
4/5/2021 4:30:00 AM 6.1 42.98 0.027 6.6 2.07 12.09
4/5/2021 4:45:00 AM 6.04 42.872 0.027 6.61 2.06 12.12
4/5/2021 5:00:00 AM 5.99 42.782 0.027 6.61 2.12 12.13
4/5/2021 5:15:00 AM 5.95 42.71 0.027 6.62 2.04 12.16
4/5/2021 5:30:00 AM 5.9 42.62 0.027 6.58 2.07 12.15
4/5/2021 5:45:00 AM 5.85 42.53 0.027 6.59 2.22 12.17
4/5/2021 6:00:00 AM 5.81 42.458 0.027 6.62 2.04 12.19
4/5/2021 6:15:00 AM 5.77 42.386 0.027 6.61 2.12 12.2
4/5/2021 6:30:00 AM 5.73 42.314 0.027 6.59 2.26 12.21
4/5/2021 6:45:00 AM 5.68 42.224 0.027 6.6 2.15 12.23
4/5/2021 7:00:00 AM 5.65 42.17 0.027 6.61 2.07 12.25
4/5/2021 7:15:00 AM 5.61 42.098 0.027 6.61 2.08 12.28
4/5/2021 7:30:00 AM 5.58 42.044 0.027 6.62 2.08 12.31
4/5/2021 7:45:00 AM 5.55 41.99 0.027 6.61 2.09 12.34
4/5/2021 8:00:00 AM 5.53 41.954 0.027 6.63 2.08 12.36
4/5/2021 8:15:00 AM 5.5 41.9 0.027 6.64 2.09 12.38
4/5/2021 8:30:00 AM 5.49 41.882 0.027 6.63 1.99 12.41
4/5/2021 8:45:00 AM 5.49 41.882 0.027 6.66 2.02 12.43
4/5/2021 9:00:00 AM 5.52 41.936 0.027 6.66 2.13 12.44
4/5/2021 9:15:00 AM 5.58 42.044 0.027 6.66 2.05 12.44
4/5/2021 9:30:00 AM 5.65 42.17 0.027 6.69 2.1 12.44
4/5/2021 9:45:00 AM 5.75 42.35 0.027 6.71 2.14 12.42
4/5/2021 10:00:00 AM 5.86 42.548 0.027 6.71 2.05 12.41
4/5/2021 10:15:00 AM 5.98 42.764 0.027 6.71 2.05 12.38
4/5/2021 10:30:00 AM 6.12 43.016 0.027 6.73 2.08 12.35
4/5/2021 10:45:00 AM 6.27 43.286 0.027 6.73 2.06 12.31
4/5/2021 11:00:00 AM 6.43 43.574 0.027 6.74 2.05 12.27
4/5/2021 11:15:00 AM 6.62 43.916 0.027 6.75 2.03 12.22
4/5/2021 11:30:00 AM 6.82 44.276 0.027 6.75 2.08 12.17
4/5/2021 11:45:00 AM 7.04 44.672 0.027 6.76 2.02 12.1
4/5/2021 12:00:00 PM 7.26 45.068 0.027 6.76 2.02 12.04
4/5/2021 12:15:00 PM 7.5 45.5 0.027 6.77 2.01 11.98
4/5/2021 12:30:00 PM 7.74 45.932 0.027 6.76 2.04 11.91
4/5/2021 12:45:00 PM 7.99 46.382 0.027 6.76 2.17 11.85
4/5/2021 1:00:00 PM 8.23 46.814 0.027 6.75 2.13 11.79
4/5/2021 1:15:00 PM 8.46 47.228 0.027 6.76 2.05 11.73
4/5/2021 1:30:00 PM 8.69 47.642 0.027 6.76 1.99 11.66
4/5/2021 1:45:00 PM 8.89 48.002 0.027 6.75 2.11 11.6
4/5/2021 2:00:00 PM 9.09 48.362 0.027 6.73 2.04 11.53
4/5/2021 2:15:00 PM 9.25 48.65 0.027 6.72 2.13 11.48
4/5/2021 2:30:00 PM 9.37 48.866 0.027 6.71 2.08 11.43
4/5/2021 2:45:00 PM 9.46 49.028 0.027 6.73 2.07 11.4
4/5/2021 3:00:00 PM 9.51 49.118 0.027 6.7 2.27 11.38
4/5/2021 3:15:00 PM 9.54 49.172 0.027 6.71 2.16 11.36
4/5/2021 3:30:00 PM 9.55 49.19 0.027 6.7 2.18 11.34
4/5/2021 3:45:00 PM 9.53 49.154 0.027 6.68 2.28 11.33
4/5/2021 4:00:00 PM 9.48 49.064 0.027 6.67 2.23 11.34
4/5/2021 4:15:00 PM 9.42 48.956 0.027 6.69 2.27 11.34
4/5/2021 4:30:00 PM 9.37 48.866 0.027 6.67 2.29 11.36
4/5/2021 4:45:00 PM 9.32 48.776 0.027 6.67 2.25 11.37
4/5/2021 5:00:00 PM 9.27 48.686 0.027 6.69 2.27 11.37
4/5/2021 5:15:00 PM 9.2 48.56 0.027 6.65 2.21 11.37
4/5/2021 5:30:00 PM 9.14 48.452 0.027 6.67 2.22 11.38
4/5/2021 5:45:00 PM 9.09 48.362 0.027 6.66 2.16 11.38
4/5/2021 6:00:00 PM 9.03 48.254 0.027 6.66 2.18 11.38
4/5/2021 6:15:00 PM 8.98 48.164 0.027 6.67 2.26 11.38
4/5/2021 6:30:00 PM 8.92 48.056 0.027 6.66 2.16 11.38
4/5/2021 6:45:00 PM 8.87 47.966 0.027 6.66 2.08 11.37
4/5/2021 7:00:00 PM 8.82 47.876 0.027 6.67 2.13 11.38
4/5/2021 7:15:00 PM 8.77 47.786 0.027 6.62 2.15 11.38
4/5/2021 7:30:00 PM 8.72 47.696 0.027 6.62 2.16 11.37
4/5/2021 7:45:00 PM 8.66 47.588 0.027 6.61 2.24 11.36
4/5/2021 8:00:00 PM 8.6 47.48 0.027 6.6 2.19 11.36
4/5/2021 8:15:00 PM 8.55 47.39 0.027 6.59 2.16 11.36
4/5/2021 8:30:00 PM 8.5 47.3 0.027 6.59 2.12 11.38
4/5/2021 8:45:00 PM 8.44 47.192 0.027 6.59 2.16 11.39
4/5/2021 9:00:00 PM 8.4 47.12 0.027 6.59 2.18 11.4
4/5/2021 9:15:00 PM 8.35 47.03 0.027 6.58 2.17 11.41
4/5/2021 9:30:00 PM 8.31 46.958 0.027 6.57 2.17 11.43
4/5/2021 9:45:00 PM 8.27 46.886 0.027 6.57 2.21 11.44
4/5/2021 10:00:00 PM 8.23 46.814 0.027 6.56 2.16 11.45
4/5/2021 10:15:00 PM 8.2 46.76 0.027 6.57 2.16 11.47
4/5/2021 10:30:00 PM 8.17 46.706 0.027 6.58 2.16 11.47
4/5/2021 10:45:00 PM 8.13 46.634 0.027 6.59 2.11 11.48
4/5/2021 11:00:00 PM 8.11 46.598 0.027 6.57 2.04 11.48
4/5/2021 11:15:00 PM 8.08 46.544 0.027 6.59 2.23 11.49
4/5/2021 11:30:00 PM 8.06 46.508 0.027 6.59 2.18 11.49
4/5/2021 11:45:00 PM 8.04 46.472 0.027 6.58 2.08 11.5
4/6/2021 12:00:00 AM 8.01 46.418 0.027 6.59 2.08 11.51
4/6/2021 12:15:00 AM 7.99 46.382 0.027 6.61 2.1 11.51
4/6/2021 12:30:00 AM 7.97 46.346 0.027 6.6 2.14 11.52
4/6/2021 12:45:00 AM 7.94 46.292 0.027 6.6 2.19 11.52
4/6/2021 1:00:00 AM 7.9 46.22 0.027 6.59 2.17 11.53
4/6/2021 1:15:00 AM 7.86 46.148 0.027 6.59 2.16 11.54
4/6/2021 1:30:00 AM 7.82 46.076 0.027 6.59 2.22 11.56
4/6/2021 1:45:00 AM 7.78 46.004 0.027 6.6 2.2 11.56
4/6/2021 2:00:00 AM 7.73 45.914 0.027 6.59 2.12 11.58
4/6/2021 2:15:00 AM 7.67 45.806 0.027 6.58 2.27 11.59
4/6/2021 2:30:00 AM 7.61 45.698 0.027 6.6 2.11 11.6
4/6/2021 2:45:00 AM 7.55 45.59 0.027 6.59 2.22 11.62
4/6/2021 3:00:00 AM 7.49 45.482 0.027 6.58 2.17 11.64
4/6/2021 3:15:00 AM 7.43 45.374 0.027 6.58 2.12 11.65
4/6/2021 3:30:00 AM 7.36 45.248 0.027 6.6 2.15 11.67
4/6/2021 3:45:00 AM 7.3 45.14 0.027 6.61 2.09 11.69
4/6/2021 4:00:00 AM 7.24 45.032 0.027 6.6 2.15 11.7
4/6/2021 4:15:00 AM 7.19 44.942 0.027 6.61 2.07 11.72
4/6/2021 4:30:00 AM 7.13 44.834 0.027 6.6 2.13 11.73
4/6/2021 4:45:00 AM 7.07 44.726 0.027 6.6 2.16 11.76
4/6/2021 5:00:00 AM 7.01 44.618 0.027 6.61 2.24 11.77
4/6/2021 5:15:00 AM 6.96 44.528 0.027 6.59 2.19 11.79
4/6/2021 5:30:00 AM 6.9 44.42 0.027 6.6 2.2 11.81
4/6/2021 5:45:00 AM 6.85 44.33 0.027 6.6 2.07 11.83
4/6/2021 6:00:00 AM 6.79 44.222 0.027 6.6 2.14 11.85
4/6/2021 6:15:00 AM 6.74 44.132 0.027 6.59 2.15 11.86
4/6/2021 6:30:00 AM 6.68 44.024 0.027 6.62 2.21 11.88
4/6/2021 6:45:00 AM 6.63 43.934 0.027 6.62 2.1 11.9
4/6/2021 7:00:00 AM 6.58 43.844 0.027 6.62 2.1 11.92
4/6/2021 7:15:00 AM 6.53 43.754 0.027 6.63 2.07 11.96
4/6/2021 7:30:00 AM 6.48 43.664 0.027 6.64 2.07 12
4/6/2021 7:45:00 AM 6.44 43.592 0.027 6.65 2.07 12.03
4/6/2021 8:00:00 AM 6.41 43.538 0.027 6.66 2.11 12.06
4/6/2021 8:15:00 AM 6.38 43.484 0.027 6.66 2.12 12.09
4/6/2021 8:30:00 AM 6.35 43.43 0.027 6.66 2.11 12.12
4/6/2021 8:45:00 AM 6.35 43.43 0.027 6.69 2.09 12.15
4/6/2021 9:00:00 AM 6.38 43.484 0.027 6.69 2.15 12.16
4/6/2021 9:15:00 AM 6.43 43.574 0.027 6.7 2.23 12.17
4/6/2021 9:30:00 AM 6.49 43.682 0.027 6.72 2.2 12.17
4/6/2021 9:45:00 AM 6.57 43.826 0.027 6.72 2.1 12.17
4/6/2021 10:00:00 AM 6.67 44.006 0.027 6.72 2.07 12.15
4/6/2021 10:15:00 AM 6.79 44.222 0.027 6.76 2.11 12.13
4/6/2021 10:30:00 AM 6.93 44.474 0.027 6.75 2.09 12.1
4/6/2021 10:45:00 AM 7.08 44.744 0.027 6.75 2.1 12.06
4/6/2021 11:00:00 AM 7.25 45.05 0.027 6.75 2.1 12.02
4/6/2021 11:15:00 AM 7.43 45.374 0.027 6.78 2.05 11.97
4/6/2021 11:30:00 AM 7.64 45.752 0.027 6.78 2.12 11.92
4/6/2021 11:45:00 AM 7.86 46.148 0.027 6.76 2.13 11.87
4/6/2021 12:00:00 PM 8.08 46.544 0.027 6.77 2.08 11.81
4/6/2021 12:15:00 PM 8.33 46.994 0.027 6.77 2.13 11.76
4/6/2021 12:30:00 PM 8.53 47.354 0.027 6.77 2.1 11.69
4/6/2021 12:45:00 PM 8.77 47.786 0.027 6.78 2.1 11.63
4/6/2021 1:00:00 PM 9.01 48.218 0.027 6.76 2.16 11.56
4/6/2021 1:15:00 PM 9.25 48.65 0.027 6.77 2.05 11.51
4/6/2021 1:30:00 PM 9.47 49.046 0.027 6.76 2.07 11.44
4/6/2021 1:45:00 PM 9.7 49.46 0.027 6.74 2.15 11.39
4/6/2021 2:00:00 PM 9.86 49.748 0.027 6.75 2 11.33
4/6/2021 2:15:00 PM 10.02 50.036 0.027 6.74 2.12 11.28
4/6/2021 2:30:00 PM 10.14 50.252 0.027 6.72 2.09 11.23
4/6/2021 2:45:00 PM 10.24 50.432 0.027 6.72 2.07 11.21
4/6/2021 3:00:00 PM 10.28 50.504 0.027 6.71 2.12 11.17
4/6/2021 3:15:00 PM 10.3 50.54 0.027 6.71 2.17 11.16
4/6/2021 3:30:00 PM 10.3 50.54 0.027 6.68 2.14 11.15
4/6/2021 3:45:00 PM 10.27 50.486 0.027 6.66 2.12 11.14
4/6/2021 4:00:00 PM 10.23 50.414 0.027 6.67 2.05 11.14
4/6/2021 4:15:00 PM 10.19 50.342 0.027 6.68 2.05 11.14
4/6/2021 4:30:00 PM 10.14 50.252 0.027 6.67 2.15 11.14
4/6/2021 4:45:00 PM 10.08 50.144 0.027 6.67 2.07 11.14
4/6/2021 5:00:00 PM 10.03 50.054 0.027 6.66 2.2 11.15
4/6/2021 5:15:00 PM 9.96 49.928 0.027 6.66 2.1 11.14
4/6/2021 5:30:00 PM 9.89 49.802 0.027 6.65 2.2 11.15
4/6/2021 5:45:00 PM 9.84 49.712 0.027 6.65 2.15 11.16
4/6/2021 6:00:00 PM 9.77 49.586 0.027 6.66 2.04 11.16
4/6/2021 6:15:00 PM 9.7 49.46 0.027 6.66 2.13 11.16
4/6/2021 6:30:00 PM 9.64 49.352 0.027 6.64 2.17 11.15
4/6/2021 6:45:00 PM 9.58 49.244 0.027 6.61 2.08 11.16
4/6/2021 7:00:00 PM 9.51 49.118 0.027 6.6 2.1 11.16
4/6/2021 7:15:00 PM 9.45 49.01 0.027 6.6 2.17 11.16
4/6/2021 7:30:00 PM 9.39 48.902 0.027 6.59 2.07 11.15
4/6/2021 7:45:00 PM 9.34 48.812 0.027 6.58 2.04 11.15
4/6/2021 8:00:00 PM 9.27 48.686 0.027 6.57 2.21 11.16
4/6/2021 8:15:00 PM 9.21 48.578 0.027 6.58 2.26 11.16
4/6/2021 8:30:00 PM 9.16 48.488 0.027 6.57 2.02 11.17
4/6/2021 8:45:00 PM 9.11 48.398 0.027 6.57 2.11 11.18
4/6/2021 9:00:00 PM 9.07 48.326 0.027 6.55 2.14 11.2
4/6/2021 9:15:00 PM 9.02 48.236 0.027 6.55 2.22 11.21
4/6/2021 9:30:00 PM 8.98 48.164 0.027 6.55 2.23 11.22
4/6/2021 9:45:00 PM 8.94 48.092 0.027 6.56 2.16 11.23
4/6/2021 10:00:00 PM 8.9 48.02 0.027 6.55 2.23 11.24
4/6/2021 10:15:00 PM 8.85 47.93 0.027 6.55 2.18 11.26
4/6/2021 10:30:00 PM 8.81 47.858 0.027 6.57 2.15 11.27
4/6/2021 10:45:00 PM 8.77 47.786 0.027 6.6 2.07 11.27
4/6/2021 11:00:00 PM 8.74 47.732 0.027 6.57 2.17 11.29
4/6/2021 11:15:00 PM 8.7 47.66 0.027 6.58 2.14 11.29
4/6/2021 11:30:00 PM 8.67 47.606 0.027 6.59 2.13 11.3
4/6/2021 11:45:00 PM 8.65 47.57 0.027 6.59 2.14 11.31
4/7/2021 12:00:00 AM 8.62 47.516 0.028 6.57 2.23 11.32
4/7/2021 12:15:00 AM 8.6 47.48 0.027 6.57 2.18 11.33
4/7/2021 12:30:00 AM 8.58 47.444 0.027 6.57 2.07 11.34
4/7/2021 12:45:00 AM 8.56 47.408 0.027 6.58 2.24 11.34
4/7/2021 1:00:00 AM 8.54 47.372 0.027 6.57 2.13 11.34
4/7/2021 1:15:00 AM 8.52 47.336 0.027 6.57 2.15 11.34
4/7/2021 1:30:00 AM 8.5 47.3 0.028 6.58 2.03 11.34
4/7/2021 1:45:00 AM 8.49 47.282 0.027 6.59 2.16 11.36
4/7/2021 2:00:00 AM 8.46 47.228 0.028 6.59 2.37 11.36
4/7/2021 2:15:00 AM 8.44 47.192 0.027 6.59 2.19 11.37
4/7/2021 2:30:00 AM 8.43 47.174 0.028 6.6 2.18 11.37
4/7/2021 2:45:00 AM 8.41 47.138 0.027 6.58 2.1 11.38
4/7/2021 3:00:00 AM 8.38 47.084 0.027 6.59 2.23 11.38
4/7/2021 3:15:00 AM 8.35 47.03 0.027 6.59 2.17 11.4
4/7/2021 3:30:00 AM 8.31 46.958 0.028 6.59 2.29 11.41
4/7/2021 3:45:00 AM 8.27 46.886 0.028 6.57 2.25 11.41
4/7/2021 4:00:00 AM 8.24 46.832 0.027 6.58 2.11 11.42
4/7/2021 4:15:00 AM 8.2 46.76 0.027 6.58 2.13 11.44
4/7/2021 4:30:00 AM 8.16 46.688 0.028 6.58 2.15 11.45
4/7/2021 4:45:00 AM 8.13 46.634 0.027 6.58 2.16 11.46
4/7/2021 5:00:00 AM 8.1 46.58 0.027 6.59 2.19 11.47
4/7/2021 5:15:00 AM 8.08 46.544 0.027 6.59 2.15 11.48
4/7/2021 5:30:00 AM 8.05 46.49 0.027 6.61 2.13 11.49
4/7/2021 5:45:00 AM 8.03 46.454 0.027 6.6 2.25 11.51
4/7/2021 6:00:00 AM 8 46.4 0.027 6.6 2.14 11.51
4/7/2021 6:15:00 AM 7.98 46.364 0.027 6.6 2.21 11.51
4/7/2021 6:30:00 AM 7.96 46.328 0.027 6.59 2.13 11.52
4/7/2021 6:45:00 AM 7.93 46.274 0.028 6.58 2.47 11.53
4/7/2021 7:00:00 AM 7.91 46.238 0.027 6.58 2.23 11.54
4/7/2021 7:15:00 AM 7.9 46.22 0.027 6.61 2.06 11.57
4/7/2021 7:30:00 AM 7.89 46.202 0.027 6.61 2.17 11.6
4/7/2021 7:45:00 AM 7.9 46.22 0.027 6.64 2.13 11.64
4/7/2021 8:00:00 AM 7.9 46.22 0.027 6.67 2.11 11.66
4/7/2021 8:15:00 AM 7.9 46.22 0.027 6.64 2.12 11.68
4/7/2021 8:30:00 AM 7.91 46.238 0.027 6.65 2.2 11.7
4/7/2021 8:45:00 AM 7.92 46.256 0.027 6.65 2.15 11.71
4/7/2021 9:00:00 AM 7.95 46.31 0.027 6.68 2.09 11.73
4/7/2021 9:15:00 AM 7.99 46.382 0.027 6.68 2.19 11.74
4/7/2021 9:30:00 AM 8 46.4 0.027 6.7 2.15 11.73
4/7/2021 9:45:00 AM 8.04 46.472 0.027 6.71 2.11 11.74
4/7/2021 10:00:00 AM 8.12 46.616 0.027 6.7 2.31 11.73
4/7/2021 10:15:00 AM 8.21 46.778 0.027 6.74 2.12 11.72
4/7/2021 10:30:00 AM 8.31 46.958 0.027 6.74 2.27 11.7
4/7/2021 10:45:00 AM 8.43 47.174 0.027 6.73 2.1 11.68
4/7/2021 11:00:00 AM 8.55 47.39 0.027 6.75 2.1 11.65
4/7/2021 11:15:00 AM 8.7 47.66 0.027 6.73 2.17 11.61
4/7/2021 11:30:00 AM 8.86 47.948 0.027 6.75 2.05 11.57
4/7/2021 11:45:00 AM 9.05 48.29 0.027 6.75 2.21 11.53
4/7/2021 12:00:00 PM 9.24 48.632 0.027 6.75 2.1 11.49
4/7/2021 12:15:00 PM 9.47 49.046 0.027 6.76 2.05 11.43
4/7/2021 12:30:00 PM 9.7 49.46 0.027 6.72 2.11 11.37
4/7/2021 12:45:00 PM 9.92 49.856 0.027 6.75 2.17 11.31
4/7/2021 1:00:00 PM 10.16 50.288 0.027 6.74 2.07 11.25
4/7/2021 1:15:00 PM 10.4 50.72 0.027 6.72 2.14 11.2
4/7/2021 1:30:00 PM 10.64 51.152 0.027 6.74 2.11 11.11
4/7/2021 1:45:00 PM 10.87 51.566 0.027 6.75 2.27 11.06
4/7/2021 2:00:00 PM 10.96 51.728 0.027 6.71 2.16 11.01
4/7/2021 2:15:00 PM 11.17 52.106 0.027 6.74 2.16 10.98
4/7/2021 2:30:00 PM 11.29 52.322 0.027 6.72 2.23 10.94
4/7/2021 2:45:00 PM 11.31 52.358 0.027 6.7 2.11 10.9
4/7/2021 3:00:00 PM 11.28 52.304 0.027 6.7 2.1 10.89
4/7/2021 3:15:00 PM 11.22 52.196 0.027 6.69 2.15 10.87
4/7/2021 3:30:00 PM 11.16 52.088 0.027 6.68 2.11 10.87
4/7/2021 3:45:00 PM 11.16 52.088 0.027 6.67 2.34 10.88
4/7/2021 4:00:00 PM 11.13 52.034 0.027 6.67 2.12 10.89
4/7/2021 4:15:00 PM 11.12 52.016 0.027 6.67 2.06 10.88
4/7/2021 4:30:00 PM 11.06 51.908 0.027 6.67 2.12 10.87
4/7/2021 4:45:00 PM 10.98 51.764 0.027 6.68 2.04 10.88
4/7/2021 5:00:00 PM 10.91 51.638 0.027 6.67 2.11 10.89
4/7/2021 5:15:00 PM 10.87 51.566 0.027 6.67 2.11 10.9
4/7/2021 5:30:00 PM 10.85 51.53 0.027 6.67 2.11 10.9
4/7/2021 5:45:00 PM 10.82 51.476 0.027 6.7 2.25 10.89
4/7/2021 6:00:00 PM 10.79 51.422 0.027 6.67 2.11 10.89
4/7/2021 6:15:00 PM 10.75 51.35 0.027 6.66 2.22 10.9
4/7/2021 6:30:00 PM 10.71 51.278 0.027 6.66 2.01 10.89
4/7/2021 6:45:00 PM 10.67 51.206 0.027 6.65 2.04 10.88
4/7/2021 7:00:00 PM 10.65 51.17 0.027 6.63 2.1 10.87
4/7/2021 7:15:00 PM 10.6 51.08 0.027 6.64 2.17 10.85
4/7/2021 7:30:00 PM 10.57 51.026 0.027 6.6 2.09 10.85
4/7/2021 7:45:00 PM 10.51 50.918 0.027 6.59 2.16 10.84
4/7/2021 8:00:00 PM 10.45 50.81 0.027 6.59 2.22 10.84
4/7/2021 8:15:00 PM 10.38 50.684 0.027 6.59 2.18 10.84
4/7/2021 8:30:00 PM 10.31 50.558 0.027 6.57 2.11 10.86
4/7/2021 8:45:00 PM 10.24 50.432 0.028 6.55 2.11 10.87
4/7/2021 9:00:00 PM 10.18 50.324 0.028 6.55 2.18 10.89
4/7/2021 9:15:00 PM 10.13 50.234 0.028 6.55 2.1 10.91
4/7/2021 9:30:00 PM 10.08 50.144 0.028 6.55 2.21 10.91
4/7/2021 9:45:00 PM 10.03 50.054 0.028 6.56 2.14 10.92
4/7/2021 10:00:00 PM 9.98 49.964 0.028 6.55 2.18 10.94
4/7/2021 10:15:00 PM 9.92 49.856 0.028 6.56 2.15 10.95
4/7/2021 10:30:00 PM 9.87 49.766 0.028 6.57 2.16 10.97
4/7/2021 10:45:00 PM 9.81 49.658 0.028 6.56 2.21 10.98
4/7/2021 11:00:00 PM 9.76 49.568 0.028 6.56 2.26 11
4/7/2021 11:15:00 PM 9.7 49.46 0.028 6.54 2.18 11.01
4/7/2021 11:30:00 PM 9.64 49.352 0.028 6.55 2.24 11.03
4/7/2021 11:45:00 PM 9.58 49.244 0.028 6.55 2.18 11.04
4/8/2021 12:00:00 AM 9.52 49.136 0.028 6.58 2.24 11.06
4/8/2021 12:15:00 AM 9.46 49.028 0.028 6.59 2.1 11.07
4/8/2021 12:30:00 AM 9.4 48.92 0.028 6.59 2.16 11.09
4/8/2021 12:45:00 AM 9.34 48.812 0.028 6.59 2.26 11.1
4/8/2021 1:00:00 AM 9.29 48.722 0.028 6.6 2.12 11.11
4/8/2021 1:15:00 AM 9.23 48.614 0.028 6.6 2.15 11.13
4/8/2021 1:30:00 AM 9.18 48.524 0.028 6.61 2.19 11.15
4/8/2021 1:45:00 AM 9.12 48.416 0.028 6.59 2.13 11.16
4/8/2021 2:00:00 AM 9.06 48.308 0.028 6.6 2.24 11.18
4/8/2021 2:15:00 AM 9 48.2 0.028 6.6 2.22 11.19
4/8/2021 2:30:00 AM 8.95 48.11 0.028 6.59 2.2 11.21
4/8/2021 2:45:00 AM 8.89 48.002 0.028 6.6 2.16 11.23
4/8/2021 3:00:00 AM 8.84 47.912 0.028 6.61 2.33 11.23
4/8/2021 3:15:00 AM 8.78 47.804 0.028 6.61 2.16 11.25
4/8/2021 3:30:00 AM 8.73 47.714 0.028 6.6 2.2 11.26
4/8/2021 3:45:00 AM 8.68 47.624 0.028 6.6 2.11 11.29
4/8/2021 4:00:00 AM 8.63 47.534 0.028 6.6 2.27 11.3
4/8/2021 4:15:00 AM 8.58 47.444 0.028 6.6 2.15 11.32
4/8/2021 4:30:00 AM 8.53 47.354 0.028 6.6 2.21 11.33
4/8/2021 4:45:00 AM 8.49 47.282 0.028 6.62 2.19 11.34
4/8/2021 5:00:00 AM 8.44 47.192 0.028 6.61 2.16 11.35
4/8/2021 5:15:00 AM 8.4 47.12 0.028 6.61 2.32 11.38
4/8/2021 5:30:00 AM 8.35 47.03 0.028 6.62 2.18 11.39
4/8/2021 5:45:00 AM 8.3 46.94 0.028 6.63 2.16 11.4
4/8/2021 6:00:00 AM 8.25 46.85 0.028 6.61 2.15 11.41
4/8/2021 6:15:00 AM 8.2 46.76 0.028 6.6 2.33 11.43
4/8/2021 6:30:00 AM 8.15 46.67 0.028 6.61 2.14 11.44
4/8/2021 6:45:00 AM 8.11 46.598 0.028 6.61 2.14 11.46
4/8/2021 7:00:00 AM 8.06 46.508 0.028 6.63 2.16 11.48
4/8/2021 7:15:00 AM 8.03 46.454 0.028 6.64 2.11 11.51
4/8/2021 7:30:00 AM 7.99 46.382 0.028 6.63 2.19 11.55
4/8/2021 7:45:00 AM 7.96 46.328 0.028 6.65 2.08 11.58
4/8/2021 8:00:00 AM 7.94 46.292 0.028 6.66 2.06 11.61
4/8/2021 8:15:00 AM 7.92 46.256 0.028 6.67 2.11 11.64
4/8/2021 8:30:00 AM 7.9 46.22 0.028 6.65 2.12 11.66
4/8/2021 8:45:00 AM 7.92 46.256 0.028 6.66 2.16 11.68
4/8/2021 9:00:00 AM 7.96 46.328 0.027 6.67 2.09 11.7
4/8/2021 9:15:00 AM 8.03 46.454 0.027 6.68 2.11 11.7
4/8/2021 9:30:00 AM 8.1 46.58 0.027 6.7 2.1 11.71
4/8/2021 9:45:00 AM 8.18 46.724 0.027 6.71 2.17 11.7
4/8/2021 10:00:00 AM 8.27 46.886 0.027 6.73 2.12 11.7
4/8/2021 10:15:00 AM 8.38 47.084 0.027 6.74 2.12 11.68
4/8/2021 10:30:00 AM 8.51 47.318 0.027 6.74 2.11 11.66
4/8/2021 10:45:00 AM 8.64 47.552 0.027 6.74 2.14 11.62
4/8/2021 11:00:00 AM 8.79 47.822 0.027 6.76 2.18 11.59
4/8/2021 11:15:00 AM 8.97 48.146 0.027 6.75 2.08 11.56
4/8/2021 11:30:00 AM 9.16 48.488 0.027 6.76 2.08 11.51
4/8/2021 11:45:00 AM 9.38 48.884 0.027 6.76 2.03 11.46
4/8/2021 12:00:00 PM 9.6 49.28 0.027 6.77 2.11 11.41
4/8/2021 12:15:00 PM 9.84 49.712 0.027 6.76 2.08 11.36
4/8/2021 12:30:00 PM 10.07 50.126 0.027 6.77 2.13 11.3
4/8/2021 12:45:00 PM 10.31 50.558 0.027 6.76 2.05 11.24
4/8/2021 1:00:00 PM 10.55 50.99 0.027 6.76 2.07 11.18
4/8/2021 1:15:00 PM 10.78 51.404 0.027 6.76 2.06 11.12
4/8/2021 1:30:00 PM 11 51.8 0.027 6.75 2.09 11.05
4/8/2021 1:45:00 PM 11.21 52.178 0.027 6.76 2.01 11
4/8/2021 2:00:00 PM 11.4 52.52 0.027 6.76 2.04 10.95
4/8/2021 2:15:00 PM 11.57 52.826 0.027 6.76 2.12 10.89
4/8/2021 2:30:00 PM 11.7 53.06 0.027 6.75 2.11 10.85
4/8/2021 2:45:00 PM 11.8 53.24 0.027 6.72 2.18 10.81
4/8/2021 3:00:00 PM 11.85 53.33 0.027 6.74 2.12 10.78
4/8/2021 3:15:00 PM 11.88 53.384 0.027 6.74 2.2 10.77
4/8/2021 3:30:00 PM 11.89 53.402 0.027 6.71 2.07 10.75
4/8/2021 3:45:00 PM 11.86 53.348 0.027 6.69 2.04 10.74
4/8/2021 4:00:00 PM 11.81 53.258 0.027 6.7 2.11 10.74
4/8/2021 4:15:00 PM 11.75 53.15 0.027 6.7 2.14 10.75
4/8/2021 4:30:00 PM 11.69 53.042 0.027 6.68 2.17 10.77
4/8/2021 4:45:00 PM 11.61 52.898 0.027 6.68 2.05 10.76
4/8/2021 5:00:00 PM 11.54 52.772 0.027 6.68 2.2 10.77
4/8/2021 5:15:00 PM 11.45 52.61 0.027 6.69 2.09 10.78
4/8/2021 5:30:00 PM 11.38 52.484 0.027 6.68 2.05 10.79
4/8/2021 5:45:00 PM 11.29 52.322 0.027 6.67 2.06 10.78
4/8/2021 6:00:00 PM 11.2 52.16 0.027 6.66 1.97 10.79
4/8/2021 6:15:00 PM 11.12 52.016 0.027 6.66 2.07 10.79
4/8/2021 6:30:00 PM 11.05 51.89 0.027 6.65 2.12 10.8
4/8/2021 6:45:00 PM 10.98 51.764 0.027 6.65 2.09 10.8
4/8/2021 7:00:00 PM 10.9 51.62 0.027 6.65 2.04 10.81
4/8/2021 7:15:00 PM 10.83 51.494 0.027 6.66 2.06 10.8
4/8/2021 7:30:00 PM 10.76 51.368 0.027 6.64 2.11 10.78
4/8/2021 7:45:00 PM 10.71 51.278 0.028 6.65 2.11 10.78
4/8/2021 8:00:00 PM 10.64 51.152 0.028 6.62 2.1 10.78
4/8/2021 8:15:00 PM 10.6 51.08 0.028 6.63 2.21 10.79
4/8/2021 8:30:00 PM 10.55 50.99 0.028 6.63 2.09 10.79
4/8/2021 8:45:00 PM 10.5 50.9 0.028 6.62 2.2 10.8
4/8/2021 9:00:00 PM 10.46 50.828 0.028 6.65 2.27 10.81
4/8/2021 9:15:00 PM 10.43 50.774 0.028 6.65 2.3 10.82
4/8/2021 9:30:00 PM 10.39 50.702 0.028 6.65 2.15 10.83
4/8/2021 9:45:00 PM 10.35 50.63 0.028 6.64 2.17 10.84
4/8/2021 10:00:00 PM 10.32 50.576 0.028 6.64 2.25 10.85
4/8/2021 10:15:00 PM 10.28 50.504 0.028 6.61 2.28 10.85
4/8/2021 10:30:00 PM 10.24 50.432 0.028 6.61 2.13 10.86
4/8/2021 10:45:00 PM 10.2 50.36 0.028 6.62 2.14 10.87
4/8/2021 11:00:00 PM 10.17 50.306 0.028 6.63 2.32 10.89
4/8/2021 11:15:00 PM 10.13 50.234 0.028 6.63 2.22 10.9
4/8/2021 11:30:00 PM 10.1 50.18 0.028 6.63 2.26 10.91
4/8/2021 11:45:00 PM 10.05 50.09 0.028 6.61 2.16 10.92
4/9/2021 12:00:00 AM 10.02 50.036 0.028 6.62 2.16 10.93
4/9/2021 12:15:00 AM 9.99 49.982 0.028 6.62 2.18 10.94
4/9/2021 12:30:00 AM 9.96 49.928 0.028 6.61 2.27 10.95
4/9/2021 12:45:00 AM 9.93 49.874 0.028 6.63 2.18 10.96
4/9/2021 1:00:00 AM 9.89 49.802 0.028 6.65 2.11 10.97
4/9/2021 1:15:00 AM 9.86 49.748 0.028 6.64 2.15 10.98
4/9/2021 1:30:00 AM 9.82 49.676 0.028 6.64 2.14 10.99
4/9/2021 1:45:00 AM 9.79 49.622 0.028 6.64 2.19 11
4/9/2021 2:00:00 AM 9.75 49.55 0.028 6.61 2.31 11
4/9/2021 2:15:00 AM 9.71 49.478 0.028 6.64 2.12 11.02
4/9/2021 2:30:00 AM 9.68 49.424 0.028 6.63 2.11 11.03
4/9/2021 2:45:00 AM 9.64 49.352 0.028 6.62 2.23 11.03
4/9/2021 3:00:00 AM 9.61 49.298 0.028 6.63 2.06 11.03
4/9/2021 3:15:00 AM 9.58 49.244 0.028 6.63 2.19 11.06
4/9/2021 3:30:00 AM 9.55 49.19 0.028 6.63 2.16 11.06
4/9/2021 3:45:00 AM 9.53 49.154 0.028 6.64 2.14 11.08
4/9/2021 4:00:00 AM 9.51 49.118 0.028 6.62 2.3 11.08
4/9/2021 4:15:00 AM 9.48 49.064 0.028 6.65 2.13 11.09
4/9/2021 4:30:00 AM 9.45 49.01 0.028 6.67 2.14 11.1
4/9/2021 4:45:00 AM 9.43 48.974 0.028 6.64 2.13 11.11
4/9/2021 5:00:00 AM 9.42 48.956 0.028 6.64 2.21 11.11
4/9/2021 5:15:00 AM 9.39 48.902 0.028 6.65 2.1 11.11
4/9/2021 5:30:00 AM 9.37 48.866 0.028 6.64 2.17 11.12
4/9/2021 5:45:00 AM 9.35 48.83 0.028 6.65 2.12 11.12
4/9/2021 6:00:00 AM 9.32 48.776 0.028 6.65 2.19 11.13
4/9/2021 6:15:00 AM 9.3 48.74 0.028 6.64 2.18 11.14
4/9/2021 6:30:00 AM 9.28 48.704 0.028 6.64 2.2 11.14
4/9/2021 6:45:00 AM 9.26 48.668 0.028 6.65 3.99 11.15
4/9/2021 7:00:00 AM 9.23 48.614 0.028 6.64 2.11 11.16
4/9/2021 7:15:00 AM 9.22 48.596 0.028 6.67 2.11 11.18
4/9/2021 7:30:00 AM 9.2 48.56 0.028 6.66 2.1 11.2
4/9/2021 7:45:00 AM 9.19 48.542 0.028 6.67 2.03 11.22
4/9/2021 8:00:00 AM 9.19 48.542 0.028 6.68 2.09 11.27
4/9/2021 8:15:00 AM 9.18 48.524 0.028 6.68 2.19 11.29
4/9/2021 8:30:00 AM 9.17 48.506 0.028 6.68 2.15 11.3
4/9/2021 8:45:00 AM 9.17 48.506 0.028 6.68 2.05 11.31
4/9/2021 9:00:00 AM 9.17 48.506 0.028 6.71 2.16 11.34
4/9/2021 9:15:00 AM 9.17 48.506 0.028 6.71 2.05 11.33
4/9/2021 9:30:00 AM 9.17 48.506 0.028 6.71 2.11 11.35
4/9/2021 9:45:00 AM 9.18 48.524 0.028 6.69 2.16 11.36
4/9/2021 10:00:00 AM 9.19 48.542 0.027 6.71 2.18 11.37
4/9/2021 10:15:00 AM 9.2 48.56 0.027 6.72 2.07 11.37
4/9/2021 10:30:00 AM 9.21 48.578 0.027 6.71 2.09 11.36
4/9/2021 10:45:00 AM 9.22 48.596 0.027 6.72 2.14 11.36
4/9/2021 11:00:00 AM 9.23 48.614 0.027 6.73 2 11.38
4/9/2021 11:15:00 AM 9.24 48.632 0.027 6.74 2.14 11.38
4/9/2021 11:30:00 AM 9.24 48.632 0.027 6.73 2.13 11.37
4/9/2021 11:45:00 AM 9.26 48.668 0.027 6.72 2.26 11.36
4/9/2021 12:00:00 PM 9.28 48.704 0.027 6.77 2.11 11.38
4/9/2021 12:15:00 PM 9.31 48.758 0.027 6.76 2.15 11.38
4/9/2021 12:30:00 PM 9.34 48.812 0.027 6.76 2.05 11.39
4/9/2021 12:45:00 PM 9.35 48.83 0.027 6.77 2.05 11.37
4/9/2021 1:00:00 PM 9.37 48.866 0.027 6.76 2.17 11.36
4/9/2021 1:15:00 PM 9.38 48.884 0.027 6.76 2.08 11.37
4/9/2021 1:30:00 PM 9.4 48.92 0.027 6.77 2.11 11.37
4/9/2021 1:45:00 PM 9.4 48.92 0.027 6.76 2.08 11.35
4/9/2021 2:00:00 PM 9.42 48.956 0.027 6.76 2.02 11.36
4/9/2021 2:15:00 PM 9.43 48.974 0.027 6.76 2.11 11.36
4/9/2021 2:30:00 PM 9.44 48.992 0.027 6.76 2.23 11.35
4/9/2021 2:45:00 PM 9.46 49.028 0.027 6.77 2.11 11.36
4/9/2021 3:00:00 PM 9.49 49.082 0.027 6.79 2.08 11.36
4/9/2021 3:15:00 PM 9.52 49.136 0.027 6.78 2.19 11.34
4/9/2021 3:30:00 PM 9.51 49.118 0.027 6.76 2.06 11.32
4/9/2021 3:45:00 PM 9.5 49.1 0.027 6.75 2.09 11.29
4/9/2021 4:00:00 PM 9.51 49.118 0.027 6.76 2.14 11.31
4/9/2021 4:15:00 PM 9.55 49.19 0.027 6.77 2.07 11.33
4/9/2021 4:30:00 PM 9.58 49.244 0.027 6.77 2.06 11.32
4/9/2021 4:45:00 PM 9.59 49.262 0.027 6.77 2.02 11.3
4/9/2021 5:00:00 PM 9.59 49.262 0.027 6.76 2.13 11.28
4/9/2021 5:15:00 PM 9.6 49.28 0.027 6.76 2.09 11.28
4/9/2021 5:30:00 PM 9.6 49.28 0.027 6.75 2.07 11.25
4/9/2021 5:45:00 PM 9.58 49.244 0.027 6.74 2.07 11.22
4/9/2021 6:00:00 PM 9.56 49.208 0.028 6.73 2.14 11.2
4/9/2021 6:15:00 PM 9.54 49.172 0.028 6.72 2.13 11.17
4/9/2021 6:30:00 PM 9.52 49.136 0.028 6.71 2.26 11.15
4/9/2021 6:45:00 PM 9.5 49.1 0.028 6.69 2.04 11.15
4/9/2021 7:00:00 PM 9.49 49.082 0.028 6.69 2.12 11.16
4/9/2021 7:15:00 PM 9.47 49.046 0.028 6.69 2.11 11.15
4/9/2021 7:30:00 PM 9.45 49.01 0.028 6.69 2.04 11.14
4/9/2021 7:45:00 PM 9.43 48.974 0.028 6.69 2.05 11.13
4/9/2021 8:00:00 PM 9.41 48.938 0.028 6.69 2.09 11.13
4/9/2021 8:15:00 PM 9.4 48.92 0.028 6.68 2.08 11.12
4/9/2021 8:30:00 PM 9.38 48.884 0.028 6.68 2.19 11.13
4/9/2021 8:45:00 PM 9.37 48.866 0.028 6.68 2.16 11.12
4/9/2021 9:00:00 PM 9.36 48.848 0.028 6.68 2.08 11.13
4/9/2021 9:15:00 PM 9.34 48.812 0.028 6.68 2.17 11.12
4/9/2021 9:30:00 PM 9.33 48.794 0.028 6.69 2.3 11.14
4/9/2021 9:45:00 PM 9.31 48.758 0.028 6.65 2.14 11.13
4/9/2021 10:00:00 PM 9.3 48.74 0.028 6.65 2.12 11.14
4/9/2021 10:15:00 PM 9.3 48.74 0.028 6.65 2.11 11.13
4/9/2021 10:30:00 PM 9.29 48.722 0.028 6.67 2.12 11.14
4/9/2021 10:45:00 PM 9.28 48.704 0.028 6.67 2.13 11.14
4/9/2021 11:00:00 PM 9.27 48.686 0.028 6.67 2.15 11.15
4/9/2021 11:15:00 PM 9.26 48.668 0.028 6.66 2.11 11.15
4/9/2021 11:30:00 PM 9.24 48.632 0.028 6.67 2.23 11.13
4/9/2021 11:45:00 PM 9.23 48.614 0.028 6.68 2.37 11.15
4/10/2021 12:00:00 AM 9.23 48.614 0.028 6.64 2.17 11.15
4/10/2021 12:15:00 AM 9.23 48.614 0.028 6.63 2.13 11.15
4/10/2021 12:30:00 AM 9.22 48.596 0.028 6.65 2.12 11.16
4/10/2021 12:45:00 AM 9.21 48.578 0.028 6.65 2.21 11.16
4/10/2021 1:00:00 AM 9.21 48.578 0.028 6.67 2.06 11.16
4/10/2021 1:15:00 AM 9.2 48.56 0.028 6.66 2.12 11.17
4/10/2021 1:30:00 AM 9.19 48.542 0.028 6.66 2.23 11.16
4/10/2021 1:45:00 AM 9.19 48.542 0.028 6.66 2.27 11.16
4/10/2021 2:00:00 AM 9.17 48.506 0.028 6.66 2.17 11.17
4/10/2021 2:15:00 AM 9.16 48.488 0.028 6.65 2.25 11.17
4/10/2021 2:30:00 AM 9.16 48.488 0.028 6.66 2.06 11.17
4/10/2021 2:45:00 AM 9.14 48.452 0.028 6.66 2.14 11.17
4/10/2021 3:00:00 AM 9.13 48.434 0.028 6.65 2.17 11.18
4/10/2021 3:15:00 AM 9.12 48.416 0.028 6.66 2.1 11.18
4/10/2021 3:30:00 AM 9.1 48.38 0.028 6.64 2.09 11.18
4/10/2021 3:45:00 AM 9.09 48.362 0.028 6.64 2.19 11.18
4/10/2021 4:00:00 AM 9.08 48.344 0.028 6.64 2.06 11.18
4/10/2021 4:15:00 AM 9.07 48.326 0.028 6.65 2.17 11.18
4/10/2021 4:30:00 AM 9.06 48.308 0.028 6.64 2.1 11.18
4/10/2021 4:45:00 AM 9.06 48.308 0.028 6.65 2.12 11.18
4/10/2021 5:00:00 AM 9.06 48.308 0.028 6.66 2.07 11.18
4/10/2021 5:15:00 AM 9.04 48.272 0.028 6.65 2.1 11.18
4/10/2021 5:30:00 AM 9.04 48.272 0.028 6.63 2.16 11.18
4/10/2021 5:45:00 AM 9.03 48.254 0.028 6.63 2.28 11.17
4/10/2021 6:00:00 AM 9.03 48.254 0.028 6.66 2.24 11.19
4/10/2021 6:15:00 AM 9.02 48.236 0.028 6.64 2.2 11.2
4/10/2021 6:30:00 AM 9.01 48.218 0.028 6.65 2.14 11.2
4/10/2021 6:45:00 AM 9 48.2 0.028 6.66 2.21 11.18
4/10/2021 7:00:00 AM 9 48.2 0.028 6.67 2.27 11.21
4/10/2021 7:15:00 AM 9 48.2 0.028 6.67 2.06 11.23
4/10/2021 7:30:00 AM 9 48.2 0.028 6.68 2.11 11.23
4/10/2021 7:45:00 AM 9 48.2 0.028 6.68 2.1 11.26
4/10/2021 8:00:00 AM 8.99 48.182 0.028 6.67 2.13 11.27
4/10/2021 8:15:00 AM 9 48.2 0.028 6.69 2.1 11.29
4/10/2021 8:30:00 AM 9 48.2 0.028 6.69 2.12 11.32
4/10/2021 8:45:00 AM 9.02 48.236 0.028 6.7 2.01 11.34
4/10/2021 9:00:00 AM 9.03 48.254 0.028 6.69 2.73 11.35
4/10/2021 9:15:00 AM 9.04 48.272 0.028 6.7 2.15 11.36
4/10/2021 9:30:00 AM 9.07 48.326 0.028 6.72 2.07 11.37
4/10/2021 9:45:00 AM 9.09 48.362 0.028 6.74 2.02 11.38
4/10/2021 10:00:00 AM 9.11 48.398 0.028 6.74 2.19 11.39
4/10/2021 10:15:00 AM 9.15 48.47 0.028 6.74 2.03 11.39
4/10/2021 10:30:00 AM 9.18 48.524 0.028 6.76 2.04 11.38
4/10/2021 10:45:00 AM 9.22 48.596 0.028 6.75 2.12 11.39
4/10/2021 11:00:00 AM 9.26 48.668 0.028 6.75 2.1 11.38
4/10/2021 11:15:00 AM 9.29 48.722 0.027 6.75 2.03 11.36
4/10/2021 11:30:00 AM 9.32 48.776 0.027 6.77 2.06 11.36
4/10/2021 11:45:00 AM 9.36 48.848 0.027 6.76 2.07 11.35
4/10/2021 12:00:00 PM 9.38 48.884 0.027 6.76 2.05 11.35
4/10/2021 12:15:00 PM 9.43 48.974 0.027 6.76 2.07 11.34
4/10/2021 12:30:00 PM 9.47 49.046 0.027 6.77 2.04 11.34
4/10/2021 12:45:00 PM 9.53 49.154 0.027 6.77 2.07 11.33
4/10/2021 1:00:00 PM 9.57 49.226 0.027 6.75 2.08 11.31
4/10/2021 1:15:00 PM 9.61 49.298 0.027 6.77 2.12 11.3
4/10/2021 1:30:00 PM 9.66 49.388 0.027 6.76 2.05 11.3
4/10/2021 1:45:00 PM 9.71 49.478 0.027 6.76 2.16 11.28
4/10/2021 2:00:00 PM 9.75 49.55 0.027 6.76 2.07 11.26
4/10/2021 2:15:00 PM 9.79 49.622 0.027 6.77 2.05 11.25
4/10/2021 2:30:00 PM 9.83 49.694 0.027 6.77 2.03 11.23
4/10/2021 2:45:00 PM 9.86 49.748 0.027 6.76 2.67 11.21
4/10/2021 3:00:00 PM 9.89 49.802 0.027 6.76 2.37 11.2
4/10/2021 3:15:00 PM 9.91 49.838 0.027 6.77 2.06 11.19
4/10/2021 3:30:00 PM 9.93 49.874 0.027 6.72 2.29 11.17
4/10/2021 3:45:00 PM 9.93 49.874 0.027 6.78 2.01 11.15
4/10/2021 4:00:00 PM 9.95 49.91 0.028 6.76 2.08 11.14
4/10/2021 4:15:00 PM 9.94 49.892 0.028 6.75 1.99 11.13
4/10/2021 4:30:00 PM 9.95 49.91 0.028 6.75 2.05 11.13
4/10/2021 4:45:00 PM 9.96 49.928 0.028 6.75 2.07 11.12
4/10/2021 5:00:00 PM 9.98 49.964 0.028 6.75 2.06 11.12
4/10/2021 5:15:00 PM 9.99 49.982 0.028 6.75 2.12 11.11
4/10/2021 5:30:00 PM 9.99 49.982 0.028 6.75 2.09 11.1
4/10/2021 5:45:00 PM 9.99 49.982 0.028 6.75 1.98 11.09
4/10/2021 6:00:00 PM 9.99 49.982 0.028 6.75 2.07 11.08
4/10/2021 6:15:00 PM 9.98 49.964 0.028 6.74 2.09 11.08
4/10/2021 6:30:00 PM 9.96 49.928 0.028 6.73 2.12 11.07
4/10/2021 6:45:00 PM 9.94 49.892 0.028 6.72 2.01 11.06
4/10/2021 7:00:00 PM 9.9 49.82 0.028 6.71 2.03 11.04
4/10/2021 7:15:00 PM 9.86 49.748 0.028 6.71 2.08 11.02
4/10/2021 7:30:00 PM 9.83 49.694 0.028 6.71 2.06 10.99
4/10/2021 7:45:00 PM 9.78 49.604 0.028 6.69 2.14 10.97
4/10/2021 8:00:00 PM 9.74 49.532 0.028 6.67 2.27 10.95
4/10/2021 8:15:00 PM 9.7 49.46 0.028 6.66 2.09 10.95
4/10/2021 8:30:00 PM 9.66 49.388 0.028 6.66 2.17 10.95
4/10/2021 8:45:00 PM 9.62 49.316 0.028 6.66 2.15 10.95
4/10/2021 9:00:00 PM 9.59 49.262 0.028 6.66 2.07 10.96
4/10/2021 9:15:00 PM 9.56 49.208 0.028 6.65 2.08 10.96
4/10/2021 9:30:00 PM 9.52 49.136 0.028 6.66 2.09 10.97
4/10/2021 9:45:00 PM 9.49 49.082 0.028 6.66 2.09 10.98
4/10/2021 10:00:00 PM 9.44 48.992 0.028 6.64 2.09 10.98
4/10/2021 10:15:00 PM 9.41 48.938 0.028 6.63 2.24 10.99
4/10/2021 10:30:00 PM 9.38 48.884 0.028 6.63 2.3 11
4/10/2021 10:45:00 PM 9.35 48.83 0.028 6.63 2.2 11.01
4/10/2021 11:00:00 PM 9.32 48.776 0.028 6.64 2.1 11.01
4/10/2021 11:15:00 PM 9.3 48.74 0.028 6.64 2.33 11.02
4/10/2021 11:30:00 PM 9.28 48.704 0.028 6.64 2.22 11.02
4/10/2021 11:45:00 PM 9.26 48.668 0.028 6.65 2.18 11.03
4/11/2021 12:00:00 AM 9.24 48.632 0.028 6.65 2.24 11.03
4/11/2021 12:15:00 AM 9.22 48.596 0.028 6.64 2.15 11.04
4/11/2021 12:30:00 AM 9.19 48.542 0.028 6.64 2.06 11.03
4/11/2021 12:45:00 AM 9.18 48.524 0.028 6.63 2.17 11.04
4/11/2021 1:00:00 AM 9.16 48.488 0.028 6.64 2.16 11.05
4/11/2021 1:15:00 AM 9.15 48.47 0.028 6.64 2.15 11.05
4/11/2021 1:30:00 AM 9.15 48.47 0.028 6.64 2.12 11.04
4/11/2021 1:45:00 AM 9.14 48.452 0.028 6.64 2.2 11.05
4/11/2021 2:00:00 AM 9.14 48.452 0.028 6.65 2.11 11.03
4/11/2021 2:15:00 AM 9.14 48.452 0.028 6.65 2.13 11.04
4/11/2021 2:30:00 AM 9.14 48.452 0.028 6.64 2.15 11.04
4/11/2021 2:45:00 AM 9.14 48.452 0.028 6.64 2.12 11.05
4/11/2021 3:00:00 AM 9.14 48.452 0.028 6.63 2.25 11.03
4/11/2021 3:15:00 AM 9.14 48.452 0.028 6.65 2.06 11.03
4/11/2021 3:30:00 AM 9.13 48.434 0.028 6.65 2.2 11.03
4/11/2021 3:45:00 AM 9.13 48.434 0.028 6.64 2.11 11.01
4/11/2021 4:00:00 AM 9.12 48.416 0.028 6.63 2.25 11.01
4/11/2021 4:15:00 AM 9.12 48.416 0.028 6.64 2.53 11.02
4/11/2021 4:30:00 AM 9.12 48.416 0.028 6.63 2.23 11.01
4/11/2021 4:45:00 AM 9.13 48.434 0.028 6.65 2.13 11.02
4/11/2021 5:00:00 AM 9.12 48.416 0.028 6.64 2.1 11.01
4/11/2021 5:15:00 AM 9.13 48.434 0.028 6.64 2.21 11
4/11/2021 5:30:00 AM 9.13 48.434 0.028 6.63 2.17 11
4/11/2021 5:45:00 AM 9.13 48.434 0.028 6.63 2.42 11
4/11/2021 6:00:00 AM 9.13 48.434 0.028 6.62 2.24 11
4/11/2021 6:15:00 AM 9.13 48.434 0.028 6.63 2.32 10.98
4/11/2021 6:30:00 AM 9.14 48.452 0.028 6.63 2.42 10.98
4/11/2021 6:45:00 AM 9.16 48.488 0.028 6.62 2.34 10.98
4/11/2021 7:00:00 AM 9.18 48.524 0.028 6.62 2.47 10.99
4/11/2021 7:15:00 AM 9.2 48.56 0.028 6.64 2.33 10.99
4/11/2021 7:30:00 AM 9.21 48.578 0.028 6.65 2.42 10.99
4/11/2021 7:45:00 AM 9.23 48.614 0.028 6.66 2.6 11
4/11/2021 8:00:00 AM 9.26 48.668 0.028 6.67 2.71 11
4/11/2021 8:15:00 AM 9.29 48.722 0.028 6.66 2.45 11
4/11/2021 8:30:00 AM 9.31 48.758 0.028 6.69 2.54 11.01
4/11/2021 8:45:00 AM 9.34 48.812 0.028 6.68 2.54 11.01
4/11/2021 9:00:00 AM 9.35 48.83 0.028 6.68 2.62 11.02
4/11/2021 9:15:00 AM 9.36 48.848 0.028 6.69 2.75 11.02
4/11/2021 9:30:00 AM 9.38 48.884 0.028 6.68 2.69 11.02
4/11/2021 9:45:00 AM 9.39 48.902 0.028 6.69 2.92 11.04
4/11/2021 10:00:00 AM 9.42 48.956 0.028 6.71 2.82 11.07
4/11/2021 10:15:00 AM 9.45 49.01 0.028 6.73 2.83 11.09
4/11/2021 10:30:00 AM 9.48 49.064 0.028 6.73 2.97 11.09
4/11/2021 10:45:00 AM 9.51 49.118 0.028 6.75 3 11.1
4/11/2021 11:00:00 AM 9.55 49.19 0.028 6.75 3.29 11.12
4/11/2021 11:15:00 AM 9.57 49.226 0.028 6.74 3.26 11.11
4/11/2021 11:30:00 AM 9.61 49.298 0.028 6.78 3.12 11.11
4/11/2021 11:45:00 AM 9.65 49.37 0.028 6.79 3.1 11.11
4/11/2021 12:00:00 PM 9.69 49.442 0.028 6.8 3.06 11.1
4/11/2021 12:15:00 PM 9.72 49.496 0.028 6.8 2.89 11.08
4/11/2021 12:30:00 PM 9.72 49.496 0.028 6.79 2.76 11.06
4/11/2021 12:45:00 PM 9.74 49.532 0.028 6.78 2.76 11.06
4/11/2021 1:00:00 PM 9.77 49.586 0.028 6.78 2.91 11.07
4/11/2021 1:15:00 PM 9.8 49.64 0.028 6.79 2.82 11.07
4/11/2021 1:30:00 PM 9.83 49.694 0.028 6.8 2.74 11.07
4/11/2021 1:45:00 PM 9.85 49.73 0.028 6.76 2.73 11.05
4/11/2021 2:00:00 PM 9.86 49.748 0.028 6.77 2.77 11.04
4/11/2021 2:15:00 PM 9.85 49.73 0.028 6.76 2.83 11.02
4/11/2021 2:30:00 PM 9.87 49.766 0.028 6.76 3.06 11.02
4/11/2021 2:45:00 PM 9.88 49.784 0.028 6.76 2.91 11.02
4/11/2021 3:00:00 PM 9.9 49.82 0.028 6.77 2.76 11.04
4/11/2021 3:15:00 PM 9.92 49.856 0.028 6.77 2.68 11.02
4/11/2021 3:30:00 PM 9.95 49.91 0.027 6.77 2.57 11.01
4/11/2021 3:45:00 PM 9.98 49.964 0.027 6.76 2.68 11
4/11/2021 4:00:00 PM 9.99 49.982 0.027 6.74 3.03 10.98
4/11/2021 4:15:00 PM 9.98 49.964 0.027 6.73 3.03 10.97
4/11/2021 4:30:00 PM 10 50 0.027 6.74 2.83 10.98
4/11/2021 4:45:00 PM 10.02 50.036 0.027 6.75 2.72 10.98
4/11/2021 5:00:00 PM 10.03 50.054 0.027 6.74 2.85 10.97
4/11/2021 5:15:00 PM 10.02 50.036 0.027 6.77 2.76 10.96
4/11/2021 5:30:00 PM 10.03 50.054 0.027 6.75 2.75 10.96
4/11/2021 5:45:00 PM 10.02 50.036 0.027 6.72 2.86 10.94
4/11/2021 6:00:00 PM 10.01 50.018 0.027 6.73 2.85 10.92
4/11/2021 6:15:00 PM 10 50 0.028 6.69 2.99 10.9
4/11/2021 6:30:00 PM 9.99 49.982 0.028 6.68 2.93 10.88
4/11/2021 6:45:00 PM 10 50 0.027 6.69 2.88 10.87
4/11/2021 7:00:00 PM 9.99 49.982 0.027 6.69 2.97 10.85
4/11/2021 7:15:00 PM 9.97 49.946 0.027 6.66 2.96 10.86
4/11/2021 7:30:00 PM 9.95 49.91 0.028 6.67 3.18 10.84
4/11/2021 7:45:00 PM 9.92 49.856 0.028 6.63 3.05 10.84
4/11/2021 8:00:00 PM 9.88 49.784 0.028 6.64 2.91 10.84
4/11/2021 8:15:00 PM 9.86 49.748 0.028 6.64 2.82 10.84
4/11/2021 8:30:00 PM 9.83 49.694 0.028 6.63 3.14 10.84
4/11/2021 8:45:00 PM 9.79 49.622 0.028 6.63 3.03 10.85
4/11/2021 9:00:00 PM 9.77 49.586 0.028 6.64 3.1 10.86
4/11/2021 9:15:00 PM 9.75 49.55 0.028 6.63 2.97 10.86
4/11/2021 9:30:00 PM 9.73 49.514 0.028 6.61 2.99 10.87
4/11/2021 9:45:00 PM 9.7 49.46 0.028 6.62 2.81 10.88
4/11/2021 10:00:00 PM 9.69 49.442 0.028 6.62 3.01 10.89
4/11/2021 10:15:00 PM 9.67 49.406 0.028 6.61 2.75 10.89
4/11/2021 10:30:00 PM 9.66 49.388 0.028 6.59 2.96 10.89
4/11/2021 10:45:00 PM 9.64 49.352 0.028 6.58 2.92 10.9
4/11/2021 11:00:00 PM 9.62 49.316 0.028 6.58 3.1 10.91
4/11/2021 11:15:00 PM 9.62 49.316 0.028 6.59 3.09 10.91
4/11/2021 11:30:00 PM 9.62 49.316 0.028 6.59 2.94 10.92
4/11/2021 11:45:00 PM 9.61 49.298 0.028 6.6 3.21 10.92
4/12/2021 12:00:00 AM 9.59 49.262 0.028 6.62 3.05 10.92
4/12/2021 12:15:00 AM 9.58 49.244 0.028 6.61 3.13 10.92
4/12/2021 12:30:00 AM 9.58 49.244 0.027 6.61 3.1 10.93
4/12/2021 12:45:00 AM 9.58 49.244 0.027 6.61 3.35 10.93
4/12/2021 1:00:00 AM 9.57 49.226 0.027 6.61 3.86 10.93
4/12/2021 1:15:00 AM 9.55 49.19 0.028 6.64 3.86 10.93
4/12/2021 1:30:00 AM 9.54 49.172 0.028 6.65 4.47 10.92
4/12/2021 1:45:00 AM 9.53 49.154 0.028 6.67 4.47 10.92
4/12/2021 2:00:00 AM 9.51 49.118 0.028 6.67 5.49 10.93
4/12/2021 2:15:00 AM 9.49 49.082 0.028 6.67 6.39 10.93
4/12/2021 2:30:00 AM 9.47 49.046 0.028 6.68 5.9 10.93
4/12/2021 2:45:00 AM 9.45 49.01 0.028 6.67 5.85 10.95
4/12/2021 3:00:00 AM 9.43 48.974 0.029 6.68 5.97 10.95
4/12/2021 3:15:00 AM 9.41 48.938 0.028 6.67 5.81 10.98
4/12/2021 3:30:00 AM 9.38 48.884 0.028 6.68 6.29 10.98
4/12/2021 3:45:00 AM 9.36 48.848 0.028 6.67 5.73 10.99
4/12/2021 4:00:00 AM 9.34 48.812 0.028 6.67 5.52 11
4/12/2021 4:15:00 AM 9.32 48.776 0.028 6.67 5.58 11.01
4/12/2021 4:30:00 AM 9.3 48.74 0.028 6.67 4.67 11.02
4/12/2021 4:45:00 AM 9.29 48.722 0.028 6.7 5.61 11.02
4/12/2021 5:00:00 AM 9.27 48.686 0.028 6.69 4.59 11.02
4/12/2021 5:15:00 AM 9.26 48.668 0.028 6.68 4.24 11.03
4/12/2021 5:30:00 AM 9.24 48.632 0.028 6.67 4.27 11.04
4/12/2021 5:45:00 AM 9.22 48.596 0.028 6.65 4.23 11.05
4/12/2021 6:00:00 AM 9.2 48.56 0.028 6.65 3.81 11.06
4/12/2021 6:15:00 AM 9.18 48.524 0.028 6.66 3.81 11.06
4/12/2021 6:30:00 AM 9.16 48.488 0.028 6.65 3.78 11.07
4/12/2021 6:45:00 AM 9.15 48.47 0.028 6.64 3.58 11.08
4/12/2021 7:00:00 AM 9.13 48.434 0.028 6.66 3.54 11.08
4/12/2021 7:15:00 AM 9.1 48.38 0.028 6.67 3.61 11.1
4/12/2021 7:30:00 AM 9.08 48.344 0.028 6.66 3.44 11.1
4/12/2021 7:45:00 AM 9.07 48.326 0.028 6.66 3.45 11.13
4/12/2021 8:00:00 AM 9.05 48.29 0.028 6.66 3.37 11.15
4/12/2021 8:15:00 AM 9.04 48.272 0.028 6.67 3.23 11.15
4/12/2021 8:30:00 AM 9.02 48.236 0.027 6.66 3.07 11.16
4/12/2021 8:45:00 AM 9.01 48.218 0.027 6.65 3.23 11.17
4/12/2021 9:00:00 AM 8.99 48.182 0.027 6.67 3.1 11.17
4/12/2021 9:15:00 AM 8.97 48.146 0.027 6.67 2.96 11.19
4/12/2021 9:30:00 AM 8.96 48.128 0.027 6.65 3.06 11.21
4/12/2021 9:45:00 AM 8.95 48.11 0.027 6.66 2.98 11.22
4/12/2021 10:00:00 AM 8.94 48.092 0.027 6.65 3.22 11.23
4/12/2021 10:15:00 AM 8.93 48.074 0.027 6.65 3.02 11.24
4/12/2021 10:30:00 AM 8.92 48.056 0.027 6.65 2.96 11.25
4/12/2021 10:45:00 AM 8.92 48.056 0.027 6.68 2.92 11.27
4/12/2021 11:00:00 AM 8.93 48.074 0.027 6.68 3.06 11.29
4/12/2021 11:15:00 AM 8.93 48.074 0.027 6.69 3.06 11.29
4/12/2021 11:30:00 AM 8.92 48.056 0.027 6.7 2.83 11.31
4/12/2021 11:45:00 AM 8.92 48.056 0.027 6.69 2.86 11.31
4/12/2021 12:00:00 PM 8.92 48.056 0.027 6.69 2.87 11.31
4/12/2021 12:15:00 PM 8.92 48.056 0.027 6.69 2.91 11.32
4/12/2021 12:30:00 PM 8.93 48.074 0.027 6.7 2.98 11.33
4/12/2021 12:45:00 PM 8.94 48.092 0.027 6.69 2.86 11.33
4/12/2021 1:00:00 PM 8.95 48.11 0.027 6.71 2.88 11.33
4/12/2021 1:15:00 PM 8.94 48.092 0.027 6.7 3.06 11.33
4/12/2021 1:30:00 PM 8.94 48.092 0.027 6.7 2.8 11.32
4/12/2021 1:45:00 PM 8.94 48.092 0.027 6.7 2.86 11.33
4/12/2021 2:00:00 PM 8.94 48.092 0.027 6.7 2.81 11.34
4/12/2021 2:15:00 PM 8.97 48.146 0.027 6.71 2.87 11.35
4/12/2021 2:30:00 PM 8.99 48.182 0.027 6.73 2.81 11.35
4/12/2021 2:45:00 PM 9 48.2 0.027 6.72 2.8 11.34
4/12/2021 3:00:00 PM 9 48.2 0.027 6.72 2.79 11.34
4/12/2021 3:15:00 PM 9 48.2 0.027 6.71 2.75 11.34
4/12/2021 3:30:00 PM 8.97 48.146 0.027 6.71 2.69 11.32
4/12/2021 3:45:00 PM 8.95 48.11 0.027 6.69 2.73 11.32
4/12/2021 4:00:00 PM 8.94 48.092 0.027 6.68 2.86 11.32
4/12/2021 4:15:00 PM 8.93 48.074 0.027 6.7 2.71 11.35
4/12/2021 4:30:00 PM 8.92 48.056 0.027 6.69 2.98 11.34
4/12/2021 4:45:00 PM 8.9 48.02 0.027 6.67 2.83 11.32
4/12/2021 5:00:00 PM 8.87 47.966 0.027 6.67 2.81 11.3
4/12/2021 5:15:00 PM 8.86 47.948 0.027 6.67 2.85 11.3
4/12/2021 5:30:00 PM 8.85 47.93 0.027 6.66 2.69 11.32
4/12/2021 5:45:00 PM 8.84 47.912 0.027 6.67 2.7 11.33
4/12/2021 6:00:00 PM 8.84 47.912 0.027 6.67 2.78 11.33
4/12/2021 6:15:00 PM 8.82 47.876 0.027 6.66 2.68 11.32
4/12/2021 6:30:00 PM 8.81 47.858 0.027 6.66 2.72 11.31
4/12/2021 6:45:00 PM 8.8 47.84 0.027 6.65 2.61 11.28
4/12/2021 7:00:00 PM 8.79 47.822 0.027 6.64 2.63 11.28
4/12/2021 7:15:00 PM 8.77 47.786 0.027 6.66 2.77 11.28
4/12/2021 7:30:00 PM 8.76 47.768 0.027 6.64 2.76 11.26
4/12/2021 7:45:00 PM 8.74 47.732 0.027 6.64 3.12 11.26
4/12/2021 8:00:00 PM 8.72 47.696 0.027 6.65 2.59 11.26
4/12/2021 8:15:00 PM 8.71 47.678 0.027 6.64 2.63 11.27
4/12/2021 8:30:00 PM 8.69 47.642 0.027 6.62 2.62 11.28
4/12/2021 8:45:00 PM 8.67 47.606 0.027 6.62 2.66 11.28
4/12/2021 9:00:00 PM 8.65 47.57 0.027 6.62 2.65 11.29
4/12/2021 9:15:00 PM 8.64 47.552 0.027 6.62 2.81 11.29
4/12/2021 9:30:00 PM 8.62 47.516 0.027 6.61 2.62 11.3
4/12/2021 9:45:00 PM 8.6 47.48 0.027 6.63 2.68 11.31
4/12/2021 10:00:00 PM 8.58 47.444 0.026 6.6 2.72 11.32
4/12/2021 10:15:00 PM 8.57 47.426 0.027 6.6 2.88 11.32
4/12/2021 10:30:00 PM 8.55 47.39 0.027 6.63 2.99 11.33
4/12/2021 10:45:00 PM 8.53 47.354 0.027 6.62 2.7 11.34
4/12/2021 11:00:00 PM 8.51 47.318 0.027 6.61 2.72 11.34
4/12/2021 11:15:00 PM 8.49 47.282 0.027 6.62 2.88 11.35
4/12/2021 11:30:00 PM 8.47 47.246 0.027 6.6 2.95 11.36
4/12/2021 11:45:00 PM 8.45 47.21 0.027 6.6 2.76 11.37
4/13/2021 12:00:00 AM 8.43 47.174 0.027 6.6 2.83 11.38
4/13/2021 12:15:00 AM 8.41 47.138 0.027 6.62 2.73 11.38
4/13/2021 12:30:00 AM 8.39 47.102 0.027 6.61 2.67 11.39
4/13/2021 12:45:00 AM 8.38 47.084 0.027 6.61 2.73 11.39
4/13/2021 1:00:00 AM 8.36 47.048 0.027 6.61 2.75 11.4
4/13/2021 1:15:00 AM 8.35 47.03 0.027 6.6 2.6 11.41
4/13/2021 1:30:00 AM 8.33 46.994 0.027 6.6 2.68 11.41
4/13/2021 1:45:00 AM 8.32 46.976 0.027 6.62 2.67 11.41
4/13/2021 2:00:00 AM 8.3 46.94 0.027 6.61 2.71 11.42
4/13/2021 2:15:00 AM 8.29 46.922 0.027 6.63 2.61 11.42
4/13/2021 2:30:00 AM 8.27 46.886 0.027 6.62 2.71 11.43
4/13/2021 2:45:00 AM 8.26 46.868 0.027 6.63 2.67 11.43
4/13/2021 3:00:00 AM 8.24 46.832 0.027 6.62 2.65 11.44
4/13/2021 3:15:00 AM 8.23 46.814 0.027 6.63 2.63 11.44
4/13/2021 3:30:00 AM 8.22 46.796 0.027 6.63 2.64 11.45
4/13/2021 3:45:00 AM 8.2 46.76 0.028 6.62 2.6 11.46
4/13/2021 4:00:00 AM 8.19 46.742 0.027 6.61 2.62 11.46
4/13/2021 4:15:00 AM 8.18 46.724 0.027 6.61 2.59 11.47
4/13/2021 4:30:00 AM 8.17 46.706 0.027 6.61 2.59 11.47
4/13/2021 4:45:00 AM 8.15 46.67 0.027 6.62 2.58 11.47
4/13/2021 5:00:00 AM 8.14 46.652 0.027 6.62 2.65 11.48
4/13/2021 5:15:00 AM 8.13 46.634 0.027 6.61 2.61 11.48
4/13/2021 5:30:00 AM 8.12 46.616 0.027 6.61 2.66 11.48
4/13/2021 5:45:00 AM 8.1 46.58 0.027 6.62 2.59 11.49
4/13/2021 6:00:00 AM 8.09 46.562 0.027 6.61 2.56 11.49
4/13/2021 6:15:00 AM 8.07 46.526 0.027 6.62 2.6 11.5
4/13/2021 6:30:00 AM 8.06 46.508 0.027 6.61 2.57 11.51
4/13/2021 6:45:00 AM 8.05 46.49 0.027 6.63 2.57 11.52
4/13/2021 7:00:00 AM 8.04 46.472 0.027 6.63 2.59 11.53
4/13/2021 7:15:00 AM 8.04 46.472 0.027 6.62 2.54 11.54
4/13/2021 7:30:00 AM 8.03 46.454 0.027 6.62 2.59 11.55
4/13/2021 7:45:00 AM 8.02 46.436 0.027 6.62 2.75 11.57
4/13/2021 8:00:00 AM 8.02 46.436 0.027 6.62 2.64 11.59
4/13/2021 8:15:00 AM 8.03 46.454 0.027 6.64 2.66 11.62
4/13/2021 8:30:00 AM 8.04 46.472 0.027 6.66 2.58 11.66
4/13/2021 8:45:00 AM 8.07 46.526 0.027 6.66 2.51 11.68
4/13/2021 9:00:00 AM 8.1 46.58 0.027 6.68 2.47 11.7
4/13/2021 9:15:00 AM 8.13 46.634 0.027 6.69 2.57 11.7
4/13/2021 9:30:00 AM 8.16 46.688 0.027 6.69 2.58 11.69
4/13/2021 9:45:00 AM 8.19 46.742 0.027 6.7 2.59 11.69
4/13/2021 10:00:00 AM 8.22 46.796 0.027 6.71 2.24 11.69
4/13/2021 10:15:00 AM 8.24 46.832 0.027 6.7 2.46 11.68
4/13/2021 10:30:00 AM 8.27 46.886 0.027 6.71 2.6 11.68
4/13/2021 10:45:00 AM 8.32 46.976 0.027 6.72 2.46 11.68
4/13/2021 11:00:00 AM 8.38 47.084 0.027 6.73 2.56 11.68
4/13/2021 11:15:00 AM 8.45 47.21 0.027 6.72 2.64 11.68
4/13/2021 11:30:00 AM 8.54 47.372 0.027 6.73 2.68 11.67
4/13/2021 11:45:00 AM 8.62 47.516 0.027 6.72 2.72 11.65
4/13/2021 12:00:00 PM 8.69 47.642 0.027 6.71 2.68 11.63
4/13/2021 12:15:00 PM 8.79 47.822 0.027 6.73 2.52 11.6
4/13/2021 12:30:00 PM 8.95 48.11 0.027 6.75 2.57 11.57
4/13/2021 12:45:00 PM 9 48.2 0.027 6.74 2.55 11.53
4/13/2021 1:00:00 PM 9.06 48.308 0.027 6.72 2.56 11.51
4/13/2021 1:15:00 PM 9.12 48.416 0.027 6.71 2.83 11.51
4/13/2021 1:30:00 PM 9.22 48.596 0.027 6.72 2.62 11.47
4/13/2021 1:45:00 PM 9.42 48.956 0.027 6.75 2.75 11.44
4/13/2021 2:00:00 PM 9.67 49.406 0.027 6.74 2.71 11.39
4/13/2021 2:15:00 PM 9.9 49.82 0.027 6.72 2.66 11.33
4/13/2021 2:30:00 PM 9.96 49.928 0.027 6.7 2.64 11.27
4/13/2021 2:45:00 PM 9.9 49.82 0.027 6.69 2.64 11.25
4/13/2021 3:00:00 PM 9.88 49.784 0.027 6.69 2.65 11.27
4/13/2021 3:15:00 PM 9.87 49.766 0.027 6.67 2.6 11.26
4/13/2021 3:30:00 PM 9.82 49.676 0.027 6.66 2.59 11.23
4/13/2021 3:45:00 PM 9.78 49.604 0.027 6.65 2.53 11.2
4/13/2021 4:00:00 PM 9.75 49.55 0.027 6.66 2.58 11.21
4/13/2021 4:15:00 PM 9.73 49.514 0.027 6.67 2.66 11.23
4/13/2021 4:30:00 PM 9.72 49.496 0.027 6.66 2.63 11.25
4/13/2021 4:45:00 PM 9.73 49.514 0.027 6.68 2.71 11.28
4/13/2021 5:00:00 PM 9.73 49.514 0.027 6.68 2.52 11.28
4/13/2021 5:15:00 PM 9.71 49.478 0.027 6.68 2.67 11.27
4/13/2021 5:30:00 PM 9.68 49.424 0.027 6.67 2.54 11.27
4/13/2021 5:45:00 PM 9.66 49.388 0.027 6.66 2.59 11.26
4/13/2021 6:00:00 PM 9.65 49.37 0.027 6.65 2.53 11.25
4/13/2021 6:15:00 PM 9.65 49.37 0.027 6.67 2.52 11.25
4/13/2021 6:30:00 PM 9.64 49.352 0.027 6.65 2.6 11.25
4/13/2021 6:45:00 PM 9.62 49.316 0.027 6.65 2.53 11.23
4/13/2021 7:00:00 PM 9.58 49.244 0.027 6.63 2.57 11.22
4/13/2021 7:15:00 PM 9.54 49.172 0.027 6.62 2.61 11.2
4/13/2021 7:30:00 PM 9.51 49.118 0.027 6.6 2.69 11.18
4/13/2021 7:45:00 PM 9.46 49.028 0.027 6.59 2.55 11.18
4/13/2021 8:00:00 PM 9.41 48.938 0.027 6.58 2.58 11.17
4/13/2021 8:15:00 PM 9.36 48.848 0.027 6.56 2.67 11.17
4/13/2021 8:30:00 PM 9.31 48.758 0.027 6.56 2.55 11.17
4/13/2021 8:45:00 PM 9.26 48.668 0.027 6.57 2.57 11.18
4/13/2021 9:00:00 PM 9.21 48.578 0.028 6.58 2.56 11.2
4/13/2021 9:15:00 PM 9.15 48.47 0.028 6.57 2.6 11.21
4/13/2021 9:30:00 PM 9.1 48.38 0.028 6.56 2.56 11.23
4/13/2021 9:45:00 PM 9.05 48.29 0.028 6.56 2.67 11.25
4/13/2021 10:00:00 PM 9 48.2 0.028 6.56 2.69 11.26
4/13/2021 10:15:00 PM 8.94 48.092 0.028 6.56 2.68 11.27
4/13/2021 10:30:00 PM 8.9 48.02 0.028 6.57 2.68 11.29
4/13/2021 10:45:00 PM 8.85 47.93 0.028 6.56 2.61 11.3
4/13/2021 11:00:00 PM 8.8 47.84 0.028 6.58 2.62 11.31
4/13/2021 11:15:00 PM 8.76 47.768 0.027 6.58 2.71 11.32
4/13/2021 11:30:00 PM 8.71 47.678 0.027 6.56 2.63 11.34
4/13/2021 11:45:00 PM 8.67 47.606 0.028 6.58 2.59 11.35
4/14/2021 12:00:00 AM 8.62 47.516 0.028 6.58 2.74 11.36
4/14/2021 12:15:00 AM 8.58 47.444 0.028 6.58 2.58 11.37
4/14/2021 12:30:00 AM 8.54 47.372 0.028 6.57 2.66 11.38
4/14/2021 12:45:00 AM 8.51 47.318 0.028 6.56 2.57 11.4
4/14/2021 1:00:00 AM 8.48 47.264 0.028 6.56 2.65 11.41
4/14/2021 1:15:00 AM 8.45 47.21 0.028 6.56 2.55 11.41
4/14/2021 1:30:00 AM 8.42 47.156 0.028 6.56 2.47 11.42
4/14/2021 1:45:00 AM 8.39 47.102 0.028 6.55 2.63 11.43
4/14/2021 2:00:00 AM 8.36 47.048 0.028 6.57 2.54 11.44
4/14/2021 2:15:00 AM 8.33 46.994 0.028 6.56 2.57 11.44
4/14/2021 2:30:00 AM 8.29 46.922 0.028 6.57 2.59 11.46
4/14/2021 2:45:00 AM 8.26 46.868 0.028 6.55 2.62 11.46
4/14/2021 3:00:00 AM 8.23 46.814 0.028 6.56 2.6 11.47
4/14/2021 3:15:00 AM 8.2 46.76 0.028 6.57 2.63 11.48
4/14/2021 3:30:00 AM 8.16 46.688 0.028 6.57 2.56 11.49
4/14/2021 3:45:00 AM 8.13 46.634 0.028 6.57 2.59 11.5
4/14/2021 4:00:00 AM 8.09 46.562 0.028 6.56 2.58 11.51
4/14/2021 4:15:00 AM 8.07 46.526 0.028 6.56 2.6 11.52
4/14/2021 4:30:00 AM 8.04 46.472 0.028 6.57 2.61 11.52
4/14/2021 4:45:00 AM 8.02 46.436 0.028 6.58 2.62 11.53
4/14/2021 5:00:00 AM 7.99 46.382 0.028 6.58 2.62 11.54
4/14/2021 5:15:00 AM 7.96 46.328 0.028 6.57 2.59 11.54
4/14/2021 5:30:00 AM 7.94 46.292 0.028 6.56 2.6 11.55
4/14/2021 5:45:00 AM 7.91 46.238 0.028 6.58 2.5 11.55
4/14/2021 6:00:00 AM 7.88 46.184 0.028 6.57 2.68 11.57
4/14/2021 6:15:00 AM 7.85 46.13 0.028 6.57 2.63 11.58
4/14/2021 6:30:00 AM 7.82 46.076 0.028 6.58 2.69 11.59
4/14/2021 6:45:00 AM 7.8 46.04 0.028 6.57 2.61 11.6
4/14/2021 7:00:00 AM 7.78 46.004 0.028 6.58 2.57 11.62
4/14/2021 7:15:00 AM 7.77 45.986 0.028 6.59 2.63 11.65
4/14/2021 7:30:00 AM 7.76 45.968 0.028 6.6 2.5 11.67
4/14/2021 7:45:00 AM 7.77 45.986 0.028 6.6 2.48 11.71
4/14/2021 8:00:00 AM 7.78 46.004 0.028 6.62 2.63 11.73
4/14/2021 8:15:00 AM 7.8 46.04 0.028 6.64 2.51 11.74
4/14/2021 8:30:00 AM 7.83 46.094 0.027 6.65 2.56 11.76
4/14/2021 8:45:00 AM 7.86 46.148 0.027 6.66 2.47 11.77
4/14/2021 9:00:00 AM 7.9 46.22 0.027 6.67 2.49 11.77
4/14/2021 9:15:00 AM 7.96 46.328 0.027 6.68 2.48 11.77
4/14/2021 9:30:00 AM 8.03 46.454 0.027 6.69 2.5 11.76
4/14/2021 9:45:00 AM 8.1 46.58 0.027 6.7 2.55 11.76
4/14/2021 10:00:00 AM 8.18 46.724 0.027 6.71 2.53 11.74
4/14/2021 10:15:00 AM 8.24 46.832 0.027 6.7 2.58 11.71
4/14/2021 10:30:00 AM 8.3 46.94 0.027 6.7 2.51 11.7
4/14/2021 10:45:00 AM 8.38 47.084 0.027 6.71 2.45 11.68
4/14/2021 11:00:00 AM 8.45 47.21 0.027 6.71 2.5 11.66
4/14/2021 11:15:00 AM 8.53 47.354 0.027 6.71 2.63 11.65
4/14/2021 11:30:00 AM 8.63 47.534 0.027 6.71 2.67 11.63
4/14/2021 11:45:00 AM 8.73 47.714 0.027 6.71 2.6 11.61
4/14/2021 12:00:00 PM 8.9 48.02 0.027 6.73 2.55 11.58
4/14/2021 12:15:00 PM 9.06 48.308 0.027 6.73 2.61 11.54
4/14/2021 12:30:00 PM 9.21 48.578 0.027 6.73 2.55 11.5
4/14/2021 12:45:00 PM 9.41 48.938 0.027 6.75 2.57 11.46
4/14/2021 1:00:00 PM 9.5 49.1 0.027 6.72 2.59 11.41
4/14/2021 1:15:00 PM 9.55 49.19 0.027 6.7 2.61 11.37
4/14/2021 1:30:00 PM 9.61 49.298 0.027 6.71 2.65 11.35
4/14/2021 1:45:00 PM 9.73 49.514 0.027 6.73 2.61 11.33
4/14/2021 2:00:00 PM 9.9 49.82 0.027 6.74 2.55 11.3
4/14/2021 2:15:00 PM 10 50 0.027 6.73 2.68 11.26
4/14/2021 2:30:00 PM 10.07 50.126 0.027 6.72 2.81 11.21
4/14/2021 2:45:00 PM 10.02 50.036 0.027 6.69 2.6 11.18
4/14/2021 3:00:00 PM 9.99 49.982 0.027 6.69 2.65 11.16
4/14/2021 3:15:00 PM 9.99 49.982 0.027 6.68 2.7 11.16
4/14/2021 3:30:00 PM 10 50 0.027 6.68 2.63 11.16
4/14/2021 3:45:00 PM 10.01 50.018 0.027 6.68 2.59 11.16
4/14/2021 4:00:00 PM 10.02 50.036 0.027 6.68 2.54 11.15
4/14/2021 4:15:00 PM 10.09 50.162 0.027 6.7 2.7 11.13
4/14/2021 4:30:00 PM 10.2 50.36 0.027 6.7 2.57 11.12
4/14/2021 4:45:00 PM 10.26 50.468 0.027 6.7 2.68 11.09
4/14/2021 5:00:00 PM 10.24 50.432 0.027 6.67 2.56 11.07
4/14/2021 5:15:00 PM 10.21 50.378 0.027 6.68 2.72 11.07
4/14/2021 5:30:00 PM 10.2 50.36 0.027 6.65 2.64 11.07
4/14/2021 5:45:00 PM 10.19 50.342 0.027 6.66 2.63 11.05
4/14/2021 6:00:00 PM 10.16 50.288 0.027 6.67 2.62 11.05
4/14/2021 6:15:00 PM 10.11 50.198 0.027 6.66 2.59 11.05
4/14/2021 6:30:00 PM 10.05 50.09 0.027 6.65 2.52 11.05
4/14/2021 6:45:00 PM 10 50 0.027 6.63 2.59 11.04
4/14/2021 7:00:00 PM 9.96 49.928 0.027 6.61 2.58 11.03
4/14/2021 7:15:00 PM 9.91 49.838 0.027 6.6 2.63 11.01
4/14/2021 7:30:00 PM 9.87 49.766 0.027 6.59 2.7 11
4/14/2021 7:45:00 PM 9.83 49.694 0.027 6.59 2.6 10.99
4/14/2021 8:00:00 PM 9.79 49.622 0.027 6.55 2.63 10.98
4/14/2021 8:15:00 PM 9.76 49.568 0.027 6.55 2.6 10.98
4/14/2021 8:30:00 PM 9.72 49.496 0.028 6.55 2.62 10.98
4/14/2021 8:45:00 PM 9.68 49.424 0.028 6.56 2.7 10.99
4/14/2021 9:00:00 PM 9.64 49.352 0.028 6.56 2.66 11
4/14/2021 9:15:00 PM 9.61 49.298 0.028 6.55 2.68 11
4/14/2021 9:30:00 PM 9.57 49.226 0.028 6.55 2.6 11.02
4/14/2021 9:45:00 PM 9.53 49.154 0.028 6.55 2.59 11.03
4/14/2021 10:00:00 PM 9.49 49.082 0.028 6.56 2.58 11.02
4/14/2021 10:15:00 PM 9.45 49.01 0.028 6.54 2.71 11.04
4/14/2021 10:30:00 PM 9.41 48.938 0.028 6.54 2.67 11.05
4/14/2021 10:45:00 PM 9.37 48.866 0.028 6.56 2.6 11.06
4/14/2021 11:00:00 PM 9.32 48.776 0.028 6.55 2.65 11.07
4/14/2021 11:15:00 PM 9.28 48.704 0.028 6.56 2.69 11.08
4/14/2021 11:30:00 PM 9.24 48.632 0.028 6.55 2.8 11.09
4/14/2021 11:45:00 PM 9.2 48.56 0.028 6.57 2.64 11.11
4/15/2021 12:00:00 AM 9.16 48.488 0.028 6.57 2.69 11.12
4/15/2021 12:15:00 AM 9.12 48.416 0.028 6.59 2.69 11.12
4/15/2021 12:30:00 AM 9.07 48.326 0.028 6.57 2.68 11.13
4/15/2021 12:45:00 AM 9.03 48.254 0.028 6.58 2.76 11.15
4/15/2021 1:00:00 AM 8.99 48.182 0.028 6.57 2.65 11.16
4/15/2021 1:15:00 AM 8.94 48.092 0.028 6.58 2.61 11.17
4/15/2021 1:30:00 AM 8.9 48.02 0.028 6.58 2.59 11.18
4/15/2021 1:45:00 AM 8.85 47.93 0.028 6.59 2.67 11.19
4/15/2021 2:00:00 AM 8.82 47.876 0.028 6.59 2.71 11.2
4/15/2021 2:15:00 AM 8.78 47.804 0.028 6.6 2.63 11.22
4/15/2021 2:30:00 AM 8.74 47.732 0.028 6.61 2.74 11.22
4/15/2021 2:45:00 AM 8.71 47.678 0.028 6.6 2.62 11.23
4/15/2021 3:00:00 AM 8.68 47.624 0.028 6.58 2.71 11.23
4/15/2021 3:15:00 AM 8.65 47.57 0.028 6.61 2.64 11.24
4/15/2021 3:30:00 AM 8.62 47.516 0.028 6.6 2.62 11.25
4/15/2021 3:45:00 AM 8.59 47.462 0.028 6.58 2.66 11.25
4/15/2021 4:00:00 AM 8.57 47.426 0.028 6.59 2.6 11.26
4/15/2021 4:15:00 AM 8.54 47.372 0.028 6.58 2.7 11.26
4/15/2021 4:30:00 AM 8.52 47.336 0.028 6.59 2.75 11.27
4/15/2021 4:45:00 AM 8.49 47.282 0.028 6.6 2.63 11.27
4/15/2021 5:00:00 AM 8.47 47.246 0.028 6.6 2.65 11.28
4/15/2021 5:15:00 AM 8.45 47.21 0.028 6.61 2.61 11.29
4/15/2021 5:30:00 AM 8.42 47.156 0.028 6.6 2.57 11.3
4/15/2021 5:45:00 AM 8.4 47.12 0.028 6.61 2.62 11.3
4/15/2021 6:00:00 AM 8.37 47.066 0.028 6.6 2.63 11.31
4/15/2021 6:15:00 AM 8.35 47.03 0.028 6.58 2.7 11.32
4/15/2021 6:30:00 AM 8.32 46.976 0.028 6.57 2.73 11.33
4/15/2021 6:45:00 AM 8.28 46.904 0.028 6.6 2.68 11.34
4/15/2021 7:00:00 AM 8.26 46.868 0.028 6.59 2.7 11.36
4/15/2021 7:15:00 AM 8.24 46.832 0.028 6.59 2.67 11.38
4/15/2021 7:30:00 AM 8.22 46.796 0.028 6.61 2.58 11.41
4/15/2021 7:45:00 AM 8.21 46.778 0.028 6.6 2.59 11.44
4/15/2021 8:00:00 AM 8.21 46.778 0.028 6.63 2.6 11.46
4/15/2021 8:15:00 AM 8.21 46.778 0.028 6.64 2.52 11.48
4/15/2021 8:30:00 AM 8.21 46.778 0.028 6.63 2.57 11.48
4/15/2021 8:45:00 AM 8.2 46.76 0.028 6.63 2.64 11.46
4/15/2021 9:00:00 AM 8.2 46.76 0.028 6.63 2.73 11.46
4/15/2021 9:15:00 AM 8.2 46.76 0.028 6.64 2.83 11.48
4/15/2021 9:30:00 AM 8.22 46.796 0.028 6.65 2.62 11.51
4/15/2021 9:45:00 AM 8.24 46.832 0.027 6.66 2.61 11.51
4/15/2021 10:00:00 AM 8.27 46.886 0.027 6.66 2.64 11.53
4/15/2021 10:15:00 AM 8.29 46.922 0.027 6.67 2.59 11.54
4/15/2021 10:30:00 AM 8.29 46.922 0.027 6.69 2.59 11.52
4/15/2021 10:45:00 AM 8.3 46.94 0.027 6.67 2.64 11.52
4/15/2021 11:00:00 AM 8.33 46.994 0.027 6.7 2.67 11.54
4/15/2021 11:15:00 AM 8.33 46.994 0.027 6.71 2.62 11.54
4/15/2021 11:30:00 AM 8.32 46.976 0.027 6.7 2.52 11.54
4/15/2021 11:45:00 AM 8.31 46.958 0.027 6.69 2.55 11.52
4/15/2021 12:00:00 PM 8.29 46.922 0.027 6.68 2.78 11.52
4/15/2021 12:15:00 PM 8.31 46.958 0.027 6.7 2.63 11.56
4/15/2021 12:30:00 PM 8.35 47.03 0.027 6.7 2.62 11.58
4/15/2021 12:45:00 PM 8.49 47.282 0.027 6.73 2.57 11.58
4/15/2021 1:00:00 PM 8.69 47.642 0.027 6.76 2.83 11.55
4/15/2021 1:15:00 PM 8.88 47.984 0.027 6.75 2.63 11.49
4/15/2021 1:30:00 PM 8.86 47.948 0.027 6.72 2.67 11.45
4/15/2021 1:45:00 PM 8.98 48.164 0.027 6.72 2.65 11.41
4/15/2021 2:00:00 PM 8.95 48.11 0.027 6.69 2.61 11.41
4/15/2021 2:15:00 PM 8.91 48.038 0.027 6.69 2.68 11.42
4/15/2021 2:30:00 PM 8.87 47.966 0.027 6.7 2.62 11.41
4/15/2021 2:45:00 PM 8.85 47.93 0.027 6.7 2.56 11.42
4/15/2021 3:00:00 PM 8.83 47.894 0.027 6.7 2.91 11.43
4/15/2021 3:15:00 PM 8.81 47.858 0.027 6.69 2.65 11.41
4/15/2021 3:30:00 PM 8.78 47.804 0.027 6.69 2.65 11.42
4/15/2021 3:45:00 PM 8.76 47.768 0.027 6.7 2.88 11.42
4/15/2021 4:00:00 PM 8.73 47.714 0.027 6.69 2.59 11.42
4/15/2021 4:15:00 PM 8.67 47.606 0.027 6.68 2.55 11.42
4/15/2021 4:30:00 PM 8.63 47.534 0.027 6.68 2.62 11.43
4/15/2021 4:45:00 PM 8.58 47.444 0.027 6.68 2.59 11.42
4/15/2021 5:00:00 PM 8.55 47.39 0.027 6.68 2.61 11.43
4/15/2021 5:15:00 PM 8.53 47.354 0.027 6.69 2.58 11.46
4/15/2021 5:30:00 PM 8.52 47.336 0.027 6.7 2.57 11.47
4/15/2021 5:45:00 PM 8.5 47.3 0.027 6.68 2.95 11.47
4/15/2021 6:00:00 PM 8.47 47.246 0.027 6.67 2.7 11.45
4/15/2021 6:15:00 PM 8.42 47.156 0.027 6.65 2.55 11.43
4/15/2021 6:30:00 PM 8.37 47.066 0.027 6.65 2.64 11.42
4/15/2021 6:45:00 PM 8.34 47.012 0.027 6.64 2.58 11.41
4/15/2021 7:00:00 PM 8.3 46.94 0.027 6.62 2.61 11.41
4/15/2021 7:15:00 PM 8.26 46.868 0.028 6.63 2.66 11.41
4/15/2021 7:30:00 PM 8.22 46.796 0.028 6.63 2.57 11.4
4/15/2021 7:45:00 PM 8.18 46.724 0.028 6.6 2.61 11.39
4/15/2021 8:00:00 PM 8.14 46.652 0.028 6.6 2.68 11.39
4/15/2021 8:15:00 PM 8.1 46.58 0.028 6.6 2.61 11.39
4/15/2021 8:30:00 PM 8.07 46.526 0.028 6.59 2.7 11.4
4/15/2021 8:45:00 PM 8.03 46.454 0.028 6.59 2.63 11.4
4/15/2021 9:00:00 PM 8 46.4 0.028 6.6 2.63 11.41
4/15/2021 9:15:00 PM 7.96 46.328 0.028 6.6 2.62 11.42
4/15/2021 9:30:00 PM 7.93 46.274 0.028 6.59 2.57 11.43
4/15/2021 9:45:00 PM 7.89 46.202 0.028 6.59 2.61 11.44
4/15/2021 10:00:00 PM 7.84 46.112 0.028 6.59 2.74 11.45
4/15/2021 10:15:00 PM 7.81 46.058 0.027 6.6 2.63 11.46
4/15/2021 10:30:00 PM 7.77 45.986 0.028 6.58 2.85 11.47
4/15/2021 10:45:00 PM 7.74 45.932 0.028 6.59 2.72 11.48
4/15/2021 11:00:00 PM 7.7 45.86 0.028 6.58 2.73 11.49
4/15/2021 11:15:00 PM 7.67 45.806 0.028 6.59 2.66 11.5
4/15/2021 11:30:00 PM 7.63 45.734 0.028 6.59 2.81 11.52
4/15/2021 11:45:00 PM 7.57 45.626 0.028 6.6 2.71 11.53
4/16/2021 12:00:00 AM 7.52 45.536 0.028 6.58 2.7 11.54
4/16/2021 12:15:00 AM 7.46 45.428 0.028 6.58 2.75 11.56
4/16/2021 12:30:00 AM 7.41 45.338 0.028 6.59 2.73 11.57
4/16/2021 12:45:00 AM 7.35 45.23 0.028 6.59 2.65 11.59
4/16/2021 1:00:00 AM 7.3 45.14 0.028 6.58 2.86 11.61
4/16/2021 1:15:00 AM 7.26 45.068 0.028 6.57 2.68 11.61
4/16/2021 1:30:00 AM 7.23 45.014 0.028 6.59 2.74 11.63
4/16/2021 1:45:00 AM 7.2 44.96 0.028 6.58 2.7 11.64
4/16/2021 2:00:00 AM 7.16 44.888 0.028 6.59 2.72 11.64
4/16/2021 2:15:00 AM 7.13 44.834 0.028 6.59 2.73 11.65
4/16/2021 2:30:00 AM 7.09 44.762 0.028 6.58 2.63 11.66
4/16/2021 2:45:00 AM 7.06 44.708 0.028 6.6 2.65 11.67
4/16/2021 3:00:00 AM 7.03 44.654 0.028 6.61 2.7 11.68
4/16/2021 3:15:00 AM 7 44.6 0.028 6.6 2.69 11.69
4/16/2021 3:30:00 AM 6.97 44.546 0.028 6.6 2.69 11.69
4/16/2021 3:45:00 AM 6.95 44.51 0.028 6.59 2.73 11.7
4/16/2021 4:00:00 AM 6.93 44.474 0.028 6.59 2.65 11.71
4/16/2021 4:15:00 AM 6.91 44.438 0.028 6.6 2.69 11.71
4/16/2021 4:30:00 AM 6.89 44.402 0.028 6.6 2.72 11.71
4/16/2021 4:45:00 AM 6.88 44.384 0.028 6.6 2.63 11.72
4/16/2021 5:00:00 AM 6.86 44.348 0.028 6.58 2.65 11.72
4/16/2021 5:15:00 AM 6.84 44.312 0.028 6.6 2.68 11.73
4/16/2021 5:30:00 AM 6.82 44.276 0.028 6.61 2.74 11.74
4/16/2021 5:45:00 AM 6.81 44.258 0.028 6.6 2.69 11.74
4/16/2021 6:00:00 AM 6.79 44.222 0.028 6.61 2.68 11.74
4/16/2021 6:15:00 AM 6.78 44.204 0.028 6.59 2.54 11.75
4/16/2021 6:30:00 AM 6.76 44.168 0.028 6.62 2.71 11.75
4/16/2021 6:45:00 AM 6.73 44.114 0.028 6.61 2.64 11.76
4/16/2021 7:00:00 AM 6.7 44.06 0.028 6.6 2.76 11.78
4/16/2021 7:15:00 AM 6.69 44.042 0.028 6.61 2.69 11.79
4/16/2021 7:30:00 AM 6.68 44.024 0.027 6.63 2.76 11.8
4/16/2021 7:45:00 AM 6.66 43.988 0.027 6.63 2.75 11.84
4/16/2021 8:00:00 AM 6.65 43.97 0.027 6.64 2.65 11.88
4/16/2021 8:15:00 AM 6.66 43.988 0.027 6.67 2.62 11.91
4/16/2021 8:30:00 AM 6.67 44.006 0.027 6.65 2.66 11.93
4/16/2021 8:45:00 AM 6.69 44.042 0.027 6.67 2.61 11.95
4/16/2021 9:00:00 AM 6.7 44.06 0.027 6.68 2.64 11.94
4/16/2021 9:15:00 AM 6.71 44.078 0.027 6.69 2.58 11.94
4/16/2021 9:30:00 AM 6.74 44.132 0.027 6.69 2.51 11.95
4/16/2021 9:45:00 AM 6.77 44.186 0.027 6.69 2.56 11.96
4/16/2021 10:00:00 AM 6.81 44.258